<?xml version="1.0" encoding="UTF-8" standalone="no" ?>
<gpx xmlns="http://www.topografix.com/GPX/1/1" xmlns:xsi="http://www.w3.org/2001/XMLSchema-instance" xsi:schemaLocation="http://www.topografix.com/GPX/1/1 http://www.topografix.com/GPX/1/1/gpx.xsd" version="1.1" creator="VisuGPX - https://www.visugpx.com">
  <metadata>
    <name>La Route Napoléon à Cheval© dans les Hautes Alpes - Itinéraire principal</name>
    <desc><![CDATA[

C'est un parcours de 126 km de de Sisteron à Corps. L'altitude varie de 497 m à 1 709 m. Le dénivelé maximum est de 17 %. La Moyenne Montagne représente 22 % du parcours.

Randonner sur la Route Napoléon à Cheval avec un centre équestre
Les Sabots de Vénus, 2833 route des Baux, 05400 La Roche des Arnauds.

Site internet : http://www.les-sabots-de-venus.com 
Mail : lessabotsdevenus@aol.com  Tél : 06 32 83 11 64 ou 06 43 80 40 31
]]></desc>
  </metadata>
  <trk>
    <name><![CDATA[4506829-Route Napoléon à Cheval]]></name>
    <trkseg>
      <trkpt lat="44.19714" lon="5.91332">
        <ele>574</ele>
        <time>2018-05-15T21:24:17Z</time>
      </trkpt>
      <trkpt lat="44.19768" lon="5.91189">
        <ele>570</ele>
        <time>2018-05-15T21:25:17Z</time>
      </trkpt>
      <trkpt lat="44.19786" lon="5.91082">
        <ele>567</ele>
        <time>2018-05-15T21:26:17Z</time>
      </trkpt>
      <trkpt lat="44.19808" lon="5.91022">
        <ele>563</ele>
        <time>2018-05-15T21:27:17Z</time>
      </trkpt>
      <trkpt lat="44.19823" lon="5.90859">
        <ele>555</ele>
        <time>2018-05-15T21:28:17Z</time>
      </trkpt>
      <trkpt lat="44.19814" lon="5.90777">
        <ele>558</ele>
        <time>2018-05-15T21:29:17Z</time>
      </trkpt>
      <trkpt lat="44.1991" lon="5.90721">
        <ele>540</ele>
        <time>2018-05-15T21:30:17Z</time>
      </trkpt>
      <trkpt lat="44.1995" lon="5.9064">
        <ele>536</ele>
        <time>2018-05-15T21:31:17Z</time>
      </trkpt>
      <trkpt lat="44.19986" lon="5.9055">
        <ele>528</ele>
        <time>2018-05-15T21:32:17Z</time>
      </trkpt>
      <trkpt lat="44.19996" lon="5.9049">
        <ele>525</ele>
        <time>2018-05-15T21:33:17Z</time>
      </trkpt>
      <trkpt lat="44.2003" lon="5.90339">
        <ele>515</ele>
        <time>2018-05-15T21:34:17Z</time>
      </trkpt>
      <trkpt lat="44.20091" lon="5.90232">
        <ele>503</ele>
        <time>2018-05-15T21:35:17Z</time>
      </trkpt>
      <trkpt lat="44.2011" lon="5.89897">
        <ele>505</ele>
        <time>2018-05-15T21:36:17Z</time>
      </trkpt>
      <trkpt lat="44.20082" lon="5.89567">
        <ele>511</ele>
        <time>2018-05-15T21:37:17Z</time>
      </trkpt>
      <trkpt lat="44.20106" lon="5.89477">
        <ele>509</ele>
        <time>2018-05-15T21:38:17Z</time>
      </trkpt>
      <trkpt lat="44.20106" lon="5.8934">
        <ele>508</ele>
        <time>2018-05-15T21:39:17Z</time>
      </trkpt>
      <trkpt lat="44.20171" lon="5.89164">
        <ele>505</ele>
        <time>2018-05-15T21:40:17Z</time>
      </trkpt>
      <trkpt lat="44.20208" lon="5.88885">
        <ele>502</ele>
        <time>2018-05-15T21:41:17Z</time>
      </trkpt>
      <trkpt lat="44.20245" lon="5.88769">
        <ele>501</ele>
        <time>2018-05-15T21:42:17Z</time>
      </trkpt>
      <trkpt lat="44.20245" lon="5.88683">
        <ele>500</ele>
        <time>2018-05-15T21:43:17Z</time>
      </trkpt>
      <trkpt lat="44.20245" lon="5.88576">
        <ele>499</ele>
        <time>2018-05-15T21:44:17Z</time>
      </trkpt>
      <trkpt lat="44.20239" lon="5.88533">
        <ele>500</ele>
        <time>2018-05-15T21:45:17Z</time>
      </trkpt>
      <trkpt lat="44.20254" lon="5.88434">
        <ele>499</ele>
        <time>2018-05-15T21:46:17Z</time>
      </trkpt>
      <trkpt lat="44.20233" lon="5.88314">
        <ele>501</ele>
        <time>2018-05-15T21:47:17Z</time>
      </trkpt>
      <trkpt lat="44.20285" lon="5.88129">
        <ele>501</ele>
        <time>2018-05-15T21:48:17Z</time>
      </trkpt>
      <trkpt lat="44.20319" lon="5.88056">
        <ele>501</ele>
        <time>2018-05-15T21:49:17Z</time>
      </trkpt>
      <trkpt lat="44.20485" lon="5.87614">
        <ele>509</ele>
        <time>2018-05-15T21:50:17Z</time>
      </trkpt>
      <trkpt lat="44.20248" lon="5.87503">
        <ele>520</ele>
        <time>2018-05-15T21:51:17Z</time>
      </trkpt>
      <trkpt lat="44.20196" lon="5.87456">
        <ele>523</ele>
        <time>2018-05-15T21:52:17Z</time>
      </trkpt>
      <trkpt lat="44.20153" lon="5.87413">
        <ele>525</ele>
        <time>2018-05-15T21:53:17Z</time>
      </trkpt>
      <trkpt lat="44.20094" lon="5.87391">
        <ele>530</ele>
        <time>2018-05-15T21:54:17Z</time>
      </trkpt>
      <trkpt lat="44.20017" lon="5.87228">
        <ele>536</ele>
        <time>2018-05-15T21:55:17Z</time>
      </trkpt>
      <trkpt lat="44.19953" lon="5.87181">
        <ele>544</ele>
        <time>2018-05-15T21:56:17Z</time>
      </trkpt>
      <trkpt lat="44.19946" lon="5.87138">
        <ele>544</ele>
        <time>2018-05-15T21:57:17Z</time>
      </trkpt>
      <trkpt lat="44.19956" lon="5.87044">
        <ele>546</ele>
        <time>2018-05-15T21:58:17Z</time>
      </trkpt>
      <trkpt lat="44.19943" lon="5.87014">
        <ele>548</ele>
        <time>2018-05-15T21:59:17Z</time>
      </trkpt>
      <trkpt lat="44.19937" lon="5.86971">
        <ele>553</ele>
        <time>2018-05-15T22:00:17Z</time>
      </trkpt>
      <trkpt lat="44.20153" lon="5.86919">
        <ele>550</ele>
        <time>2018-05-15T22:01:17Z</time>
      </trkpt>
      <trkpt lat="44.20242" lon="5.86911">
        <ele>541</ele>
        <time>2018-05-15T22:02:17Z</time>
      </trkpt>
      <trkpt lat="44.20282" lon="5.86971">
        <ele>532</ele>
        <time>2018-05-15T22:03:17Z</time>
      </trkpt>
      <trkpt lat="44.20485" lon="5.86876">
        <ele>526</ele>
        <time>2018-05-15T22:04:17Z</time>
      </trkpt>
      <trkpt lat="44.20568" lon="5.86829">
        <ele>524</ele>
        <time>2018-05-15T22:05:17Z</time>
      </trkpt>
      <trkpt lat="44.20685" lon="5.86786">
        <ele>523</ele>
        <time>2018-05-15T22:06:17Z</time>
      </trkpt>
      <trkpt lat="44.20786" lon="5.86756">
        <ele>519</ele>
        <time>2018-05-15T22:07:17Z</time>
      </trkpt>
      <trkpt lat="44.2086" lon="5.86627">
        <ele>520</ele>
        <time>2018-05-15T22:08:17Z</time>
      </trkpt>
      <trkpt lat="44.21094" lon="5.86507">
        <ele>515</ele>
        <time>2018-05-15T22:09:17Z</time>
      </trkpt>
      <trkpt lat="44.2118" lon="5.86481">
        <ele>516</ele>
        <time>2018-05-15T22:10:17Z</time>
      </trkpt>
      <trkpt lat="44.21472" lon="5.8637">
        <ele>513</ele>
        <time>2018-05-15T22:11:17Z</time>
      </trkpt>
      <trkpt lat="44.21595" lon="5.86327">
        <ele>514</ele>
        <time>2018-05-15T22:12:17Z</time>
      </trkpt>
      <trkpt lat="44.21678" lon="5.86258">
        <ele>513</ele>
        <time>2018-05-15T22:13:17Z</time>
      </trkpt>
      <trkpt lat="44.21771" lon="5.86198">
        <ele>513</ele>
        <time>2018-05-15T22:14:17Z</time>
      </trkpt>
      <trkpt lat="44.21857" lon="5.86202">
        <ele>513</ele>
        <time>2018-05-15T22:15:17Z</time>
      </trkpt>
      <trkpt lat="44.21995" lon="5.86091">
        <ele>517</ele>
        <time>2018-05-15T22:16:17Z</time>
      </trkpt>
      <trkpt lat="44.22146" lon="5.85949">
        <ele>519</ele>
        <time>2018-05-15T22:17:17Z</time>
      </trkpt>
      <trkpt lat="44.22294" lon="5.85908">
        <ele>520</ele>
        <time>2018-05-15T22:18:17Z</time>
      </trkpt>
      <trkpt lat="44.2231" lon="5.85862">
        <ele>521</ele>
        <time>2018-05-15T22:19:17Z</time>
      </trkpt>
      <trkpt lat="44.22463" lon="5.85828">
        <ele>525</ele>
        <time>2018-05-15T22:20:17Z</time>
      </trkpt>
      <trkpt lat="44.22751" lon="5.85782">
        <ele>523</ele>
        <time>2018-05-15T22:21:17Z</time>
      </trkpt>
      <trkpt lat="44.22839" lon="5.85739">
        <ele>523</ele>
        <time>2018-05-15T22:22:17Z</time>
      </trkpt>
      <trkpt lat="44.22942" lon="5.85714">
        <ele>524</ele>
        <time>2018-05-15T22:23:17Z</time>
      </trkpt>
      <trkpt lat="44.22959" lon="5.85756">
        <ele>522</ele>
        <time>2018-05-15T22:24:17Z</time>
      </trkpt>
      <trkpt lat="44.2311" lon="5.85642">
        <ele>523</ele>
        <time>2018-05-15T22:25:17Z</time>
      </trkpt>
      <trkpt lat="44.23206" lon="5.85546">
        <ele>516</ele>
        <time>2018-05-15T22:26:17Z</time>
      </trkpt>
      <trkpt lat="44.2316" lon="5.85707">
        <ele>517</ele>
        <time>2018-05-15T22:27:17Z</time>
      </trkpt>
      <trkpt lat="44.23193" lon="5.85672">
        <ele>514</ele>
        <time>2018-05-15T22:28:17Z</time>
      </trkpt>
      <trkpt lat="44.23286" lon="5.85677">
        <ele>505</ele>
        <time>2018-05-15T22:29:17Z</time>
      </trkpt>
      <trkpt lat="44.23418" lon="5.86068">
        <ele>499</ele>
        <time>2018-05-15T22:30:17Z</time>
      </trkpt>
      <trkpt lat="44.23402" lon="5.86192">
        <ele>497</ele>
        <time>2018-05-15T22:31:17Z</time>
      </trkpt>
      <trkpt lat="44.23527" lon="5.86331">
        <ele>497</ele>
        <time>2018-05-15T22:32:17Z</time>
      </trkpt>
      <trkpt lat="44.23677" lon="5.86314">
        <ele>500</ele>
        <time>2018-05-15T22:33:17Z</time>
      </trkpt>
      <trkpt lat="44.24025" lon="5.86692">
        <ele>526</ele>
        <time>2018-05-15T22:34:17Z</time>
      </trkpt>
      <trkpt lat="44.24157" lon="5.86627">
        <ele>533</ele>
        <time>2018-05-15T22:35:17Z</time>
      </trkpt>
      <trkpt lat="44.24228" lon="5.86374">
        <ele>517</ele>
        <time>2018-05-15T22:36:17Z</time>
      </trkpt>
      <trkpt lat="44.24323" lon="5.86293">
        <ele>516</ele>
        <time>2018-05-15T22:37:17Z</time>
      </trkpt>
      <trkpt lat="44.24458" lon="5.86207">
        <ele>514</ele>
        <time>2018-05-15T22:38:17Z</time>
      </trkpt>
      <trkpt lat="44.24624" lon="5.86082">
        <ele>517</ele>
        <time>2018-05-15T22:39:17Z</time>
      </trkpt>
      <trkpt lat="44.24667" lon="5.85979">
        <ele>513</ele>
        <time>2018-05-15T22:40:17Z</time>
      </trkpt>
      <trkpt lat="44.24781" lon="5.85842">
        <ele>519</ele>
        <time>2018-05-15T22:41:17Z</time>
      </trkpt>
      <trkpt lat="44.24812" lon="5.85765">
        <ele>517</ele>
        <time>2018-05-15T22:42:17Z</time>
      </trkpt>
      <trkpt lat="44.24895" lon="5.85709">
        <ele>525</ele>
        <time>2018-05-15T22:43:17Z</time>
      </trkpt>
      <trkpt lat="44.24882" lon="5.8558">
        <ele>515</ele>
        <time>2018-05-15T22:44:17Z</time>
      </trkpt>
      <trkpt lat="44.24996" lon="5.85477">
        <ele>522</ele>
        <time>2018-05-15T22:45:17Z</time>
      </trkpt>
      <trkpt lat="44.2515" lon="5.85306">
        <ele>523</ele>
        <time>2018-05-15T22:46:17Z</time>
      </trkpt>
      <trkpt lat="44.25233" lon="5.85241">
        <ele>526</ele>
        <time>2018-05-15T22:47:17Z</time>
      </trkpt>
      <trkpt lat="44.25307" lon="5.85168">
        <ele>527</ele>
        <time>2018-05-15T22:48:17Z</time>
      </trkpt>
      <trkpt lat="44.25374" lon="5.85104">
        <ele>526</ele>
        <time>2018-05-15T22:49:17Z</time>
      </trkpt>
      <trkpt lat="44.25466" lon="5.85095">
        <ele>530</ele>
        <time>2018-05-15T22:50:17Z</time>
      </trkpt>
      <trkpt lat="44.25525" lon="5.85022">
        <ele>531</ele>
        <time>2018-05-15T22:51:17Z</time>
      </trkpt>
      <trkpt lat="44.25516" lon="5.85061">
        <ele>532</ele>
        <time>2018-05-15T22:52:17Z</time>
      </trkpt>
      <trkpt lat="44.25531" lon="5.8537">
        <ele>560</ele>
        <time>2018-05-15T22:53:17Z</time>
      </trkpt>
      <trkpt lat="44.25589" lon="5.85516">
        <ele>578</ele>
        <time>2018-05-15T22:54:17Z</time>
      </trkpt>
      <trkpt lat="44.25685" lon="5.85619">
        <ele>596</ele>
        <time>2018-05-15T22:55:17Z</time>
      </trkpt>
      <trkpt lat="44.25752" lon="5.85679">
        <ele>599</ele>
        <time>2018-05-15T22:56:17Z</time>
      </trkpt>
      <trkpt lat="44.25983" lon="5.8567">
        <ele>608</ele>
        <time>2018-05-15T22:57:17Z</time>
      </trkpt>
      <trkpt lat="44.25977" lon="5.85705">
        <ele>609</ele>
        <time>2018-05-15T22:58:17Z</time>
      </trkpt>
      <trkpt lat="44.26084" lon="5.85687">
        <ele>610</ele>
        <time>2018-05-15T22:59:17Z</time>
      </trkpt>
      <trkpt lat="44.26201" lon="5.85623">
        <ele>614</ele>
        <time>2018-05-15T23:00:17Z</time>
      </trkpt>
      <trkpt lat="44.26284" lon="5.85615">
        <ele>613</ele>
        <time>2018-05-15T23:01:17Z</time>
      </trkpt>
      <trkpt lat="44.26309" lon="5.85554">
        <ele>614</ele>
        <time>2018-05-15T23:02:17Z</time>
      </trkpt>
      <trkpt lat="44.26336" lon="5.85619">
        <ele>613</ele>
        <time>2018-05-15T23:03:17Z</time>
      </trkpt>
      <trkpt lat="44.26349" lon="5.85683">
        <ele>613</ele>
        <time>2018-05-15T23:04:17Z</time>
      </trkpt>
      <trkpt lat="44.2633" lon="5.85812">
        <ele>613</ele>
        <time>2018-05-15T23:05:17Z</time>
      </trkpt>
      <trkpt lat="44.26453" lon="5.85924">
        <ele>618</ele>
        <time>2018-05-15T23:06:17Z</time>
      </trkpt>
      <trkpt lat="44.26453" lon="5.85996">
        <ele>618</ele>
        <time>2018-05-15T23:07:17Z</time>
      </trkpt>
      <trkpt lat="44.2665" lon="5.85984">
        <ele>611</ele>
        <time>2018-05-15T23:08:17Z</time>
      </trkpt>
      <trkpt lat="44.26739" lon="5.86005">
        <ele>609</ele>
        <time>2018-05-15T23:09:17Z</time>
      </trkpt>
      <trkpt lat="44.26807" lon="5.8628">
        <ele>588</ele>
        <time>2018-05-15T23:10:17Z</time>
      </trkpt>
      <trkpt lat="44.26883" lon="5.86546">
        <ele>605</ele>
        <time>2018-05-15T23:11:17Z</time>
      </trkpt>
      <trkpt lat="44.26933" lon="5.86614">
        <ele>608</ele>
        <time>2018-05-15T23:12:17Z</time>
      </trkpt>
      <trkpt lat="44.26972" lon="5.86885">
        <ele>612</ele>
        <time>2018-05-15T23:13:17Z</time>
      </trkpt>
      <trkpt lat="44.27381" lon="5.87361">
        <ele>635</ele>
        <time>2018-05-15T23:14:17Z</time>
      </trkpt>
      <trkpt lat="44.27596" lon="5.87417">
        <ele>645</ele>
        <time>2018-05-15T23:15:17Z</time>
      </trkpt>
      <trkpt lat="44.27744" lon="5.87464">
        <ele>646</ele>
        <time>2018-05-15T23:16:17Z</time>
      </trkpt>
      <trkpt lat="44.27851" lon="5.87498">
        <ele>648</ele>
        <time>2018-05-15T23:17:17Z</time>
      </trkpt>
      <trkpt lat="44.27965" lon="5.87503">
        <ele>651</ele>
        <time>2018-05-15T23:18:17Z</time>
      </trkpt>
      <trkpt lat="44.281" lon="5.87563">
        <ele>656</ele>
        <time>2018-05-15T23:19:17Z</time>
      </trkpt>
      <trkpt lat="44.28257" lon="5.87589">
        <ele>659</ele>
        <time>2018-05-15T23:20:17Z</time>
      </trkpt>
      <trkpt lat="44.28383" lon="5.87653">
        <ele>663</ele>
        <time>2018-05-15T23:21:17Z</time>
      </trkpt>
      <trkpt lat="44.2846" lon="5.87739">
        <ele>666</ele>
        <time>2018-05-15T23:22:17Z</time>
      </trkpt>
      <trkpt lat="44.28586" lon="5.87795">
        <ele>670</ele>
        <time>2018-05-15T23:23:17Z</time>
      </trkpt>
      <trkpt lat="44.28665" lon="5.87769">
        <ele>669</ele>
        <time>2018-05-15T23:24:17Z</time>
      </trkpt>
      <trkpt lat="44.28727" lon="5.87704">
        <ele>667</ele>
        <time>2018-05-15T23:25:17Z</time>
      </trkpt>
      <trkpt lat="44.28739" lon="5.87601">
        <ele>669</ele>
        <time>2018-05-15T23:26:17Z</time>
      </trkpt>
      <trkpt lat="44.28844" lon="5.87619">
        <ele>671</ele>
        <time>2018-05-15T23:27:17Z</time>
      </trkpt>
      <trkpt lat="44.29009" lon="5.87687">
        <ele>676</ele>
        <time>2018-05-15T23:28:17Z</time>
      </trkpt>
      <trkpt lat="44.29006" lon="5.8773">
        <ele>676</ele>
        <time>2018-05-15T23:29:17Z</time>
      </trkpt>
      <trkpt lat="44.29154" lon="5.87722">
        <ele>671</ele>
        <time>2018-05-15T23:30:17Z</time>
      </trkpt>
      <trkpt lat="44.29234" lon="5.87782">
        <ele>667</ele>
        <time>2018-05-15T23:31:17Z</time>
      </trkpt>
      <trkpt lat="44.29338" lon="5.87923">
        <ele>665</ele>
        <time>2018-05-15T23:32:17Z</time>
      </trkpt>
      <trkpt lat="44.29498" lon="5.87962">
        <ele>651</ele>
        <time>2018-05-15T23:33:17Z</time>
      </trkpt>
      <trkpt lat="44.2959" lon="5.88001">
        <ele>639</ele>
        <time>2018-05-15T23:34:17Z</time>
      </trkpt>
      <trkpt lat="44.29645" lon="5.8791">
        <ele>631</ele>
        <time>2018-05-15T23:35:17Z</time>
      </trkpt>
      <trkpt lat="44.29762" lon="5.88194">
        <ele>628</ele>
        <time>2018-05-15T23:36:17Z</time>
      </trkpt>
      <trkpt lat="44.29824" lon="5.88284">
        <ele>629</ele>
        <time>2018-05-15T23:37:17Z</time>
      </trkpt>
      <trkpt lat="44.2987" lon="5.88348">
        <ele>630</ele>
        <time>2018-05-15T23:38:17Z</time>
      </trkpt>
      <trkpt lat="44.29959" lon="5.884">
        <ele>627</ele>
        <time>2018-05-15T23:39:17Z</time>
      </trkpt>
      <trkpt lat="44.3014" lon="5.88451">
        <ele>619</ele>
        <time>2018-05-15T23:40:17Z</time>
      </trkpt>
      <trkpt lat="44.30244" lon="5.88464">
        <ele>614</ele>
        <time>2018-05-15T23:41:17Z</time>
      </trkpt>
      <trkpt lat="44.30339" lon="5.88554">
        <ele>609</ele>
        <time>2018-05-15T23:42:17Z</time>
      </trkpt>
      <trkpt lat="44.3045" lon="5.8858">
        <ele>603</ele>
        <time>2018-05-15T23:43:17Z</time>
      </trkpt>
      <trkpt lat="44.30432" lon="5.8852">
        <ele>601</ele>
        <time>2018-05-15T23:44:17Z</time>
      </trkpt>
      <trkpt lat="44.30376" lon="5.88305">
        <ele>606</ele>
        <time>2018-05-15T23:45:17Z</time>
      </trkpt>
      <trkpt lat="44.30398" lon="5.88129">
        <ele>615</ele>
        <time>2018-05-15T23:46:17Z</time>
      </trkpt>
      <trkpt lat="44.30395" lon="5.88022">
        <ele>622</ele>
        <time>2018-05-15T23:47:17Z</time>
      </trkpt>
      <trkpt lat="44.30481" lon="5.88052">
        <ele>616</ele>
        <time>2018-05-15T23:48:17Z</time>
      </trkpt>
      <trkpt lat="44.30573" lon="5.88044">
        <ele>622</ele>
        <time>2018-05-15T23:49:17Z</time>
      </trkpt>
      <trkpt lat="44.30634" lon="5.88121">
        <ele>627</ele>
        <time>2018-05-15T23:50:17Z</time>
      </trkpt>
      <trkpt lat="44.30705" lon="5.88224">
        <ele>629</ele>
        <time>2018-05-15T23:51:17Z</time>
      </trkpt>
      <trkpt lat="44.30794" lon="5.88147">
        <ele>631</ele>
        <time>2018-05-15T23:52:17Z</time>
      </trkpt>
      <trkpt lat="44.30902" lon="5.88018">
        <ele>632</ele>
        <time>2018-05-15T23:53:17Z</time>
      </trkpt>
      <trkpt lat="44.30914" lon="5.87949">
        <ele>636</ele>
        <time>2018-05-15T23:54:17Z</time>
      </trkpt>
      <trkpt lat="44.31018" lon="5.87838">
        <ele>635</ele>
        <time>2018-05-15T23:55:17Z</time>
      </trkpt>
      <trkpt lat="44.31338" lon="5.8758">
        <ele>643</ele>
        <time>2018-05-15T23:56:17Z</time>
      </trkpt>
      <trkpt lat="44.31531" lon="5.8758">
        <ele>668</ele>
        <time>2018-05-15T23:57:17Z</time>
      </trkpt>
      <trkpt lat="44.31568" lon="5.87511">
        <ele>682</ele>
        <time>2018-05-15T23:58:17Z</time>
      </trkpt>
      <trkpt lat="44.31651" lon="5.87525">
        <ele>698</ele>
        <time>2018-05-15T23:59:17Z</time>
      </trkpt>
      <trkpt lat="44.31706" lon="5.87516">
        <ele>711</ele>
        <time>2018-05-16T00:00:17Z</time>
      </trkpt>
      <trkpt lat="44.31789" lon="5.8746">
        <ele>731</ele>
        <time>2018-05-16T00:01:17Z</time>
      </trkpt>
      <trkpt lat="44.31856" lon="5.87541">
        <ele>726</ele>
        <time>2018-05-16T00:02:17Z</time>
      </trkpt>
      <trkpt lat="44.31958" lon="5.87477">
        <ele>734</ele>
        <time>2018-05-16T00:03:17Z</time>
      </trkpt>
      <trkpt lat="44.31995" lon="5.87507">
        <ele>728</ele>
        <time>2018-05-16T00:04:17Z</time>
      </trkpt>
      <trkpt lat="44.32148" lon="5.8746">
        <ele>696</ele>
        <time>2018-05-16T00:05:17Z</time>
      </trkpt>
      <trkpt lat="44.32192" lon="5.87456">
        <ele>687</ele>
        <time>2018-05-16T00:06:17Z</time>
      </trkpt>
      <trkpt lat="44.32308" lon="5.87378">
        <ele>664</ele>
        <time>2018-05-16T00:07:17Z</time>
      </trkpt>
      <trkpt lat="44.32354" lon="5.8731">
        <ele>655</ele>
        <time>2018-05-16T00:08:17Z</time>
      </trkpt>
      <trkpt lat="44.32461" lon="5.87224">
        <ele>635</ele>
        <time>2018-05-16T00:09:17Z</time>
      </trkpt>
      <trkpt lat="44.32436" lon="5.87473">
        <ele>636</ele>
        <time>2018-05-16T00:10:17Z</time>
      </trkpt>
      <trkpt lat="44.32517" lon="5.87571">
        <ele>633</ele>
        <time>2018-05-16T00:11:17Z</time>
      </trkpt>
      <trkpt lat="44.3267" lon="5.87563">
        <ele>632</ele>
        <time>2018-05-16T00:12:17Z</time>
      </trkpt>
      <trkpt lat="44.32811" lon="5.87584">
        <ele>633</ele>
        <time>2018-05-16T00:13:17Z</time>
      </trkpt>
      <trkpt lat="44.32891" lon="5.87584">
        <ele>634</ele>
        <time>2018-05-16T00:14:17Z</time>
      </trkpt>
      <trkpt lat="44.33106" lon="5.87653">
        <ele>651</ele>
        <time>2018-05-16T00:15:17Z</time>
      </trkpt>
      <trkpt lat="44.33213" lon="5.87644">
        <ele>650</ele>
        <time>2018-05-16T00:16:17Z</time>
      </trkpt>
      <trkpt lat="44.33327" lon="5.87674">
        <ele>650</ele>
        <time>2018-05-16T00:17:17Z</time>
      </trkpt>
      <trkpt lat="44.33419" lon="5.87649">
        <ele>653</ele>
        <time>2018-05-16T00:18:17Z</time>
      </trkpt>
      <trkpt lat="44.33499" lon="5.87657">
        <ele>658</ele>
        <time>2018-05-16T00:19:17Z</time>
      </trkpt>
      <trkpt lat="44.33585" lon="5.87606">
        <ele>665</ele>
        <time>2018-05-16T00:20:17Z</time>
      </trkpt>
      <trkpt lat="44.33585" lon="5.87722">
        <ele>664</ele>
        <time>2018-05-16T00:21:17Z</time>
      </trkpt>
      <trkpt lat="44.33536" lon="5.87855">
        <ele>663</ele>
        <time>2018-05-16T00:22:17Z</time>
      </trkpt>
      <trkpt lat="44.33422" lon="5.87953">
        <ele>661</ele>
        <time>2018-05-16T00:23:17Z</time>
      </trkpt>
      <trkpt lat="44.33413" lon="5.88074">
        <ele>661</ele>
        <time>2018-05-16T00:24:17Z</time>
      </trkpt>
      <trkpt lat="44.33336" lon="5.88241">
        <ele>667</ele>
        <time>2018-05-16T00:25:17Z</time>
      </trkpt>
      <trkpt lat="44.33416" lon="5.88297">
        <ele>671</ele>
        <time>2018-05-16T00:26:17Z</time>
      </trkpt>
      <trkpt lat="44.33484" lon="5.88383">
        <ele>673</ele>
        <time>2018-05-16T00:27:17Z</time>
      </trkpt>
      <trkpt lat="44.33545" lon="5.88447">
        <ele>678</ele>
        <time>2018-05-16T00:28:17Z</time>
      </trkpt>
      <trkpt lat="44.3368" lon="5.88528">
        <ele>683</ele>
        <time>2018-05-16T00:29:17Z</time>
      </trkpt>
      <trkpt lat="44.33794" lon="5.88674">
        <ele>683</ele>
        <time>2018-05-16T00:30:17Z</time>
      </trkpt>
      <trkpt lat="44.33852" lon="5.88782">
        <ele>681</ele>
        <time>2018-05-16T00:31:17Z</time>
      </trkpt>
      <trkpt lat="44.33944" lon="5.88842">
        <ele>683</ele>
        <time>2018-05-16T00:32:17Z</time>
      </trkpt>
      <trkpt lat="44.34144" lon="5.88889">
        <ele>683</ele>
        <time>2018-05-16T00:33:17Z</time>
      </trkpt>
      <trkpt lat="44.34199" lon="5.88867">
        <ele>689</ele>
        <time>2018-05-16T00:34:17Z</time>
      </trkpt>
      <trkpt lat="44.3438" lon="5.88889">
        <ele>695</ele>
        <time>2018-05-16T00:35:17Z</time>
      </trkpt>
      <trkpt lat="44.34454" lon="5.88953">
        <ele>697</ele>
        <time>2018-05-16T00:36:17Z</time>
      </trkpt>
      <trkpt lat="44.34539" lon="5.89056">
        <ele>691</ele>
        <time>2018-05-16T00:37:17Z</time>
      </trkpt>
      <trkpt lat="44.34668" lon="5.89129">
        <ele>686</ele>
        <time>2018-05-16T00:38:17Z</time>
      </trkpt>
      <trkpt lat="44.34797" lon="5.89155">
        <ele>684</ele>
        <time>2018-05-16T00:39:17Z</time>
      </trkpt>
      <trkpt lat="44.34892" lon="5.89237">
        <ele>676</ele>
        <time>2018-05-16T00:40:17Z</time>
      </trkpt>
      <trkpt lat="44.34914" lon="5.89292">
        <ele>671</ele>
        <time>2018-05-16T00:41:17Z</time>
      </trkpt>
      <trkpt lat="44.34895" lon="5.89331">
        <ele>665</ele>
        <time>2018-05-16T00:42:17Z</time>
      </trkpt>
      <trkpt lat="44.34951" lon="5.8934">
        <ele>664</ele>
        <time>2018-05-16T00:43:17Z</time>
      </trkpt>
      <trkpt lat="44.35067" lon="5.8946">
        <ele>648</ele>
        <time>2018-05-16T00:44:17Z</time>
      </trkpt>
      <trkpt lat="44.35301" lon="5.8964">
        <ele>620</ele>
        <time>2018-05-16T00:45:17Z</time>
      </trkpt>
      <trkpt lat="44.35374" lon="5.89726">
        <ele>610</ele>
        <time>2018-05-16T00:46:17Z</time>
      </trkpt>
      <trkpt lat="44.35509" lon="5.89657">
        <ele>610</ele>
        <time>2018-05-16T00:47:17Z</time>
      </trkpt>
      <trkpt lat="44.35589" lon="5.89661">
        <ele>606</ele>
        <time>2018-05-16T00:48:17Z</time>
      </trkpt>
      <trkpt lat="44.35601" lon="5.89593">
        <ele>607</ele>
        <time>2018-05-16T00:49:17Z</time>
      </trkpt>
      <trkpt lat="44.35669" lon="5.89494">
        <ele>605</ele>
        <time>2018-05-16T00:50:17Z</time>
      </trkpt>
      <trkpt lat="44.35745" lon="5.8946">
        <ele>601</ele>
        <time>2018-05-16T00:51:17Z</time>
      </trkpt>
      <trkpt lat="44.35831" lon="5.89447">
        <ele>599</ele>
        <time>2018-05-16T00:52:17Z</time>
      </trkpt>
      <trkpt lat="44.3593" lon="5.89395">
        <ele>596</ele>
        <time>2018-05-16T00:53:17Z</time>
      </trkpt>
      <trkpt lat="44.36046" lon="5.89348">
        <ele>587</ele>
        <time>2018-05-16T00:54:17Z</time>
      </trkpt>
      <trkpt lat="44.36114" lon="5.89464">
        <ele>587</ele>
        <time>2018-05-16T00:55:17Z</time>
      </trkpt>
      <trkpt lat="44.36145" lon="5.89443">
        <ele>589</ele>
        <time>2018-05-16T00:56:17Z</time>
      </trkpt>
      <trkpt lat="44.36155" lon="5.89351">
        <ele>593</ele>
        <time>2018-05-16T00:57:17Z</time>
      </trkpt>
      <trkpt lat="44.36277" lon="5.89261">
        <ele>595</ele>
        <time>2018-05-16T00:58:17Z</time>
      </trkpt>
      <trkpt lat="44.36454" lon="5.89134">
        <ele>603</ele>
        <time>2018-05-16T00:59:17Z</time>
      </trkpt>
      <trkpt lat="44.36531" lon="5.8934">
        <ele>598</ele>
        <time>2018-05-16T01:00:17Z</time>
      </trkpt>
      <trkpt lat="44.36546" lon="5.89447">
        <ele>597</ele>
        <time>2018-05-16T01:01:17Z</time>
      </trkpt>
      <trkpt lat="44.36654" lon="5.89619">
        <ele>598</ele>
        <time>2018-05-16T01:02:17Z</time>
      </trkpt>
      <trkpt lat="44.36727" lon="5.89537">
        <ele>602</ele>
        <time>2018-05-16T01:03:17Z</time>
      </trkpt>
      <trkpt lat="44.36755" lon="5.89468">
        <ele>607</ele>
        <time>2018-05-16T01:04:17Z</time>
      </trkpt>
      <trkpt lat="44.36715" lon="5.89395">
        <ele>611</ele>
        <time>2018-05-16T01:05:17Z</time>
      </trkpt>
      <trkpt lat="44.36779" lon="5.89434">
        <ele>612</ele>
        <time>2018-05-16T01:06:17Z</time>
      </trkpt>
      <trkpt lat="44.3681" lon="5.894">
        <ele>615</ele>
        <time>2018-05-16T01:07:17Z</time>
      </trkpt>
      <trkpt lat="44.36807" lon="5.89352">
        <ele>618</ele>
        <time>2018-05-16T01:08:17Z</time>
      </trkpt>
      <trkpt lat="44.36838" lon="5.89327">
        <ele>621</ele>
        <time>2018-05-16T01:09:17Z</time>
      </trkpt>
      <trkpt lat="44.36881" lon="5.89387">
        <ele>624</ele>
        <time>2018-05-16T01:10:17Z</time>
      </trkpt>
      <trkpt lat="44.36868" lon="5.8943">
        <ele>620</ele>
        <time>2018-05-16T01:11:17Z</time>
      </trkpt>
      <trkpt lat="44.36905" lon="5.8946">
        <ele>624</ele>
        <time>2018-05-16T01:12:17Z</time>
      </trkpt>
      <trkpt lat="44.36868" lon="5.89631">
        <ele>612</ele>
        <time>2018-05-16T01:13:17Z</time>
      </trkpt>
      <trkpt lat="44.36887" lon="5.89717">
        <ele>609</ele>
        <time>2018-05-16T01:14:17Z</time>
      </trkpt>
      <trkpt lat="44.36914" lon="5.89722">
        <ele>611</ele>
        <time>2018-05-16T01:15:17Z</time>
      </trkpt>
      <trkpt lat="44.37006" lon="5.89254">
        <ele>658</ele>
        <time>2018-05-16T01:16:17Z</time>
      </trkpt>
      <trkpt lat="44.37102" lon="5.88979">
        <ele>678</ele>
        <time>2018-05-16T01:17:17Z</time>
      </trkpt>
      <trkpt lat="44.37074" lon="5.8888">
        <ele>676</ele>
        <time>2018-05-16T01:18:17Z</time>
      </trkpt>
      <trkpt lat="44.37144" lon="5.88657">
        <ele>675</ele>
        <time>2018-05-16T01:19:17Z</time>
      </trkpt>
      <trkpt lat="44.37286" lon="5.8858">
        <ele>670</ele>
        <time>2018-05-16T01:20:17Z</time>
      </trkpt>
      <trkpt lat="44.3735" lon="5.88752">
        <ele>659</ele>
        <time>2018-05-16T01:21:17Z</time>
      </trkpt>
      <trkpt lat="44.37399" lon="5.88842">
        <ele>653</ele>
        <time>2018-05-16T01:22:17Z</time>
      </trkpt>
      <trkpt lat="44.37421" lon="5.8894">
        <ele>654</ele>
        <time>2018-05-16T01:23:17Z</time>
      </trkpt>
      <trkpt lat="44.37405" lon="5.89091">
        <ele>645</ele>
        <time>2018-05-16T01:24:17Z</time>
      </trkpt>
      <trkpt lat="44.37445" lon="5.89151">
        <ele>643</ele>
        <time>2018-05-16T01:25:17Z</time>
      </trkpt>
      <trkpt lat="44.37448" lon="5.89219">
        <ele>641</ele>
        <time>2018-05-16T01:26:17Z</time>
      </trkpt>
      <trkpt lat="44.3743" lon="5.89318">
        <ele>637</ele>
        <time>2018-05-16T01:27:17Z</time>
      </trkpt>
      <trkpt lat="44.37421" lon="5.89464">
        <ele>620</ele>
        <time>2018-05-16T01:28:17Z</time>
      </trkpt>
      <trkpt lat="44.37384" lon="5.89511">
        <ele>617</ele>
        <time>2018-05-16T01:29:17Z</time>
      </trkpt>
      <trkpt lat="44.37378" lon="5.89576">
        <ele>613</ele>
        <time>2018-05-16T01:30:17Z</time>
      </trkpt>
      <trkpt lat="44.37298" lon="5.89713">
        <ele>610</ele>
        <time>2018-05-16T01:31:17Z</time>
      </trkpt>
      <trkpt lat="44.37233" lon="5.8979">
        <ele>608</ele>
        <time>2018-05-16T01:32:17Z</time>
      </trkpt>
      <trkpt lat="44.37184" lon="5.89941">
        <ele>601</ele>
        <time>2018-05-16T01:33:17Z</time>
      </trkpt>
      <trkpt lat="44.37434" lon="5.90286">
        <ele>611</ele>
        <time>2018-05-16T01:34:17Z</time>
      </trkpt>
      <trkpt lat="44.37304" lon="5.90215">
        <ele>616</ele>
        <time>2018-05-16T01:35:17Z</time>
      </trkpt>
      <trkpt lat="44.37288" lon="5.9019">
        <ele>614</ele>
        <time>2018-05-16T01:36:17Z</time>
      </trkpt>
      <trkpt lat="44.37262" lon="5.90163">
        <ele>612</ele>
        <time>2018-05-16T01:37:17Z</time>
      </trkpt>
      <trkpt lat="44.37237" lon="5.90146">
        <ele>609</ele>
        <time>2018-05-16T01:38:17Z</time>
      </trkpt>
      <trkpt lat="44.37151" lon="5.90129">
        <ele>600</ele>
        <time>2018-05-16T01:39:17Z</time>
      </trkpt>
      <trkpt lat="44.37111" lon="5.90176">
        <ele>599</ele>
        <time>2018-05-16T01:40:17Z</time>
      </trkpt>
      <trkpt lat="44.36954" lon="5.90267">
        <ele>597</ele>
        <time>2018-05-16T01:41:17Z</time>
      </trkpt>
      <trkpt lat="44.36871" lon="5.90348">
        <ele>598</ele>
        <time>2018-05-16T01:42:17Z</time>
      </trkpt>
      <trkpt lat="44.36856" lon="5.9049">
        <ele>614</ele>
        <time>2018-05-16T01:43:17Z</time>
      </trkpt>
      <trkpt lat="44.36868" lon="5.9058">
        <ele>624</ele>
        <time>2018-05-16T01:44:17Z</time>
      </trkpt>
      <trkpt lat="44.3693" lon="5.90511">
        <ele>642</ele>
        <time>2018-05-16T01:45:17Z</time>
      </trkpt>
      <trkpt lat="44.36979" lon="5.90515">
        <ele>661</ele>
        <time>2018-05-16T01:46:17Z</time>
      </trkpt>
      <trkpt lat="44.37003" lon="5.90447">
        <ele>659</ele>
        <time>2018-05-16T01:47:17Z</time>
      </trkpt>
      <trkpt lat="44.37028" lon="5.90382">
        <ele>646</ele>
        <time>2018-05-16T01:48:17Z</time>
      </trkpt>
      <trkpt lat="44.3716" lon="5.90404">
        <ele>659</ele>
        <time>2018-05-16T01:49:17Z</time>
      </trkpt>
      <trkpt lat="44.37043" lon="5.9079">
        <ele>661</ele>
        <time>2018-05-16T01:50:17Z</time>
      </trkpt>
      <trkpt lat="44.37059" lon="5.90859">
        <ele>657</ele>
        <time>2018-05-16T01:51:17Z</time>
      </trkpt>
      <trkpt lat="44.37143" lon="5.90874">
        <ele>643</ele>
        <time>2018-05-16T01:52:17Z</time>
      </trkpt>
      <trkpt lat="44.37181" lon="5.90919">
        <ele>634</ele>
        <time>2018-05-16T01:53:17Z</time>
      </trkpt>
      <trkpt lat="44.37218" lon="5.91073">
        <ele>626</ele>
        <time>2018-05-16T01:54:17Z</time>
      </trkpt>
      <trkpt lat="44.37267" lon="5.91108">
        <ele>617</ele>
        <time>2018-05-16T01:55:17Z</time>
      </trkpt>
      <trkpt lat="44.37378" lon="5.91288">
        <ele>610</ele>
        <time>2018-05-16T01:56:17Z</time>
      </trkpt>
      <trkpt lat="44.37402" lon="5.91535">
        <ele>603</ele>
        <time>2018-05-16T01:57:17Z</time>
      </trkpt>
      <trkpt lat="44.37408" lon="5.91661">
        <ele>600</ele>
        <time>2018-05-16T01:58:17Z</time>
      </trkpt>
      <trkpt lat="44.37476" lon="5.91829">
        <ele>600</ele>
        <time>2018-05-16T01:59:17Z</time>
      </trkpt>
      <trkpt lat="44.37513" lon="5.91919">
        <ele>595</ele>
        <time>2018-05-16T02:00:17Z</time>
      </trkpt>
      <trkpt lat="44.37583" lon="5.92022">
        <ele>585</ele>
        <time>2018-05-16T02:01:17Z</time>
      </trkpt>
      <trkpt lat="44.37534" lon="5.92151">
        <ele>582</ele>
        <time>2018-05-16T02:02:17Z</time>
      </trkpt>
      <trkpt lat="44.37563" lon="5.92228">
        <ele>577</ele>
        <time>2018-05-16T02:03:17Z</time>
      </trkpt>
      <trkpt lat="44.37711" lon="5.92432">
        <ele>581</ele>
        <time>2018-05-16T02:04:17Z</time>
      </trkpt>
      <trkpt lat="44.3774" lon="5.92563">
        <ele>579</ele>
        <time>2018-05-16T02:05:17Z</time>
      </trkpt>
      <trkpt lat="44.3785" lon="5.9276">
        <ele>576</ele>
        <time>2018-05-16T02:06:17Z</time>
      </trkpt>
      <trkpt lat="44.37902" lon="5.92792">
        <ele>576</ele>
        <time>2018-05-16T02:07:17Z</time>
      </trkpt>
      <trkpt lat="44.37951" lon="5.92936">
        <ele>573</ele>
        <time>2018-05-16T02:08:17Z</time>
      </trkpt>
      <trkpt lat="44.38006" lon="5.93005">
        <ele>574</ele>
        <time>2018-05-16T02:09:17Z</time>
      </trkpt>
      <trkpt lat="44.38059" lon="5.93099">
        <ele>573</ele>
        <time>2018-05-16T02:10:17Z</time>
      </trkpt>
      <trkpt lat="44.38319" lon="5.93283">
        <ele>573</ele>
        <time>2018-05-16T02:11:17Z</time>
      </trkpt>
      <trkpt lat="44.38552" lon="5.93442">
        <ele>575</ele>
        <time>2018-05-16T02:12:17Z</time>
      </trkpt>
      <trkpt lat="44.38887" lon="5.93704">
        <ele>577</ele>
        <time>2018-05-16T02:13:17Z</time>
      </trkpt>
      <trkpt lat="44.39377" lon="5.94112">
        <ele>583</ele>
        <time>2018-05-16T02:14:17Z</time>
      </trkpt>
      <trkpt lat="44.39618" lon="5.94331">
        <ele>579</ele>
        <time>2018-05-16T02:15:17Z</time>
      </trkpt>
      <trkpt lat="44.3977" lon="5.94416">
        <ele>589</ele>
        <time>2018-05-16T02:16:17Z</time>
      </trkpt>
      <trkpt lat="44.39918" lon="5.94571">
        <ele>593</ele>
        <time>2018-05-16T02:17:17Z</time>
      </trkpt>
      <trkpt lat="44.40116" lon="5.94652">
        <ele>601</ele>
        <time>2018-05-16T02:18:17Z</time>
      </trkpt>
      <trkpt lat="44.40251" lon="5.94781">
        <ele>599</ele>
        <time>2018-05-16T02:19:17Z</time>
      </trkpt>
      <trkpt lat="44.40365" lon="5.9503">
        <ele>591</ele>
        <time>2018-05-16T02:20:17Z</time>
      </trkpt>
      <trkpt lat="44.40525" lon="5.95401">
        <ele>579</ele>
        <time>2018-05-16T02:21:17Z</time>
      </trkpt>
      <trkpt lat="44.40772" lon="5.95575">
        <ele>575</ele>
        <time>2018-05-16T02:22:17Z</time>
      </trkpt>
      <trkpt lat="44.41151" lon="5.96043">
        <ele>578</ele>
        <time>2018-05-16T02:23:17Z</time>
      </trkpt>
      <trkpt lat="44.41241" lon="5.96258">
        <ele>577</ele>
        <time>2018-05-16T02:24:17Z</time>
      </trkpt>
      <trkpt lat="44.41274" lon="5.9612">
        <ele>580</ele>
        <time>2018-05-16T02:25:17Z</time>
      </trkpt>
      <trkpt lat="44.41269" lon="5.95661">
        <ele>594</ele>
        <time>2018-05-16T02:26:17Z</time>
      </trkpt>
      <trkpt lat="44.41254" lon="5.95545">
        <ele>600</ele>
        <time>2018-05-16T02:27:17Z</time>
      </trkpt>
      <trkpt lat="44.41325" lon="5.95547">
        <ele>596</ele>
        <time>2018-05-16T02:28:17Z</time>
      </trkpt>
      <trkpt lat="44.41379" lon="5.95691">
        <ele>593</ele>
        <time>2018-05-16T02:29:17Z</time>
      </trkpt>
      <trkpt lat="44.41447" lon="5.95811">
        <ele>588</ele>
        <time>2018-05-16T02:30:17Z</time>
      </trkpt>
      <trkpt lat="44.41485" lon="5.95961">
        <ele>585</ele>
        <time>2018-05-16T02:31:17Z</time>
      </trkpt>
      <trkpt lat="44.41542" lon="5.96111">
        <ele>583</ele>
        <time>2018-05-16T02:32:17Z</time>
      </trkpt>
      <trkpt lat="44.41615" lon="5.9621">
        <ele>583</ele>
        <time>2018-05-16T02:33:17Z</time>
      </trkpt>
      <trkpt lat="44.41692" lon="5.96167">
        <ele>586</ele>
        <time>2018-05-16T02:34:17Z</time>
      </trkpt>
      <trkpt lat="44.41729" lon="5.96107">
        <ele>589</ele>
        <time>2018-05-16T02:35:17Z</time>
      </trkpt>
      <trkpt lat="44.41766" lon="5.96073">
        <ele>590</ele>
        <time>2018-05-16T02:36:17Z</time>
      </trkpt>
      <trkpt lat="44.41858" lon="5.96206">
        <ele>590</ele>
        <time>2018-05-16T02:37:17Z</time>
      </trkpt>
      <trkpt lat="44.41931" lon="5.96176">
        <ele>592</ele>
        <time>2018-05-16T02:38:17Z</time>
      </trkpt>
      <trkpt lat="44.41965" lon="5.96146">
        <ele>593</ele>
        <time>2018-05-16T02:39:17Z</time>
      </trkpt>
      <trkpt lat="44.41976" lon="5.96182">
        <ele>593</ele>
        <time>2018-05-16T02:40:17Z</time>
      </trkpt>
      <trkpt lat="44.41953" lon="5.96236">
        <ele>592</ele>
        <time>2018-05-16T02:41:17Z</time>
      </trkpt>
      <trkpt lat="44.41879" lon="5.96344">
        <ele>589</ele>
        <time>2018-05-16T02:42:17Z</time>
      </trkpt>
      <trkpt lat="44.4179" lon="5.96543">
        <ele>583</ele>
        <time>2018-05-16T02:43:17Z</time>
      </trkpt>
      <trkpt lat="44.42051" lon="5.9673">
        <ele>590</ele>
        <time>2018-05-16T02:44:17Z</time>
      </trkpt>
      <trkpt lat="44.42054" lon="5.96833">
        <ele>595</ele>
        <time>2018-05-16T02:45:17Z</time>
      </trkpt>
      <trkpt lat="44.42051" lon="5.9694">
        <ele>593</ele>
        <time>2018-05-16T02:46:17Z</time>
      </trkpt>
      <trkpt lat="44.42086" lon="5.97163">
        <ele>597</ele>
        <time>2018-05-16T02:47:17Z</time>
      </trkpt>
      <trkpt lat="44.42094" lon="5.97452">
        <ele>611</ele>
        <time>2018-05-16T02:48:17Z</time>
      </trkpt>
      <trkpt lat="44.42124" lon="5.97442">
        <ele>618</ele>
        <time>2018-05-16T02:49:17Z</time>
      </trkpt>
      <trkpt lat="44.42192" lon="5.97343">
        <ele>630</ele>
        <time>2018-05-16T02:50:17Z</time>
      </trkpt>
      <trkpt lat="44.4229" lon="5.9715">
        <ele>651</ele>
        <time>2018-05-16T02:51:17Z</time>
      </trkpt>
      <trkpt lat="44.42373" lon="5.97107">
        <ele>675</ele>
        <time>2018-05-16T02:52:17Z</time>
      </trkpt>
      <trkpt lat="44.42369" lon="5.97184">
        <ele>685</ele>
        <time>2018-05-16T02:53:17Z</time>
      </trkpt>
      <trkpt lat="44.42409" lon="5.9709">
        <ele>683</ele>
        <time>2018-05-16T02:54:17Z</time>
      </trkpt>
      <trkpt lat="44.42425" lon="5.9715">
        <ele>700</ele>
        <time>2018-05-16T02:55:17Z</time>
      </trkpt>
      <trkpt lat="44.42458" lon="5.9712">
        <ele>697</ele>
        <time>2018-05-16T02:56:17Z</time>
      </trkpt>
      <trkpt lat="44.4248" lon="5.97232">
        <ele>727</ele>
        <time>2018-05-16T02:57:17Z</time>
      </trkpt>
      <trkpt lat="44.42507" lon="5.97253">
        <ele>737</ele>
        <time>2018-05-16T02:58:17Z</time>
      </trkpt>
      <trkpt lat="44.42639" lon="5.97287">
        <ele>741</ele>
        <time>2018-05-16T02:59:17Z</time>
      </trkpt>
      <trkpt lat="44.42667" lon="5.97382">
        <ele>750</ele>
        <time>2018-05-16T03:00:17Z</time>
      </trkpt>
      <trkpt lat="44.42691" lon="5.97592">
        <ele>756</ele>
        <time>2018-05-16T03:01:17Z</time>
      </trkpt>
      <trkpt lat="44.42676" lon="5.9773">
        <ele>761</ele>
        <time>2018-05-16T03:02:17Z</time>
      </trkpt>
      <trkpt lat="44.42765" lon="5.97734">
        <ele>761</ele>
        <time>2018-05-16T03:03:17Z</time>
      </trkpt>
      <trkpt lat="44.42808" lon="5.97807">
        <ele>768</ele>
        <time>2018-05-16T03:04:17Z</time>
      </trkpt>
      <trkpt lat="44.42878" lon="5.97802">
        <ele>774</ele>
        <time>2018-05-16T03:05:17Z</time>
      </trkpt>
      <trkpt lat="44.42894" lon="5.97936">
        <ele>784</ele>
        <time>2018-05-16T03:06:17Z</time>
      </trkpt>
      <trkpt lat="44.42964" lon="5.97785">
        <ele>786</ele>
        <time>2018-05-16T03:07:17Z</time>
      </trkpt>
      <trkpt lat="44.42998" lon="5.97772">
        <ele>791</ele>
        <time>2018-05-16T03:08:17Z</time>
      </trkpt>
      <trkpt lat="44.43022" lon="5.97566">
        <ele>789</ele>
        <time>2018-05-16T03:09:17Z</time>
      </trkpt>
      <trkpt lat="44.43148" lon="5.97399">
        <ele>775</ele>
        <time>2018-05-16T03:10:17Z</time>
      </trkpt>
      <trkpt lat="44.43239" lon="5.97347">
        <ele>775</ele>
        <time>2018-05-16T03:11:17Z</time>
      </trkpt>
      <trkpt lat="44.43225" lon="5.97541">
        <ele>788</ele>
        <time>2018-05-16T03:12:17Z</time>
      </trkpt>
      <trkpt lat="44.43295" lon="5.97575">
        <ele>798</ele>
        <time>2018-05-16T03:13:17Z</time>
      </trkpt>
      <trkpt lat="44.43286" lon="5.97751">
        <ele>808</ele>
        <time>2018-05-16T03:14:17Z</time>
      </trkpt>
      <trkpt lat="44.43301" lon="5.9782">
        <ele>811</ele>
        <time>2018-05-16T03:15:17Z</time>
      </trkpt>
      <trkpt lat="44.43356" lon="5.97884">
        <ele>820</ele>
        <time>2018-05-16T03:16:17Z</time>
      </trkpt>
      <trkpt lat="44.4339" lon="5.97966">
        <ele>823</ele>
        <time>2018-05-16T03:17:17Z</time>
      </trkpt>
      <trkpt lat="44.43462" lon="5.98045">
        <ele>830</ele>
        <time>2018-05-16T03:18:17Z</time>
      </trkpt>
      <trkpt lat="44.43418" lon="5.98004">
        <ele>826</ele>
        <time>2018-05-16T03:19:17Z</time>
      </trkpt>
      <trkpt lat="44.43505" lon="5.98071">
        <ele>833</ele>
        <time>2018-05-16T03:20:17Z</time>
      </trkpt>
      <trkpt lat="44.43525" lon="5.9815">
        <ele>833</ele>
        <time>2018-05-16T03:21:17Z</time>
      </trkpt>
      <trkpt lat="44.43632" lon="5.98197">
        <ele>835</ele>
        <time>2018-05-16T03:22:17Z</time>
      </trkpt>
      <trkpt lat="44.43627" lon="5.98372">
        <ele>862</ele>
        <time>2018-05-16T03:23:17Z</time>
      </trkpt>
      <trkpt lat="44.43676" lon="5.98367">
        <ele>868</ele>
        <time>2018-05-16T03:24:17Z</time>
      </trkpt>
      <trkpt lat="44.43806" lon="5.98474">
        <ele>898</ele>
        <time>2018-05-16T03:25:17Z</time>
      </trkpt>
      <trkpt lat="44.43853" lon="5.98435">
        <ele>884</ele>
        <time>2018-05-16T03:26:17Z</time>
      </trkpt>
      <trkpt lat="44.44009" lon="5.98532">
        <ele>913</ele>
        <time>2018-05-16T03:27:17Z</time>
      </trkpt>
      <trkpt lat="44.44079" lon="5.98592">
        <ele>922</ele>
        <time>2018-05-16T03:28:17Z</time>
      </trkpt>
      <trkpt lat="44.44116" lon="5.98661">
        <ele>932</ele>
        <time>2018-05-16T03:29:17Z</time>
      </trkpt>
      <trkpt lat="44.44181" lon="5.98678">
        <ele>928</ele>
        <time>2018-05-16T03:30:17Z</time>
      </trkpt>
      <trkpt lat="44.4422" lon="5.98656">
        <ele>922</ele>
        <time>2018-05-16T03:31:17Z</time>
      </trkpt>
      <trkpt lat="44.44367" lon="5.98695">
        <ele>955</ele>
        <time>2018-05-16T03:32:17Z</time>
      </trkpt>
      <trkpt lat="44.44573" lon="5.98609">
        <ele>971</ele>
        <time>2018-05-16T03:33:17Z</time>
      </trkpt>
      <trkpt lat="44.44668" lon="5.98562">
        <ele>977</ele>
        <time>2018-05-16T03:34:17Z</time>
      </trkpt>
      <trkpt lat="44.44848" lon="5.98553">
        <ele>997</ele>
        <time>2018-05-16T03:35:17Z</time>
      </trkpt>
      <trkpt lat="44.44695" lon="5.98641">
        <ele>1005</ele>
        <time>2018-05-16T03:36:17Z</time>
      </trkpt>
      <trkpt lat="44.44613" lon="5.98725">
        <ele>1023</ele>
        <time>2018-05-16T03:37:17Z</time>
      </trkpt>
      <trkpt lat="44.44579" lon="5.98736">
        <ele>1019</ele>
        <time>2018-05-16T03:38:17Z</time>
      </trkpt>
      <trkpt lat="44.44525" lon="5.98753">
        <ele>1012</ele>
        <time>2018-05-16T03:39:17Z</time>
      </trkpt>
      <trkpt lat="44.4453" lon="5.98781">
        <ele>1023</ele>
        <time>2018-05-16T03:40:17Z</time>
      </trkpt>
      <trkpt lat="44.44597" lon="5.9885">
        <ele>1043</ele>
        <time>2018-05-16T03:41:17Z</time>
      </trkpt>
      <trkpt lat="44.44616" lon="5.98944">
        <ele>1043</ele>
        <time>2018-05-16T03:42:17Z</time>
      </trkpt>
      <trkpt lat="44.4472" lon="5.99077">
        <ele>1023</ele>
        <time>2018-05-16T03:43:17Z</time>
      </trkpt>
      <trkpt lat="44.44732" lon="5.99193">
        <ele>1007</ele>
        <time>2018-05-16T03:44:17Z</time>
      </trkpt>
      <trkpt lat="44.44754" lon="5.99219">
        <ele>1005</ele>
        <time>2018-05-16T03:45:17Z</time>
      </trkpt>
      <trkpt lat="44.44741" lon="5.99266">
        <ele>1005</ele>
        <time>2018-05-16T03:46:17Z</time>
      </trkpt>
      <trkpt lat="44.44799" lon="5.9933">
        <ele>989</ele>
        <time>2018-05-16T03:47:17Z</time>
      </trkpt>
      <trkpt lat="44.44815" lon="5.99386">
        <ele>979</ele>
        <time>2018-05-16T03:48:17Z</time>
      </trkpt>
      <trkpt lat="44.44832" lon="5.9939">
        <ele>972</ele>
        <time>2018-05-16T03:49:17Z</time>
      </trkpt>
      <trkpt lat="44.44812" lon="5.99478">
        <ele>973</ele>
        <time>2018-05-16T03:50:17Z</time>
      </trkpt>
      <trkpt lat="44.44793" lon="5.99577">
        <ele>969</ele>
        <time>2018-05-16T03:51:17Z</time>
      </trkpt>
      <trkpt lat="44.44816" lon="5.99667">
        <ele>950</ele>
        <time>2018-05-16T03:52:17Z</time>
      </trkpt>
      <trkpt lat="44.44799" lon="5.99686">
        <ele>955</ele>
        <time>2018-05-16T03:53:17Z</time>
      </trkpt>
      <trkpt lat="44.44775" lon="5.99828">
        <ele>945</ele>
        <time>2018-05-16T03:54:17Z</time>
      </trkpt>
      <trkpt lat="44.44859" lon="6.00071">
        <ele>901</ele>
        <time>2018-05-16T03:55:17Z</time>
      </trkpt>
      <trkpt lat="44.4477" lon="6.00442">
        <ele>867</ele>
        <time>2018-05-16T03:56:17Z</time>
      </trkpt>
      <trkpt lat="44.44738" lon="6.00508">
        <ele>862</ele>
        <time>2018-05-16T03:57:17Z</time>
      </trkpt>
      <trkpt lat="44.44717" lon="6.00603">
        <ele>849</ele>
        <time>2018-05-16T03:58:17Z</time>
      </trkpt>
      <trkpt lat="44.44688" lon="6.00654">
        <ele>847</ele>
        <time>2018-05-16T03:59:17Z</time>
      </trkpt>
      <trkpt lat="44.44594" lon="6.00704">
        <ele>848</ele>
        <time>2018-05-16T04:00:17Z</time>
      </trkpt>
      <trkpt lat="44.44587" lon="6.00734">
        <ele>842</ele>
        <time>2018-05-16T04:01:17Z</time>
      </trkpt>
      <trkpt lat="44.44519" lon="6.00787">
        <ele>833</ele>
        <time>2018-05-16T04:02:17Z</time>
      </trkpt>
      <trkpt lat="44.44485" lon="6.00864">
        <ele>825</ele>
        <time>2018-05-16T04:03:17Z</time>
      </trkpt>
      <trkpt lat="44.44412" lon="6.00963">
        <ele>817</ele>
        <time>2018-05-16T04:04:17Z</time>
      </trkpt>
      <trkpt lat="44.44455" lon="6.01036">
        <ele>815</ele>
        <time>2018-05-16T04:05:17Z</time>
      </trkpt>
      <trkpt lat="44.44482" lon="6.01083">
        <ele>810</ele>
        <time>2018-05-16T04:06:17Z</time>
      </trkpt>
      <trkpt lat="44.44487" lon="6.01126">
        <ele>801</ele>
        <time>2018-05-16T04:07:17Z</time>
      </trkpt>
      <trkpt lat="44.4453" lon="6.01126">
        <ele>797</ele>
        <time>2018-05-16T04:08:17Z</time>
      </trkpt>
      <trkpt lat="44.44565" lon="6.01077">
        <ele>803</ele>
        <time>2018-05-16T04:09:17Z</time>
      </trkpt>
      <trkpt lat="44.44602" lon="6.01045">
        <ele>800</ele>
        <time>2018-05-16T04:10:17Z</time>
      </trkpt>
      <trkpt lat="44.44631" lon="6.01013">
        <ele>798</ele>
        <time>2018-05-16T04:11:17Z</time>
      </trkpt>
      <trkpt lat="44.44714" lon="6.00998">
        <ele>783</ele>
        <time>2018-05-16T04:12:17Z</time>
      </trkpt>
      <trkpt lat="44.44743" lon="6.00967">
        <ele>781</ele>
        <time>2018-05-16T04:13:17Z</time>
      </trkpt>
      <trkpt lat="44.44769" lon="6.00972">
        <ele>775</ele>
        <time>2018-05-16T04:14:17Z</time>
      </trkpt>
      <trkpt lat="44.44795" lon="6.0094">
        <ele>772</ele>
        <time>2018-05-16T04:15:17Z</time>
      </trkpt>
      <trkpt lat="44.44812" lon="6.00903">
        <ele>771</ele>
        <time>2018-05-16T04:16:17Z</time>
      </trkpt>
      <trkpt lat="44.44824" lon="6.00935">
        <ele>765</ele>
        <time>2018-05-16T04:17:17Z</time>
      </trkpt>
      <trkpt lat="44.4481" lon="6.01006">
        <ele>762</ele>
        <time>2018-05-16T04:18:17Z</time>
      </trkpt>
      <trkpt lat="44.44787" lon="6.01015">
        <ele>766</ele>
        <time>2018-05-16T04:19:17Z</time>
      </trkpt>
      <trkpt lat="44.4479" lon="6.01051">
        <ele>759</ele>
        <time>2018-05-16T04:20:17Z</time>
      </trkpt>
      <trkpt lat="44.44697" lon="6.01188">
        <ele>744</ele>
        <time>2018-05-16T04:21:17Z</time>
      </trkpt>
      <trkpt lat="44.44834" lon="6.01171">
        <ele>729</ele>
        <time>2018-05-16T04:22:17Z</time>
      </trkpt>
      <trkpt lat="44.44792" lon="6.01199">
        <ele>731</ele>
        <time>2018-05-16T04:23:17Z</time>
      </trkpt>
      <trkpt lat="44.44756" lon="6.01231">
        <ele>730</ele>
        <time>2018-05-16T04:24:17Z</time>
      </trkpt>
      <trkpt lat="44.44808" lon="6.01214">
        <ele>726</ele>
        <time>2018-05-16T04:25:17Z</time>
      </trkpt>
      <trkpt lat="44.44867" lon="6.0121">
        <ele>712</ele>
        <time>2018-05-16T04:26:17Z</time>
      </trkpt>
      <trkpt lat="44.44877" lon="6.01161">
        <ele>717</ele>
        <time>2018-05-16T04:27:17Z</time>
      </trkpt>
      <trkpt lat="44.44897" lon="6.0121">
        <ele>703</ele>
        <time>2018-05-16T04:28:17Z</time>
      </trkpt>
      <trkpt lat="44.44905" lon="6.01158">
        <ele>708</ele>
        <time>2018-05-16T04:29:17Z</time>
      </trkpt>
      <trkpt lat="44.44936" lon="6.01111">
        <ele>705</ele>
        <time>2018-05-16T04:30:17Z</time>
      </trkpt>
      <trkpt lat="44.44978" lon="6.01116">
        <ele>694</ele>
        <time>2018-05-16T04:31:17Z</time>
      </trkpt>
      <trkpt lat="44.44949" lon="6.01146">
        <ele>698</ele>
        <time>2018-05-16T04:32:17Z</time>
      </trkpt>
      <trkpt lat="44.44948" lon="6.01221">
        <ele>689</ele>
        <time>2018-05-16T04:33:17Z</time>
      </trkpt>
      <trkpt lat="44.44971" lon="6.01246">
        <ele>683</ele>
        <time>2018-05-16T04:34:17Z</time>
      </trkpt>
      <trkpt lat="44.44998" lon="6.01186">
        <ele>682</ele>
        <time>2018-05-16T04:35:17Z</time>
      </trkpt>
      <trkpt lat="44.45009" lon="6.01274">
        <ele>674</ele>
        <time>2018-05-16T04:36:17Z</time>
      </trkpt>
      <trkpt lat="44.45" lon="6.01313">
        <ele>671</ele>
        <time>2018-05-16T04:37:17Z</time>
      </trkpt>
      <trkpt lat="44.4496" lon="6.01349">
        <ele>671</ele>
        <time>2018-05-16T04:38:17Z</time>
      </trkpt>
      <trkpt lat="44.45046" lon="6.01337">
        <ele>663</ele>
        <time>2018-05-16T04:39:17Z</time>
      </trkpt>
      <trkpt lat="44.45029" lon="6.0141">
        <ele>655</ele>
        <time>2018-05-16T04:40:17Z</time>
      </trkpt>
      <trkpt lat="44.45083" lon="6.01332">
        <ele>659</ele>
        <time>2018-05-16T04:41:17Z</time>
      </trkpt>
      <trkpt lat="44.45116" lon="6.01508">
        <ele>636</ele>
        <time>2018-05-16T04:42:17Z</time>
      </trkpt>
      <trkpt lat="44.45161" lon="6.01534">
        <ele>635</ele>
        <time>2018-05-16T04:43:17Z</time>
      </trkpt>
      <trkpt lat="44.45179" lon="6.01622">
        <ele>630</ele>
        <time>2018-05-16T04:44:17Z</time>
      </trkpt>
      <trkpt lat="44.45248" lon="6.01742">
        <ele>628</ele>
        <time>2018-05-16T04:45:17Z</time>
      </trkpt>
      <trkpt lat="44.45284" lon="6.01794">
        <ele>626</ele>
        <time>2018-05-16T04:46:17Z</time>
      </trkpt>
      <trkpt lat="44.4533" lon="6.01888">
        <ele>622</ele>
        <time>2018-05-16T04:47:17Z</time>
      </trkpt>
      <trkpt lat="44.4532" lon="6.01991">
        <ele>616</ele>
        <time>2018-05-16T04:48:17Z</time>
      </trkpt>
      <trkpt lat="44.4536" lon="6.02055">
        <ele>613</ele>
        <time>2018-05-16T04:49:17Z</time>
      </trkpt>
      <trkpt lat="44.45454" lon="6.0198">
        <ele>615</ele>
        <time>2018-05-16T04:50:17Z</time>
      </trkpt>
      <trkpt lat="44.4561" lon="6.01856">
        <ele>616</ele>
        <time>2018-05-16T04:51:17Z</time>
      </trkpt>
      <trkpt lat="44.4564" lon="6.01972">
        <ele>618</ele>
        <time>2018-05-16T04:52:17Z</time>
      </trkpt>
      <trkpt lat="44.45754" lon="6.02002">
        <ele>620</ele>
        <time>2018-05-16T04:53:17Z</time>
      </trkpt>
      <trkpt lat="44.45804" lon="6.01993">
        <ele>620</ele>
        <time>2018-05-16T04:54:17Z</time>
      </trkpt>
      <trkpt lat="44.45824" lon="6.01965">
        <ele>620</ele>
        <time>2018-05-16T04:55:17Z</time>
      </trkpt>
      <trkpt lat="44.45836" lon="6.01922">
        <ele>619</ele>
        <time>2018-05-16T04:56:17Z</time>
      </trkpt>
      <trkpt lat="44.45905" lon="6.01888">
        <ele>622</ele>
        <time>2018-05-16T04:57:17Z</time>
      </trkpt>
      <trkpt lat="44.4593" lon="6.01843">
        <ele>624</ele>
        <time>2018-05-16T04:58:17Z</time>
      </trkpt>
      <trkpt lat="44.45945" lon="6.01802">
        <ele>625</ele>
        <time>2018-05-16T04:59:17Z</time>
      </trkpt>
      <trkpt lat="44.46013" lon="6.01736">
        <ele>628</ele>
        <time>2018-05-16T05:00:17Z</time>
      </trkpt>
      <trkpt lat="44.46043" lon="6.01648">
        <ele>629</ele>
        <time>2018-05-16T05:01:17Z</time>
      </trkpt>
      <trkpt lat="44.46165" lon="6.01592">
        <ele>634</ele>
        <time>2018-05-16T05:02:17Z</time>
      </trkpt>
      <trkpt lat="44.46278" lon="6.01532">
        <ele>638</ele>
        <time>2018-05-16T05:03:17Z</time>
      </trkpt>
      <trkpt lat="44.46348" lon="6.01493">
        <ele>642</ele>
        <time>2018-05-16T05:04:17Z</time>
      </trkpt>
      <trkpt lat="44.46379" lon="6.0145">
        <ele>643</ele>
        <time>2018-05-16T05:05:17Z</time>
      </trkpt>
      <trkpt lat="44.46409" lon="6.0136">
        <ele>646</ele>
        <time>2018-05-16T05:06:17Z</time>
      </trkpt>
      <trkpt lat="44.46513" lon="6.01373">
        <ele>649</ele>
        <time>2018-05-16T05:07:17Z</time>
      </trkpt>
      <trkpt lat="44.46516" lon="6.0133">
        <ele>650</ele>
        <time>2018-05-16T05:08:17Z</time>
      </trkpt>
      <trkpt lat="44.46524" lon="6.01283">
        <ele>650</ele>
        <time>2018-05-16T05:09:17Z</time>
      </trkpt>
      <trkpt lat="44.46572" lon="6.01238">
        <ele>651</ele>
        <time>2018-05-16T05:10:17Z</time>
      </trkpt>
      <trkpt lat="44.46614" lon="6.01231">
        <ele>652</ele>
        <time>2018-05-16T05:11:17Z</time>
      </trkpt>
      <trkpt lat="44.46633" lon="6.01199">
        <ele>653</ele>
        <time>2018-05-16T05:12:17Z</time>
      </trkpt>
      <trkpt lat="44.46685" lon="6.01176">
        <ele>654</ele>
        <time>2018-05-16T05:13:17Z</time>
      </trkpt>
      <trkpt lat="44.46737" lon="6.01182">
        <ele>655</ele>
        <time>2018-05-16T05:14:17Z</time>
      </trkpt>
      <trkpt lat="44.46771" lon="6.01139">
        <ele>657</ele>
        <time>2018-05-16T05:15:17Z</time>
      </trkpt>
      <trkpt lat="44.46794" lon="6.01152">
        <ele>657</ele>
        <time>2018-05-16T05:16:17Z</time>
      </trkpt>
      <trkpt lat="44.46818" lon="6.01122">
        <ele>659</ele>
        <time>2018-05-16T05:17:17Z</time>
      </trkpt>
      <trkpt lat="44.46827" lon="6.01156">
        <ele>658</ele>
        <time>2018-05-16T05:18:17Z</time>
      </trkpt>
      <trkpt lat="44.46869" lon="6.01171">
        <ele>660</ele>
        <time>2018-05-16T05:19:17Z</time>
      </trkpt>
      <trkpt lat="44.46889" lon="6.01227">
        <ele>659</ele>
        <time>2018-05-16T05:20:17Z</time>
      </trkpt>
      <trkpt lat="44.46959" lon="6.01227">
        <ele>668</ele>
        <time>2018-05-16T05:21:17Z</time>
      </trkpt>
      <trkpt lat="44.46979" lon="6.01268">
        <ele>672</ele>
        <time>2018-05-16T05:22:17Z</time>
      </trkpt>
      <trkpt lat="44.46977" lon="6.01341">
        <ele>671</ele>
        <time>2018-05-16T05:23:17Z</time>
      </trkpt>
      <trkpt lat="44.47025" lon="6.01412">
        <ele>677</ele>
        <time>2018-05-16T05:24:17Z</time>
      </trkpt>
      <trkpt lat="44.47104" lon="6.01474">
        <ele>682</ele>
        <time>2018-05-16T05:25:17Z</time>
      </trkpt>
      <trkpt lat="44.4717" lon="6.01506">
        <ele>688</ele>
        <time>2018-05-16T05:26:17Z</time>
      </trkpt>
      <trkpt lat="44.47218" lon="6.0156">
        <ele>690</ele>
        <time>2018-05-16T05:27:17Z</time>
      </trkpt>
      <trkpt lat="44.47268" lon="6.01665">
        <ele>690</ele>
        <time>2018-05-16T05:28:17Z</time>
      </trkpt>
      <trkpt lat="44.47302" lon="6.01714">
        <ele>692</ele>
        <time>2018-05-16T05:29:17Z</time>
      </trkpt>
      <trkpt lat="44.47337" lon="6.01794">
        <ele>691</ele>
        <time>2018-05-16T05:30:17Z</time>
      </trkpt>
      <trkpt lat="44.47352" lon="6.01856">
        <ele>690</ele>
        <time>2018-05-16T05:31:17Z</time>
      </trkpt>
      <trkpt lat="44.47409" lon="6.01871">
        <ele>693</ele>
        <time>2018-05-16T05:32:17Z</time>
      </trkpt>
      <trkpt lat="44.47473" lon="6.01897">
        <ele>695</ele>
        <time>2018-05-16T05:33:17Z</time>
      </trkpt>
      <trkpt lat="44.4753" lon="6.01935">
        <ele>697</ele>
        <time>2018-05-16T05:34:17Z</time>
      </trkpt>
      <trkpt lat="44.47539" lon="6.01985">
        <ele>698</ele>
        <time>2018-05-16T05:35:17Z</time>
      </trkpt>
      <trkpt lat="44.47545" lon="6.02034">
        <ele>699</ele>
        <time>2018-05-16T05:36:17Z</time>
      </trkpt>
      <trkpt lat="44.47607" lon="6.02034">
        <ele>698</ele>
        <time>2018-05-16T05:37:17Z</time>
      </trkpt>
      <trkpt lat="44.47653" lon="6.02043">
        <ele>696</ele>
        <time>2018-05-16T05:38:17Z</time>
      </trkpt>
      <trkpt lat="44.47714" lon="6.02032">
        <ele>694</ele>
        <time>2018-05-16T05:39:17Z</time>
      </trkpt>
      <trkpt lat="44.47792" lon="6.02068">
        <ele>691</ele>
        <time>2018-05-16T05:40:17Z</time>
      </trkpt>
      <trkpt lat="44.47838" lon="6.02083">
        <ele>688</ele>
        <time>2018-05-16T05:41:17Z</time>
      </trkpt>
      <trkpt lat="44.47875" lon="6.02113">
        <ele>683</ele>
        <time>2018-05-16T05:42:17Z</time>
      </trkpt>
      <trkpt lat="44.47916" lon="6.0218">
        <ele>678</ele>
        <time>2018-05-16T05:43:17Z</time>
      </trkpt>
      <trkpt lat="44.47939" lon="6.02218">
        <ele>672</ele>
        <time>2018-05-16T05:44:17Z</time>
      </trkpt>
      <trkpt lat="44.4798" lon="6.02246">
        <ele>665</ele>
        <time>2018-05-16T05:45:17Z</time>
      </trkpt>
      <trkpt lat="44.47951" lon="6.02182">
        <ele>673</ele>
        <time>2018-05-16T05:46:17Z</time>
      </trkpt>
      <trkpt lat="44.47977" lon="6.0212">
        <ele>675</ele>
        <time>2018-05-16T05:47:17Z</time>
      </trkpt>
      <trkpt lat="44.48002" lon="6.02188">
        <ele>665</ele>
        <time>2018-05-16T05:48:17Z</time>
      </trkpt>
      <trkpt lat="44.48051" lon="6.02244">
        <ele>657</ele>
        <time>2018-05-16T05:49:17Z</time>
      </trkpt>
      <trkpt lat="44.48118" lon="6.0233">
        <ele>648</ele>
        <time>2018-05-16T05:50:17Z</time>
      </trkpt>
      <trkpt lat="44.48172" lon="6.02315">
        <ele>649</ele>
        <time>2018-05-16T05:51:17Z</time>
      </trkpt>
      <trkpt lat="44.48175" lon="6.02351">
        <ele>651</ele>
        <time>2018-05-16T05:52:17Z</time>
      </trkpt>
      <trkpt lat="44.48092" lon="6.02461">
        <ele>643</ele>
        <time>2018-05-16T05:53:17Z</time>
      </trkpt>
      <trkpt lat="44.48103" lon="6.02564">
        <ele>636</ele>
        <time>2018-05-16T05:54:17Z</time>
      </trkpt>
      <trkpt lat="44.48211" lon="6.026">
        <ele>642</ele>
        <time>2018-05-16T05:55:17Z</time>
      </trkpt>
      <trkpt lat="44.48237" lon="6.0265">
        <ele>637</ele>
        <time>2018-05-16T05:56:17Z</time>
      </trkpt>
      <trkpt lat="44.48253" lon="6.02783">
        <ele>633</ele>
        <time>2018-05-16T05:57:17Z</time>
      </trkpt>
      <trkpt lat="44.48263" lon="6.02866">
        <ele>634</ele>
        <time>2018-05-16T05:58:17Z</time>
      </trkpt>
      <trkpt lat="44.48291" lon="6.02905">
        <ele>634</ele>
        <time>2018-05-16T05:59:17Z</time>
      </trkpt>
      <trkpt lat="44.48327" lon="6.02843">
        <ele>635</ele>
        <time>2018-05-16T06:00:17Z</time>
      </trkpt>
      <trkpt lat="44.48397" lon="6.02802">
        <ele>642</ele>
        <time>2018-05-16T06:01:17Z</time>
      </trkpt>
      <trkpt lat="44.48455" lon="6.02727">
        <ele>648</ele>
        <time>2018-05-16T06:02:17Z</time>
      </trkpt>
      <trkpt lat="44.48472" lon="6.02837">
        <ele>642</ele>
        <time>2018-05-16T06:03:17Z</time>
      </trkpt>
      <trkpt lat="44.48574" lon="6.02864">
        <ele>645</ele>
        <time>2018-05-16T06:04:17Z</time>
      </trkpt>
      <trkpt lat="44.48652" lon="6.02918">
        <ele>640</ele>
        <time>2018-05-16T06:05:17Z</time>
      </trkpt>
      <trkpt lat="44.48732" lon="6.03004">
        <ele>645</ele>
        <time>2018-05-16T06:06:17Z</time>
      </trkpt>
      <trkpt lat="44.48769" lon="6.03017">
        <ele>645</ele>
        <time>2018-05-16T06:07:17Z</time>
      </trkpt>
      <trkpt lat="44.48913" lon="6.03008">
        <ele>642</ele>
        <time>2018-05-16T06:08:17Z</time>
      </trkpt>
      <trkpt lat="44.4902" lon="6.03">
        <ele>642</ele>
        <time>2018-05-16T06:09:17Z</time>
      </trkpt>
      <trkpt lat="44.4924" lon="6.03098">
        <ele>648</ele>
        <time>2018-05-16T06:10:17Z</time>
      </trkpt>
      <trkpt lat="44.4932" lon="6.0306">
        <ele>651</ele>
        <time>2018-05-16T06:11:17Z</time>
      </trkpt>
      <trkpt lat="44.49454" lon="6.02991">
        <ele>657</ele>
        <time>2018-05-16T06:12:17Z</time>
      </trkpt>
      <trkpt lat="44.49705" lon="6.0277">
        <ele>668</ele>
        <time>2018-05-16T06:13:17Z</time>
      </trkpt>
      <trkpt lat="44.49767" lon="6.0268">
        <ele>672</ele>
        <time>2018-05-16T06:14:17Z</time>
      </trkpt>
      <trkpt lat="44.49842" lon="6.0256">
        <ele>677</ele>
        <time>2018-05-16T06:15:17Z</time>
      </trkpt>
      <trkpt lat="44.49845" lon="6.02596">
        <ele>675</ele>
        <time>2018-05-16T06:16:17Z</time>
      </trkpt>
      <trkpt lat="44.49881" lon="6.02712">
        <ele>669</ele>
        <time>2018-05-16T06:17:17Z</time>
      </trkpt>
      <trkpt lat="44.49911" lon="6.02817">
        <ele>666</ele>
        <time>2018-05-16T06:18:17Z</time>
      </trkpt>
      <trkpt lat="44.49927" lon="6.02905">
        <ele>664</ele>
        <time>2018-05-16T06:19:17Z</time>
      </trkpt>
      <trkpt lat="44.49978" lon="6.02933">
        <ele>665</ele>
        <time>2018-05-16T06:20:17Z</time>
      </trkpt>
      <trkpt lat="44.50025" lon="6.03036">
        <ele>668</ele>
        <time>2018-05-16T06:21:17Z</time>
      </trkpt>
      <trkpt lat="44.50057" lon="6.031">
        <ele>672</ele>
        <time>2018-05-16T06:22:17Z</time>
      </trkpt>
      <trkpt lat="44.50093" lon="6.03143">
        <ele>676</ele>
        <time>2018-05-16T06:23:17Z</time>
      </trkpt>
      <trkpt lat="44.50116" lon="6.0318">
        <ele>678</ele>
        <time>2018-05-16T06:24:17Z</time>
      </trkpt>
      <trkpt lat="44.50194" lon="6.03182">
        <ele>676</ele>
        <time>2018-05-16T06:25:17Z</time>
      </trkpt>
      <trkpt lat="44.5024" lon="6.03238">
        <ele>681</ele>
        <time>2018-05-16T06:26:17Z</time>
      </trkpt>
      <trkpt lat="44.50293" lon="6.03311">
        <ele>686</ele>
        <time>2018-05-16T06:27:17Z</time>
      </trkpt>
      <trkpt lat="44.50333" lon="6.03384">
        <ele>689</ele>
        <time>2018-05-16T06:28:17Z</time>
      </trkpt>
      <trkpt lat="44.50379" lon="6.03467">
        <ele>693</ele>
        <time>2018-05-16T06:29:17Z</time>
      </trkpt>
      <trkpt lat="44.50455" lon="6.0348">
        <ele>701</ele>
        <time>2018-05-16T06:30:17Z</time>
      </trkpt>
      <trkpt lat="44.50509" lon="6.03502">
        <ele>708</ele>
        <time>2018-05-16T06:31:17Z</time>
      </trkpt>
      <trkpt lat="44.50553" lon="6.03547">
        <ele>707</ele>
        <time>2018-05-16T06:32:17Z</time>
      </trkpt>
      <trkpt lat="44.50595" lon="6.0357">
        <ele>705</ele>
        <time>2018-05-16T06:33:17Z</time>
      </trkpt>
      <trkpt lat="44.5066" lon="6.03579">
        <ele>702</ele>
        <time>2018-05-16T06:34:17Z</time>
      </trkpt>
      <trkpt lat="44.50709" lon="6.03549">
        <ele>701</ele>
        <time>2018-05-16T06:35:17Z</time>
      </trkpt>
      <trkpt lat="44.50745" lon="6.03495">
        <ele>702</ele>
        <time>2018-05-16T06:36:17Z</time>
      </trkpt>
      <trkpt lat="44.50775" lon="6.03452">
        <ele>704</ele>
        <time>2018-05-16T06:37:17Z</time>
      </trkpt>
      <trkpt lat="44.50807" lon="6.03431">
        <ele>707</ele>
        <time>2018-05-16T06:38:17Z</time>
      </trkpt>
      <trkpt lat="44.50833" lon="6.03437">
        <ele>708</ele>
        <time>2018-05-16T06:39:17Z</time>
      </trkpt>
      <trkpt lat="44.50888" lon="6.03465">
        <ele>709</ele>
        <time>2018-05-16T06:40:17Z</time>
      </trkpt>
      <trkpt lat="44.50931" lon="6.03502">
        <ele>708</ele>
        <time>2018-05-16T06:41:17Z</time>
      </trkpt>
      <trkpt lat="44.50982" lon="6.03527">
        <ele>710</ele>
        <time>2018-05-16T06:42:17Z</time>
      </trkpt>
      <trkpt lat="44.51031" lon="6.03545">
        <ele>712</ele>
        <time>2018-05-16T06:43:17Z</time>
      </trkpt>
      <trkpt lat="44.51113" lon="6.03542">
        <ele>716</ele>
        <time>2018-05-16T06:44:17Z</time>
      </trkpt>
      <trkpt lat="44.51191" lon="6.03538">
        <ele>718</ele>
        <time>2018-05-16T06:45:17Z</time>
      </trkpt>
      <trkpt lat="44.51272" lon="6.03557">
        <ele>717</ele>
        <time>2018-05-16T06:46:17Z</time>
      </trkpt>
      <trkpt lat="44.51332" lon="6.03615">
        <ele>713</ele>
        <time>2018-05-16T06:47:17Z</time>
      </trkpt>
      <trkpt lat="44.51338" lon="6.03751">
        <ele>712</ele>
        <time>2018-05-16T06:48:17Z</time>
      </trkpt>
      <trkpt lat="44.51323" lon="6.03836">
        <ele>711</ele>
        <time>2018-05-16T06:49:17Z</time>
      </trkpt>
      <trkpt lat="44.51314" lon="6.03864">
        <ele>709</ele>
        <time>2018-05-16T06:50:17Z</time>
      </trkpt>
      <trkpt lat="44.51286" lon="6.03884">
        <ele>709</ele>
        <time>2018-05-16T06:51:17Z</time>
      </trkpt>
      <trkpt lat="44.51285" lon="6.03926">
        <ele>705</ele>
        <time>2018-05-16T06:52:17Z</time>
      </trkpt>
      <trkpt lat="44.51233" lon="6.03989">
        <ele>699</ele>
        <time>2018-05-16T06:53:17Z</time>
      </trkpt>
      <trkpt lat="44.51211" lon="6.04042">
        <ele>694</ele>
        <time>2018-05-16T06:54:17Z</time>
      </trkpt>
      <trkpt lat="44.51181" lon="6.04079">
        <ele>691</ele>
        <time>2018-05-16T06:55:17Z</time>
      </trkpt>
      <trkpt lat="44.51178" lon="6.04107">
        <ele>693</ele>
        <time>2018-05-16T06:56:17Z</time>
      </trkpt>
      <trkpt lat="44.51126" lon="6.04141">
        <ele>693</ele>
        <time>2018-05-16T06:57:17Z</time>
      </trkpt>
      <trkpt lat="44.51049" lon="6.04178">
        <ele>692</ele>
        <time>2018-05-16T06:58:17Z</time>
      </trkpt>
      <trkpt lat="44.51015" lon="6.04182">
        <ele>692</ele>
        <time>2018-05-16T06:59:17Z</time>
      </trkpt>
      <trkpt lat="44.50951" lon="6.04218">
        <ele>695</ele>
        <time>2018-05-16T07:00:17Z</time>
      </trkpt>
      <trkpt lat="44.50943" lon="6.04244">
        <ele>698</ele>
        <time>2018-05-16T07:01:17Z</time>
      </trkpt>
      <trkpt lat="44.50957" lon="6.04283">
        <ele>698</ele>
        <time>2018-05-16T07:02:17Z</time>
      </trkpt>
      <trkpt lat="44.50977" lon="6.0433">
        <ele>699</ele>
        <time>2018-05-16T07:03:17Z</time>
      </trkpt>
      <trkpt lat="44.50985" lon="6.04377">
        <ele>699</ele>
        <time>2018-05-16T07:04:17Z</time>
      </trkpt>
      <trkpt lat="44.51116" lon="6.0434">
        <ele>705</ele>
        <time>2018-05-16T07:05:17Z</time>
      </trkpt>
      <trkpt lat="44.51167" lon="6.04212">
        <ele>701</ele>
        <time>2018-05-16T07:06:17Z</time>
      </trkpt>
      <trkpt lat="44.51325" lon="6.0422">
        <ele>716</ele>
        <time>2018-05-16T07:07:17Z</time>
      </trkpt>
      <trkpt lat="44.51404" lon="6.04222">
        <ele>730</ele>
        <time>2018-05-16T07:08:17Z</time>
      </trkpt>
      <trkpt lat="44.51529" lon="6.0425">
        <ele>742</ele>
        <time>2018-05-16T07:09:17Z</time>
      </trkpt>
      <trkpt lat="44.51596" lon="6.04227">
        <ele>747</ele>
        <time>2018-05-16T07:10:17Z</time>
      </trkpt>
      <trkpt lat="44.51671" lon="6.04251">
        <ele>748</ele>
        <time>2018-05-16T07:11:17Z</time>
      </trkpt>
      <trkpt lat="44.51713" lon="6.0427">
        <ele>748</ele>
        <time>2018-05-16T07:12:17Z</time>
      </trkpt>
      <trkpt lat="44.51802" lon="6.04317">
        <ele>752</ele>
        <time>2018-05-16T07:13:17Z</time>
      </trkpt>
      <trkpt lat="44.51857" lon="6.04338">
        <ele>756</ele>
        <time>2018-05-16T07:14:17Z</time>
      </trkpt>
      <trkpt lat="44.51921" lon="6.0448">
        <ele>751</ele>
        <time>2018-05-16T07:15:17Z</time>
      </trkpt>
      <trkpt lat="44.51964" lon="6.04622">
        <ele>752</ele>
        <time>2018-05-16T07:16:17Z</time>
      </trkpt>
      <trkpt lat="44.51989" lon="6.04819">
        <ele>751</ele>
        <time>2018-05-16T07:17:17Z</time>
      </trkpt>
      <trkpt lat="44.51979" lon="6.04901">
        <ele>748</ele>
        <time>2018-05-16T07:18:17Z</time>
      </trkpt>
      <trkpt lat="44.52053" lon="6.04952">
        <ele>751</ele>
        <time>2018-05-16T07:19:17Z</time>
      </trkpt>
      <trkpt lat="44.52083" lon="6.05017">
        <ele>747</ele>
        <time>2018-05-16T07:20:17Z</time>
      </trkpt>
      <trkpt lat="44.51952" lon="6.0512">
        <ele>739</ele>
        <time>2018-05-16T07:21:17Z</time>
      </trkpt>
      <trkpt lat="44.51701" lon="6.05119">
        <ele>738</ele>
        <time>2018-05-16T07:22:17Z</time>
      </trkpt>
      <trkpt lat="44.51759" lon="6.0527">
        <ele>722</ele>
        <time>2018-05-16T07:23:17Z</time>
      </trkpt>
      <trkpt lat="44.51915" lon="6.0545">
        <ele>701</ele>
        <time>2018-05-16T07:24:17Z</time>
      </trkpt>
      <trkpt lat="44.51894" lon="6.05433">
        <ele>701</ele>
        <time>2018-05-16T07:25:17Z</time>
      </trkpt>
      <trkpt lat="44.52019" lon="6.05471">
        <ele>701</ele>
        <time>2018-05-16T07:26:17Z</time>
      </trkpt>
      <trkpt lat="44.52034" lon="6.0554">
        <ele>700</ele>
        <time>2018-05-16T07:27:17Z</time>
      </trkpt>
      <trkpt lat="44.52041" lon="6.05682">
        <ele>692</ele>
        <time>2018-05-16T07:28:17Z</time>
      </trkpt>
      <trkpt lat="44.52068" lon="6.05768">
        <ele>690</ele>
        <time>2018-05-16T07:29:17Z</time>
      </trkpt>
      <trkpt lat="44.52181" lon="6.0581">
        <ele>684</ele>
        <time>2018-05-16T07:30:17Z</time>
      </trkpt>
      <trkpt lat="44.52249" lon="6.05978">
        <ele>678</ele>
        <time>2018-05-16T07:31:17Z</time>
      </trkpt>
      <trkpt lat="44.52343" lon="6.05965">
        <ele>680</ele>
        <time>2018-05-16T07:32:17Z</time>
      </trkpt>
      <trkpt lat="44.52426" lon="6.06025">
        <ele>682</ele>
        <time>2018-05-16T07:33:17Z</time>
      </trkpt>
      <trkpt lat="44.52496" lon="6.06171">
        <ele>680</ele>
        <time>2018-05-16T07:34:17Z</time>
      </trkpt>
      <trkpt lat="44.52591" lon="6.0621">
        <ele>685</ele>
        <time>2018-05-16T07:35:17Z</time>
      </trkpt>
      <trkpt lat="44.52656" lon="6.06381">
        <ele>686</ele>
        <time>2018-05-16T07:36:17Z</time>
      </trkpt>
      <trkpt lat="44.5276" lon="6.06428">
        <ele>686</ele>
        <time>2018-05-16T07:37:17Z</time>
      </trkpt>
      <trkpt lat="44.52827" lon="6.06351">
        <ele>685</ele>
        <time>2018-05-16T07:38:17Z</time>
      </trkpt>
      <trkpt lat="44.53032" lon="6.06373">
        <ele>689</ele>
        <time>2018-05-16T07:39:17Z</time>
      </trkpt>
      <trkpt lat="44.53231" lon="6.0633">
        <ele>692</ele>
        <time>2018-05-16T07:40:17Z</time>
      </trkpt>
      <trkpt lat="44.53007" lon="6.06373">
        <ele>690</ele>
        <time>2018-05-16T07:41:17Z</time>
      </trkpt>
      <trkpt lat="44.52848" lon="6.06351">
        <ele>685</ele>
        <time>2018-05-16T07:42:17Z</time>
      </trkpt>
      <trkpt lat="44.52744" lon="6.06424">
        <ele>686</ele>
        <time>2018-05-16T07:43:17Z</time>
      </trkpt>
      <trkpt lat="44.52643" lon="6.06347">
        <ele>684</ele>
        <time>2018-05-16T07:44:17Z</time>
      </trkpt>
      <trkpt lat="44.52607" lon="6.0624">
        <ele>683</ele>
        <time>2018-05-16T07:45:17Z</time>
      </trkpt>
      <trkpt lat="44.52484" lon="6.06141">
        <ele>681</ele>
        <time>2018-05-16T07:46:17Z</time>
      </trkpt>
      <trkpt lat="44.52478" lon="6.06064">
        <ele>685</ele>
        <time>2018-05-16T07:47:17Z</time>
      </trkpt>
      <trkpt lat="44.525" lon="6.06081">
        <ele>686</ele>
        <time>2018-05-16T07:48:17Z</time>
      </trkpt>
      <trkpt lat="44.52371" lon="6.05982">
        <ele>681</ele>
        <time>2018-05-16T07:49:17Z</time>
      </trkpt>
      <trkpt lat="44.52261" lon="6.05974">
        <ele>678</ele>
        <time>2018-05-16T07:50:17Z</time>
      </trkpt>
      <trkpt lat="44.52151" lon="6.05772">
        <ele>685</ele>
        <time>2018-05-16T07:51:17Z</time>
      </trkpt>
      <trkpt lat="44.52041" lon="6.05729">
        <ele>691</ele>
        <time>2018-05-16T07:52:17Z</time>
      </trkpt>
      <trkpt lat="44.52038" lon="6.05609">
        <ele>697</ele>
        <time>2018-05-16T07:53:17Z</time>
      </trkpt>
      <trkpt lat="44.52025" lon="6.05446">
        <ele>701</ele>
        <time>2018-05-16T07:54:17Z</time>
      </trkpt>
      <trkpt lat="44.51894" lon="6.05429">
        <ele>701</ele>
        <time>2018-05-16T07:55:17Z</time>
      </trkpt>
      <trkpt lat="44.51669" lon="6.05176">
        <ele>740</ele>
        <time>2018-05-16T07:56:17Z</time>
      </trkpt>
      <trkpt lat="44.51736" lon="6.05107">
        <ele>737</ele>
        <time>2018-05-16T07:57:17Z</time>
      </trkpt>
      <trkpt lat="44.51857" lon="6.05152">
        <ele>740</ele>
        <time>2018-05-16T07:58:17Z</time>
      </trkpt>
      <trkpt lat="44.51823" lon="6.0515">
        <ele>739</ele>
        <time>2018-05-16T07:59:17Z</time>
      </trkpt>
      <trkpt lat="44.51917" lon="6.05158">
        <ele>740</ele>
        <time>2018-05-16T08:00:17Z</time>
      </trkpt>
      <trkpt lat="44.51927" lon="6.05126">
        <ele>740</ele>
        <time>2018-05-16T08:01:17Z</time>
      </trkpt>
      <trkpt lat="44.51982" lon="6.05111">
        <ele>738</ele>
        <time>2018-05-16T08:02:17Z</time>
      </trkpt>
      <trkpt lat="44.52036" lon="6.05074">
        <ele>741</ele>
        <time>2018-05-16T08:03:17Z</time>
      </trkpt>
      <trkpt lat="44.52079" lon="6.05053">
        <ele>743</ele>
        <time>2018-05-16T08:04:17Z</time>
      </trkpt>
      <trkpt lat="44.52082" lon="6.04974">
        <ele>751</ele>
        <time>2018-05-16T08:05:17Z</time>
      </trkpt>
      <trkpt lat="44.52001" lon="6.04909">
        <ele>750</ele>
        <time>2018-05-16T08:06:17Z</time>
      </trkpt>
      <trkpt lat="44.51987" lon="6.0486">
        <ele>750</ele>
        <time>2018-05-16T08:07:17Z</time>
      </trkpt>
      <trkpt lat="44.51985" lon="6.0471">
        <ele>753</ele>
        <time>2018-05-16T08:08:17Z</time>
      </trkpt>
      <trkpt lat="44.51976" lon="6.04662">
        <ele>753</ele>
        <time>2018-05-16T08:09:17Z</time>
      </trkpt>
      <trkpt lat="44.51933" lon="6.04525">
        <ele>750</ele>
        <time>2018-05-16T08:10:17Z</time>
      </trkpt>
      <trkpt lat="44.51883" lon="6.04351">
        <ele>757</ele>
        <time>2018-05-16T08:11:17Z</time>
      </trkpt>
      <trkpt lat="44.51946" lon="6.04364">
        <ele>763</ele>
        <time>2018-05-16T08:12:17Z</time>
      </trkpt>
      <trkpt lat="44.5203" lon="6.04429">
        <ele>769</ele>
        <time>2018-05-16T08:13:17Z</time>
      </trkpt>
      <trkpt lat="44.52117" lon="6.04424">
        <ele>774</ele>
        <time>2018-05-16T08:14:17Z</time>
      </trkpt>
      <trkpt lat="44.52166" lon="6.04435">
        <ele>776</ele>
        <time>2018-05-16T08:15:17Z</time>
      </trkpt>
      <trkpt lat="44.52284" lon="6.04502">
        <ele>775</ele>
        <time>2018-05-16T08:16:17Z</time>
      </trkpt>
      <trkpt lat="44.52371" lon="6.0457">
        <ele>769</ele>
        <time>2018-05-16T08:17:17Z</time>
      </trkpt>
      <trkpt lat="44.52659" lon="6.04682">
        <ele>759</ele>
        <time>2018-05-16T08:18:17Z</time>
      </trkpt>
      <trkpt lat="44.52607" lon="6.04519">
        <ele>750</ele>
        <time>2018-05-16T08:19:17Z</time>
      </trkpt>
      <trkpt lat="44.52626" lon="6.04489">
        <ele>747</ele>
        <time>2018-05-16T08:20:17Z</time>
      </trkpt>
      <trkpt lat="44.52639" lon="6.04441">
        <ele>746</ele>
        <time>2018-05-16T08:21:17Z</time>
      </trkpt>
      <trkpt lat="44.52671" lon="6.04379">
        <ele>741</ele>
        <time>2018-05-16T08:22:17Z</time>
      </trkpt>
      <trkpt lat="44.52653" lon="6.04248">
        <ele>733</ele>
        <time>2018-05-16T08:23:17Z</time>
      </trkpt>
      <trkpt lat="44.52662" lon="6.04182">
        <ele>730</ele>
        <time>2018-05-16T08:24:17Z</time>
      </trkpt>
      <trkpt lat="44.52654" lon="6.041">
        <ele>727</ele>
        <time>2018-05-16T08:25:17Z</time>
      </trkpt>
      <trkpt lat="44.5261" lon="6.04068">
        <ele>726</ele>
        <time>2018-05-16T08:26:17Z</time>
      </trkpt>
      <trkpt lat="44.52642" lon="6.04036">
        <ele>726</ele>
        <time>2018-05-16T08:27:17Z</time>
      </trkpt>
      <trkpt lat="44.52706" lon="6.04017">
        <ele>728</ele>
        <time>2018-05-16T08:28:17Z</time>
      </trkpt>
      <trkpt lat="44.52746" lon="6.03903">
        <ele>735</ele>
        <time>2018-05-16T08:29:17Z</time>
      </trkpt>
      <trkpt lat="44.52761" lon="6.03851">
        <ele>741</ele>
        <time>2018-05-16T08:30:17Z</time>
      </trkpt>
      <trkpt lat="44.52887" lon="6.0369">
        <ele>776</ele>
        <time>2018-05-16T08:31:17Z</time>
      </trkpt>
      <trkpt lat="44.52893" lon="6.0366">
        <ele>780</ele>
        <time>2018-05-16T08:32:17Z</time>
      </trkpt>
      <trkpt lat="44.52925" lon="6.03615">
        <ele>784</ele>
        <time>2018-05-16T08:33:17Z</time>
      </trkpt>
      <trkpt lat="44.52909" lon="6.0354">
        <ele>787</ele>
        <time>2018-05-16T08:34:17Z</time>
      </trkpt>
      <trkpt lat="44.52871" lon="6.03433">
        <ele>792</ele>
        <time>2018-05-16T08:35:17Z</time>
      </trkpt>
      <trkpt lat="44.52925" lon="6.03373">
        <ele>799</ele>
        <time>2018-05-16T08:36:17Z</time>
      </trkpt>
      <trkpt lat="44.52971" lon="6.03362">
        <ele>803</ele>
        <time>2018-05-16T08:37:17Z</time>
      </trkpt>
      <trkpt lat="44.53027" lon="6.03371">
        <ele>807</ele>
        <time>2018-05-16T08:38:17Z</time>
      </trkpt>
      <trkpt lat="44.53108" lon="6.0339">
        <ele>814</ele>
        <time>2018-05-16T08:39:17Z</time>
      </trkpt>
      <trkpt lat="44.5313" lon="6.03349">
        <ele>820</ele>
        <time>2018-05-16T08:40:17Z</time>
      </trkpt>
      <trkpt lat="44.53168" lon="6.03238">
        <ele>829</ele>
        <time>2018-05-16T08:41:17Z</time>
      </trkpt>
      <trkpt lat="44.5333" lon="6.03324">
        <ele>840</ele>
        <time>2018-05-16T08:42:17Z</time>
      </trkpt>
      <trkpt lat="44.53371" lon="6.03309">
        <ele>844</ele>
        <time>2018-05-16T08:43:17Z</time>
      </trkpt>
      <trkpt lat="44.53431" lon="6.03315">
        <ele>851</ele>
        <time>2018-05-16T08:44:17Z</time>
      </trkpt>
      <trkpt lat="44.53477" lon="6.03287">
        <ele>858</ele>
        <time>2018-05-16T08:45:17Z</time>
      </trkpt>
      <trkpt lat="44.53479" lon="6.03242">
        <ele>859</ele>
        <time>2018-05-16T08:46:17Z</time>
      </trkpt>
      <trkpt lat="44.53459" lon="6.03197">
        <ele>860</ele>
        <time>2018-05-16T08:47:17Z</time>
      </trkpt>
      <trkpt lat="44.53417" lon="6.03148">
        <ele>857</ele>
        <time>2018-05-16T08:48:17Z</time>
      </trkpt>
      <trkpt lat="44.53379" lon="6.03098">
        <ele>859</ele>
        <time>2018-05-16T08:49:17Z</time>
      </trkpt>
      <trkpt lat="44.53349" lon="6.0301">
        <ele>862</ele>
        <time>2018-05-16T08:50:17Z</time>
      </trkpt>
      <trkpt lat="44.53301" lon="6.02969">
        <ele>865</ele>
        <time>2018-05-16T08:51:17Z</time>
      </trkpt>
      <trkpt lat="44.53252" lon="6.02924">
        <ele>869</ele>
        <time>2018-05-16T08:52:17Z</time>
      </trkpt>
      <trkpt lat="44.53211" lon="6.0289">
        <ele>873</ele>
        <time>2018-05-16T08:53:17Z</time>
      </trkpt>
      <trkpt lat="44.53176" lon="6.02841">
        <ele>878</ele>
        <time>2018-05-16T08:54:17Z</time>
      </trkpt>
      <trkpt lat="44.53157" lon="6.02802">
        <ele>880</ele>
        <time>2018-05-16T08:55:17Z</time>
      </trkpt>
      <trkpt lat="44.53157" lon="6.02772">
        <ele>882</ele>
        <time>2018-05-16T08:56:17Z</time>
      </trkpt>
      <trkpt lat="44.53174" lon="6.02729">
        <ele>886</ele>
        <time>2018-05-16T08:57:17Z</time>
      </trkpt>
      <trkpt lat="44.53176" lon="6.02691">
        <ele>888</ele>
        <time>2018-05-16T08:58:17Z</time>
      </trkpt>
      <trkpt lat="44.53171" lon="6.02654">
        <ele>888</ele>
        <time>2018-05-16T08:59:17Z</time>
      </trkpt>
      <trkpt lat="44.53171" lon="6.02538">
        <ele>894</ele>
        <time>2018-05-16T09:00:17Z</time>
      </trkpt>
      <trkpt lat="44.53153" lon="6.02448">
        <ele>898</ele>
        <time>2018-05-16T09:01:17Z</time>
      </trkpt>
      <trkpt lat="44.53176" lon="6.02412">
        <ele>903</ele>
        <time>2018-05-16T09:02:17Z</time>
      </trkpt>
      <trkpt lat="44.53145" lon="6.02354">
        <ele>903</ele>
        <time>2018-05-16T09:03:17Z</time>
      </trkpt>
      <trkpt lat="44.5315" lon="6.02251">
        <ele>911</ele>
        <time>2018-05-16T09:04:17Z</time>
      </trkpt>
      <trkpt lat="44.53151" lon="6.02201">
        <ele>918</ele>
        <time>2018-05-16T09:05:17Z</time>
      </trkpt>
      <trkpt lat="44.53148" lon="6.02152">
        <ele>924</ele>
        <time>2018-05-16T09:06:17Z</time>
      </trkpt>
      <trkpt lat="44.53153" lon="6.02111">
        <ele>928</ele>
        <time>2018-05-16T09:07:17Z</time>
      </trkpt>
      <trkpt lat="44.53171" lon="6.02004">
        <ele>936</ele>
        <time>2018-05-16T09:08:17Z</time>
      </trkpt>
      <trkpt lat="44.53165" lon="6.01892">
        <ele>941</ele>
        <time>2018-05-16T09:09:17Z</time>
      </trkpt>
      <trkpt lat="44.53174" lon="6.01854">
        <ele>944</ele>
        <time>2018-05-16T09:10:17Z</time>
      </trkpt>
      <trkpt lat="44.53228" lon="6.018">
        <ele>953</ele>
        <time>2018-05-16T09:11:17Z</time>
      </trkpt>
      <trkpt lat="44.53199" lon="6.01706">
        <ele>951</ele>
        <time>2018-05-16T09:12:17Z</time>
      </trkpt>
      <trkpt lat="44.53246" lon="6.01703">
        <ele>956</ele>
        <time>2018-05-16T09:13:17Z</time>
      </trkpt>
      <trkpt lat="44.53295" lon="6.01654">
        <ele>959</ele>
        <time>2018-05-16T09:14:17Z</time>
      </trkpt>
      <trkpt lat="44.53329" lon="6.01598">
        <ele>958</ele>
        <time>2018-05-16T09:15:17Z</time>
      </trkpt>
      <trkpt lat="44.53356" lon="6.01547">
        <ele>956</ele>
        <time>2018-05-16T09:16:17Z</time>
      </trkpt>
      <trkpt lat="44.53414" lon="6.01502">
        <ele>957</ele>
        <time>2018-05-16T09:17:17Z</time>
      </trkpt>
      <trkpt lat="44.53437" lon="6.01459">
        <ele>955</ele>
        <time>2018-05-16T09:18:17Z</time>
      </trkpt>
      <trkpt lat="44.53468" lon="6.01384">
        <ele>952</ele>
        <time>2018-05-16T09:19:17Z</time>
      </trkpt>
      <trkpt lat="44.53667" lon="6.01379">
        <ele>957</ele>
        <time>2018-05-16T09:20:17Z</time>
      </trkpt>
      <trkpt lat="44.53787" lon="6.01384">
        <ele>959</ele>
        <time>2018-05-16T09:21:17Z</time>
      </trkpt>
      <trkpt lat="44.53862" lon="6.01425">
        <ele>962</ele>
        <time>2018-05-16T09:22:17Z</time>
      </trkpt>
      <trkpt lat="44.53973" lon="6.01384">
        <ele>962</ele>
        <time>2018-05-16T09:23:17Z</time>
      </trkpt>
      <trkpt lat="44.54034" lon="6.01358">
        <ele>964</ele>
        <time>2018-05-16T09:24:17Z</time>
      </trkpt>
      <trkpt lat="44.54067" lon="6.01309">
        <ele>965</ele>
        <time>2018-05-16T09:25:17Z</time>
      </trkpt>
      <trkpt lat="44.54112" lon="6.01296">
        <ele>968</ele>
        <time>2018-05-16T09:26:17Z</time>
      </trkpt>
      <trkpt lat="44.54174" lon="6.01332">
        <ele>974</ele>
        <time>2018-05-16T09:27:17Z</time>
      </trkpt>
      <trkpt lat="44.54199" lon="6.013">
        <ele>976</ele>
        <time>2018-05-16T09:28:17Z</time>
      </trkpt>
      <trkpt lat="44.54312" lon="6.01373">
        <ele>996</ele>
        <time>2018-05-16T09:29:17Z</time>
      </trkpt>
      <trkpt lat="44.54477" lon="6.01485">
        <ele>1025</ele>
        <time>2018-05-16T09:30:17Z</time>
      </trkpt>
      <trkpt lat="44.54644" lon="6.01322">
        <ele>1039</ele>
        <time>2018-05-16T09:31:17Z</time>
      </trkpt>
      <trkpt lat="44.54688" lon="6.01319">
        <ele>1042</ele>
        <time>2018-05-16T09:32:17Z</time>
      </trkpt>
      <trkpt lat="44.5474" lon="6.01307">
        <ele>1043</ele>
        <time>2018-05-16T09:33:17Z</time>
      </trkpt>
      <trkpt lat="44.54798" lon="6.01274">
        <ele>1047</ele>
        <time>2018-05-16T09:34:17Z</time>
      </trkpt>
      <trkpt lat="44.54878" lon="6.01242">
        <ele>1058</ele>
        <time>2018-05-16T09:35:17Z</time>
      </trkpt>
      <trkpt lat="44.54973" lon="6.01255">
        <ele>1072</ele>
        <time>2018-05-16T09:36:17Z</time>
      </trkpt>
      <trkpt lat="44.55026" lon="6.01274">
        <ele>1078</ele>
        <time>2018-05-16T09:37:17Z</time>
      </trkpt>
      <trkpt lat="44.55097" lon="6.01291">
        <ele>1083</ele>
        <time>2018-05-16T09:38:17Z</time>
      </trkpt>
      <trkpt lat="44.55202" lon="6.01317">
        <ele>1090</ele>
        <time>2018-05-16T09:39:17Z</time>
      </trkpt>
      <trkpt lat="44.55309" lon="6.0136">
        <ele>1093</ele>
        <time>2018-05-16T09:40:17Z</time>
      </trkpt>
      <trkpt lat="44.55402" lon="6.01384">
        <ele>1096</ele>
        <time>2018-05-16T09:41:17Z</time>
      </trkpt>
      <trkpt lat="44.55467" lon="6.01384">
        <ele>1100</ele>
        <time>2018-05-16T09:42:17Z</time>
      </trkpt>
      <trkpt lat="44.5562" lon="6.01347">
        <ele>1108</ele>
        <time>2018-05-16T09:43:17Z</time>
      </trkpt>
      <trkpt lat="44.55765" lon="6.01322">
        <ele>1121</ele>
        <time>2018-05-16T09:44:17Z</time>
      </trkpt>
      <trkpt lat="44.55887" lon="6.01326">
        <ele>1135</ele>
        <time>2018-05-16T09:45:17Z</time>
      </trkpt>
      <trkpt lat="44.55924" lon="6.01403">
        <ele>1137</ele>
        <time>2018-05-16T09:46:17Z</time>
      </trkpt>
      <trkpt lat="44.55945" lon="6.01523">
        <ele>1134</ele>
        <time>2018-05-16T09:47:17Z</time>
      </trkpt>
      <trkpt lat="44.55968" lon="6.01708">
        <ele>1134</ele>
        <time>2018-05-16T09:48:17Z</time>
      </trkpt>
      <trkpt lat="44.55977" lon="6.01867">
        <ele>1134</ele>
        <time>2018-05-16T09:49:17Z</time>
      </trkpt>
      <trkpt lat="44.56002" lon="6.02083">
        <ele>1133</ele>
        <time>2018-05-16T09:50:17Z</time>
      </trkpt>
      <trkpt lat="44.56054" lon="6.02257">
        <ele>1137</ele>
        <time>2018-05-16T09:51:17Z</time>
      </trkpt>
      <trkpt lat="44.56116" lon="6.02412">
        <ele>1138</ele>
        <time>2018-05-16T09:52:17Z</time>
      </trkpt>
      <trkpt lat="44.56213" lon="6.02609">
        <ele>1136</ele>
        <time>2018-05-16T09:53:17Z</time>
      </trkpt>
      <trkpt lat="44.56233" lon="6.02643">
        <ele>1135</ele>
        <time>2018-05-16T09:54:17Z</time>
      </trkpt>
      <trkpt lat="44.56295" lon="6.02639">
        <ele>1151</ele>
        <time>2018-05-16T09:55:17Z</time>
      </trkpt>
      <trkpt lat="44.5632" lon="6.02721">
        <ele>1144</ele>
        <time>2018-05-16T09:56:17Z</time>
      </trkpt>
      <trkpt lat="44.56356" lon="6.02779">
        <ele>1145</ele>
        <time>2018-05-16T09:57:17Z</time>
      </trkpt>
      <trkpt lat="44.5647" lon="6.0292">
        <ele>1136</ele>
        <time>2018-05-16T09:58:17Z</time>
      </trkpt>
      <trkpt lat="44.56552" lon="6.02961">
        <ele>1143</ele>
        <time>2018-05-16T09:59:17Z</time>
      </trkpt>
      <trkpt lat="44.56601" lon="6.03015">
        <ele>1140</ele>
        <time>2018-05-16T10:00:17Z</time>
      </trkpt>
      <trkpt lat="44.56651" lon="6.03034">
        <ele>1144</ele>
        <time>2018-05-16T10:01:17Z</time>
      </trkpt>
      <trkpt lat="44.56688" lon="6.0309">
        <ele>1138</ele>
        <time>2018-05-16T10:02:17Z</time>
      </trkpt>
      <trkpt lat="44.56751" lon="6.03141">
        <ele>1139</ele>
        <time>2018-05-16T10:03:17Z</time>
      </trkpt>
      <trkpt lat="44.56832" lon="6.03216">
        <ele>1145</ele>
        <time>2018-05-16T10:04:17Z</time>
      </trkpt>
      <trkpt lat="44.56838" lon="6.03278">
        <ele>1136</ele>
        <time>2018-05-16T10:05:17Z</time>
      </trkpt>
      <trkpt lat="44.56861" lon="6.03309">
        <ele>1138</ele>
        <time>2018-05-16T10:06:17Z</time>
      </trkpt>
      <trkpt lat="44.56921" lon="6.03397">
        <ele>1131</ele>
        <time>2018-05-16T10:07:17Z</time>
      </trkpt>
      <trkpt lat="44.57013" lon="6.03493">
        <ele>1134</ele>
        <time>2018-05-16T10:08:17Z</time>
      </trkpt>
      <trkpt lat="44.5709" lon="6.03583">
        <ele>1129</ele>
        <time>2018-05-16T10:09:17Z</time>
      </trkpt>
      <trkpt lat="44.57198" lon="6.03554">
        <ele>1142</ele>
        <time>2018-05-16T10:10:17Z</time>
      </trkpt>
      <trkpt lat="44.57225" lon="6.03617">
        <ele>1136</ele>
        <time>2018-05-16T10:11:17Z</time>
      </trkpt>
      <trkpt lat="44.57272" lon="6.0365">
        <ele>1144</ele>
        <time>2018-05-16T10:12:17Z</time>
      </trkpt>
      <trkpt lat="44.57294" lon="6.03704">
        <ele>1151</ele>
        <time>2018-05-16T10:13:17Z</time>
      </trkpt>
      <trkpt lat="44.57214" lon="6.03759">
        <ele>1130</ele>
        <time>2018-05-16T10:14:17Z</time>
      </trkpt>
      <trkpt lat="44.57197" lon="6.03803">
        <ele>1127</ele>
        <time>2018-05-16T10:15:17Z</time>
      </trkpt>
      <trkpt lat="44.57225" lon="6.03847">
        <ele>1133</ele>
        <time>2018-05-16T10:16:17Z</time>
      </trkpt>
      <trkpt lat="44.57258" lon="6.03892">
        <ele>1133</ele>
        <time>2018-05-16T10:17:17Z</time>
      </trkpt>
      <trkpt lat="44.57294" lon="6.03919">
        <ele>1137</ele>
        <time>2018-05-16T10:18:17Z</time>
      </trkpt>
      <trkpt lat="44.57348" lon="6.04014">
        <ele>1137</ele>
        <time>2018-05-16T10:19:17Z</time>
      </trkpt>
      <trkpt lat="44.57393" lon="6.04128">
        <ele>1134</ele>
        <time>2018-05-16T10:20:17Z</time>
      </trkpt>
      <trkpt lat="44.57459" lon="6.04244">
        <ele>1139</ele>
        <time>2018-05-16T10:21:17Z</time>
      </trkpt>
      <trkpt lat="44.57504" lon="6.04379">
        <ele>1137</ele>
        <time>2018-05-16T10:22:17Z</time>
      </trkpt>
      <trkpt lat="44.57579" lon="6.04523">
        <ele>1137</ele>
        <time>2018-05-16T10:23:17Z</time>
      </trkpt>
      <trkpt lat="44.57621" lon="6.04542">
        <ele>1144</ele>
        <time>2018-05-16T10:24:17Z</time>
      </trkpt>
      <trkpt lat="44.5765" lon="6.04575">
        <ele>1144</ele>
        <time>2018-05-16T10:25:17Z</time>
      </trkpt>
      <trkpt lat="44.57673" lon="6.04609">
        <ele>1143</ele>
        <time>2018-05-16T10:26:17Z</time>
      </trkpt>
      <trkpt lat="44.5768" lon="6.04662">
        <ele>1138</ele>
        <time>2018-05-16T10:27:17Z</time>
      </trkpt>
      <trkpt lat="44.57696" lon="6.04701">
        <ele>1134</ele>
        <time>2018-05-16T10:28:17Z</time>
      </trkpt>
      <trkpt lat="44.57781" lon="6.04712">
        <ele>1149</ele>
        <time>2018-05-16T10:29:17Z</time>
      </trkpt>
      <trkpt lat="44.57792" lon="6.04746">
        <ele>1143</ele>
        <time>2018-05-16T10:30:17Z</time>
      </trkpt>
      <trkpt lat="44.57806" lon="6.04776">
        <ele>1138</ele>
        <time>2018-05-16T10:31:17Z</time>
      </trkpt>
      <trkpt lat="44.57836" lon="6.0477">
        <ele>1146</ele>
        <time>2018-05-16T10:32:17Z</time>
      </trkpt>
      <trkpt lat="44.57884" lon="6.04841">
        <ele>1142</ele>
        <time>2018-05-16T10:33:17Z</time>
      </trkpt>
      <trkpt lat="44.57925" lon="6.04933">
        <ele>1136</ele>
        <time>2018-05-16T10:34:17Z</time>
      </trkpt>
      <trkpt lat="44.57977" lon="6.05002">
        <ele>1139</ele>
        <time>2018-05-16T10:35:17Z</time>
      </trkpt>
      <trkpt lat="44.58056" lon="6.05102">
        <ele>1143</ele>
        <time>2018-05-16T10:36:17Z</time>
      </trkpt>
      <trkpt lat="44.58151" lon="6.0524">
        <ele>1141</ele>
        <time>2018-05-16T10:37:17Z</time>
      </trkpt>
      <trkpt lat="44.58229" lon="6.05371">
        <ele>1139</ele>
        <time>2018-05-16T10:38:17Z</time>
      </trkpt>
      <trkpt lat="44.5827" lon="6.05431">
        <ele>1141</ele>
        <time>2018-05-16T10:39:17Z</time>
      </trkpt>
      <trkpt lat="44.58305" lon="6.05486">
        <ele>1145</ele>
        <time>2018-05-16T10:40:17Z</time>
      </trkpt>
      <trkpt lat="44.58328" lon="6.05551">
        <ele>1142</ele>
        <time>2018-05-16T10:41:17Z</time>
      </trkpt>
      <trkpt lat="44.58357" lon="6.05602">
        <ele>1142</ele>
        <time>2018-05-16T10:42:17Z</time>
      </trkpt>
      <trkpt lat="44.5844" lon="6.0572">
        <ele>1140</ele>
        <time>2018-05-16T10:43:17Z</time>
      </trkpt>
      <trkpt lat="44.58493" lon="6.05813">
        <ele>1139</ele>
        <time>2018-05-16T10:44:17Z</time>
      </trkpt>
      <trkpt lat="44.58561" lon="6.05841">
        <ele>1143</ele>
        <time>2018-05-16T10:45:17Z</time>
      </trkpt>
      <trkpt lat="44.58588" lon="6.0592">
        <ele>1135</ele>
        <time>2018-05-16T10:46:17Z</time>
      </trkpt>
      <trkpt lat="44.58648" lon="6.05989">
        <ele>1139</ele>
        <time>2018-05-16T10:47:17Z</time>
      </trkpt>
      <trkpt lat="44.58693" lon="6.06062">
        <ele>1135</ele>
        <time>2018-05-16T10:48:17Z</time>
      </trkpt>
      <trkpt lat="44.58759" lon="6.06126">
        <ele>1139</ele>
        <time>2018-05-16T10:49:17Z</time>
      </trkpt>
      <trkpt lat="44.58822" lon="6.06259">
        <ele>1138</ele>
        <time>2018-05-16T10:50:17Z</time>
      </trkpt>
      <trkpt lat="44.5884" lon="6.0633">
        <ele>1136</ele>
        <time>2018-05-16T10:51:17Z</time>
      </trkpt>
      <trkpt lat="44.58889" lon="6.06394">
        <ele>1140</ele>
        <time>2018-05-16T10:52:17Z</time>
      </trkpt>
      <trkpt lat="44.58924" lon="6.06516">
        <ele>1132</ele>
        <time>2018-05-16T10:53:17Z</time>
      </trkpt>
      <trkpt lat="44.58952" lon="6.06549">
        <ele>1130</ele>
        <time>2018-05-16T10:54:17Z</time>
      </trkpt>
      <trkpt lat="44.59005" lon="6.06566">
        <ele>1131</ele>
        <time>2018-05-16T10:55:17Z</time>
      </trkpt>
      <trkpt lat="44.59046" lon="6.06531">
        <ele>1133</ele>
        <time>2018-05-16T10:56:17Z</time>
      </trkpt>
      <trkpt lat="44.59092" lon="6.06469">
        <ele>1145</ele>
        <time>2018-05-16T10:57:17Z</time>
      </trkpt>
      <trkpt lat="44.59121" lon="6.0648">
        <ele>1147</ele>
        <time>2018-05-16T10:58:17Z</time>
      </trkpt>
      <trkpt lat="44.59161" lon="6.0657">
        <ele>1138</ele>
        <time>2018-05-16T10:59:17Z</time>
      </trkpt>
      <trkpt lat="44.59169" lon="6.06765">
        <ele>1128</ele>
        <time>2018-05-16T11:00:17Z</time>
      </trkpt>
      <trkpt lat="44.59179" lon="6.06845">
        <ele>1123</ele>
        <time>2018-05-16T11:01:17Z</time>
      </trkpt>
      <trkpt lat="44.59205" lon="6.06879">
        <ele>1124</ele>
        <time>2018-05-16T11:02:17Z</time>
      </trkpt>
      <trkpt lat="44.5928" lon="6.06855">
        <ele>1144</ele>
        <time>2018-05-16T11:03:17Z</time>
      </trkpt>
      <trkpt lat="44.59331" lon="6.06853">
        <ele>1150</ele>
        <time>2018-05-16T11:04:17Z</time>
      </trkpt>
      <trkpt lat="44.59337" lon="6.06886">
        <ele>1145</ele>
        <time>2018-05-16T11:05:17Z</time>
      </trkpt>
      <trkpt lat="44.59279" lon="6.06935">
        <ele>1126</ele>
        <time>2018-05-16T11:06:17Z</time>
      </trkpt>
      <trkpt lat="44.5927" lon="6.06961">
        <ele>1118</ele>
        <time>2018-05-16T11:07:17Z</time>
      </trkpt>
      <trkpt lat="44.59325" lon="6.06967">
        <ele>1127</ele>
        <time>2018-05-16T11:08:17Z</time>
      </trkpt>
      <trkpt lat="44.59407" lon="6.06969">
        <ele>1140</ele>
        <time>2018-05-16T11:09:17Z</time>
      </trkpt>
      <trkpt lat="44.5945" lon="6.06982">
        <ele>1146</ele>
        <time>2018-05-16T11:10:17Z</time>
      </trkpt>
      <trkpt lat="44.59415" lon="6.07031">
        <ele>1135</ele>
        <time>2018-05-16T11:11:17Z</time>
      </trkpt>
      <trkpt lat="44.59361" lon="6.07188">
        <ele>1131</ele>
        <time>2018-05-16T11:12:17Z</time>
      </trkpt>
      <trkpt lat="44.59404" lon="6.07321">
        <ele>1133</ele>
        <time>2018-05-16T11:13:17Z</time>
      </trkpt>
      <trkpt lat="44.59511" lon="6.07353">
        <ele>1141</ele>
        <time>2018-05-16T11:14:17Z</time>
      </trkpt>
      <trkpt lat="44.59575" lon="6.07405">
        <ele>1138</ele>
        <time>2018-05-16T11:15:17Z</time>
      </trkpt>
      <trkpt lat="44.59676" lon="6.07424">
        <ele>1140</ele>
        <time>2018-05-16T11:16:17Z</time>
      </trkpt>
      <trkpt lat="44.59755" lon="6.07407">
        <ele>1147</ele>
        <time>2018-05-16T11:17:17Z</time>
      </trkpt>
      <trkpt lat="44.59821" lon="6.07381">
        <ele>1158</ele>
        <time>2018-05-16T11:18:17Z</time>
      </trkpt>
      <trkpt lat="44.59858" lon="6.07486">
        <ele>1155</ele>
        <time>2018-05-16T11:19:17Z</time>
      </trkpt>
      <trkpt lat="44.59895" lon="6.07549">
        <ele>1160</ele>
        <time>2018-05-16T11:20:17Z</time>
      </trkpt>
      <trkpt lat="44.59925" lon="6.07626">
        <ele>1163</ele>
        <time>2018-05-16T11:21:17Z</time>
      </trkpt>
      <trkpt lat="44.5995" lon="6.07626">
        <ele>1169</ele>
        <time>2018-05-16T11:22:17Z</time>
      </trkpt>
      <trkpt lat="44.59957" lon="6.07591">
        <ele>1173</ele>
        <time>2018-05-16T11:23:17Z</time>
      </trkpt>
      <trkpt lat="44.5995" lon="6.07559">
        <ele>1173</ele>
        <time>2018-05-16T11:24:17Z</time>
      </trkpt>
      <trkpt lat="44.59976" lon="6.07514">
        <ele>1181</ele>
        <time>2018-05-16T11:25:17Z</time>
      </trkpt>
      <trkpt lat="44.60075" lon="6.07469">
        <ele>1200</ele>
        <time>2018-05-16T11:26:17Z</time>
      </trkpt>
      <trkpt lat="44.60119" lon="6.0745">
        <ele>1204</ele>
        <time>2018-05-16T11:27:17Z</time>
      </trkpt>
      <trkpt lat="44.60166" lon="6.07409">
        <ele>1210</ele>
        <time>2018-05-16T11:28:17Z</time>
      </trkpt>
      <trkpt lat="44.60235" lon="6.07383">
        <ele>1217</ele>
        <time>2018-05-16T11:29:17Z</time>
      </trkpt>
      <trkpt lat="44.60293" lon="6.07409">
        <ele>1221</ele>
        <time>2018-05-16T11:30:17Z</time>
      </trkpt>
      <trkpt lat="44.60405" lon="6.07521">
        <ele>1230</ele>
        <time>2018-05-16T11:31:17Z</time>
      </trkpt>
      <trkpt lat="44.60539" lon="6.07602">
        <ele>1230</ele>
        <time>2018-05-16T11:32:17Z</time>
      </trkpt>
      <trkpt lat="44.60637" lon="6.07652">
        <ele>1227</ele>
        <time>2018-05-16T11:33:17Z</time>
      </trkpt>
      <trkpt lat="44.60692" lon="6.07658">
        <ele>1228</ele>
        <time>2018-05-16T11:34:17Z</time>
      </trkpt>
      <trkpt lat="44.60658" lon="6.07544">
        <ele>1235</ele>
        <time>2018-05-16T11:35:17Z</time>
      </trkpt>
      <trkpt lat="44.60687" lon="6.07486">
        <ele>1243</ele>
        <time>2018-05-16T11:36:17Z</time>
      </trkpt>
      <trkpt lat="44.60735" lon="6.07452">
        <ele>1249</ele>
        <time>2018-05-16T11:37:17Z</time>
      </trkpt>
      <trkpt lat="44.6072" lon="6.07426">
        <ele>1255</ele>
        <time>2018-05-16T11:38:17Z</time>
      </trkpt>
      <trkpt lat="44.60657" lon="6.07403">
        <ele>1260</ele>
        <time>2018-05-16T11:39:17Z</time>
      </trkpt>
      <trkpt lat="44.6061" lon="6.07381">
        <ele>1265</ele>
        <time>2018-05-16T11:40:17Z</time>
      </trkpt>
      <trkpt lat="44.6059" lon="6.0737">
        <ele>1267</ele>
        <time>2018-05-16T11:41:17Z</time>
      </trkpt>
      <trkpt lat="44.60512" lon="6.0737">
        <ele>1266</ele>
        <time>2018-05-16T11:42:17Z</time>
      </trkpt>
      <trkpt lat="44.60478" lon="6.07358">
        <ele>1265</ele>
        <time>2018-05-16T11:43:17Z</time>
      </trkpt>
      <trkpt lat="44.60449" lon="6.07321">
        <ele>1267</ele>
        <time>2018-05-16T11:44:17Z</time>
      </trkpt>
      <trkpt lat="44.60414" lon="6.07233">
        <ele>1274</ele>
        <time>2018-05-16T11:45:17Z</time>
      </trkpt>
      <trkpt lat="44.60412" lon="6.07162">
        <ele>1279</ele>
        <time>2018-05-16T11:46:17Z</time>
      </trkpt>
      <trkpt lat="44.60356" lon="6.07074">
        <ele>1285</ele>
        <time>2018-05-16T11:47:17Z</time>
      </trkpt>
      <trkpt lat="44.6033" lon="6.0704">
        <ele>1287</ele>
        <time>2018-05-16T11:48:17Z</time>
      </trkpt>
      <trkpt lat="44.60292" lon="6.07008">
        <ele>1289</ele>
        <time>2018-05-16T11:49:17Z</time>
      </trkpt>
      <trkpt lat="44.60241" lon="6.06961">
        <ele>1291</ele>
        <time>2018-05-16T11:50:17Z</time>
      </trkpt>
      <trkpt lat="44.60228" lon="6.06918">
        <ele>1295</ele>
        <time>2018-05-16T11:51:17Z</time>
      </trkpt>
      <trkpt lat="44.60218" lon="6.06851">
        <ele>1303</ele>
        <time>2018-05-16T11:52:17Z</time>
      </trkpt>
      <trkpt lat="44.60206" lon="6.06836">
        <ele>1304</ele>
        <time>2018-05-16T11:53:17Z</time>
      </trkpt>
      <trkpt lat="44.60166" lon="6.06815">
        <ele>1304</ele>
        <time>2018-05-16T11:54:17Z</time>
      </trkpt>
      <trkpt lat="44.60136" lon="6.06795">
        <ele>1304</ele>
        <time>2018-05-16T11:55:17Z</time>
      </trkpt>
      <trkpt lat="44.60119" lon="6.06774">
        <ele>1304</ele>
        <time>2018-05-16T11:56:17Z</time>
      </trkpt>
      <trkpt lat="44.60199" lon="6.06765">
        <ele>1312</ele>
        <time>2018-05-16T11:57:17Z</time>
      </trkpt>
      <trkpt lat="44.60182" lon="6.06596">
        <ele>1326</ele>
        <time>2018-05-16T11:58:17Z</time>
      </trkpt>
      <trkpt lat="44.60188" lon="6.06504">
        <ele>1335</ele>
        <time>2018-05-16T11:59:17Z</time>
      </trkpt>
      <trkpt lat="44.6018" lon="6.06456">
        <ele>1340</ele>
        <time>2018-05-16T12:00:17Z</time>
      </trkpt>
      <trkpt lat="44.60189" lon="6.06379">
        <ele>1353</ele>
        <time>2018-05-16T12:01:17Z</time>
      </trkpt>
      <trkpt lat="44.60218" lon="6.06349">
        <ele>1358</ele>
        <time>2018-05-16T12:02:17Z</time>
      </trkpt>
      <trkpt lat="44.60295" lon="6.0631">
        <ele>1376</ele>
        <time>2018-05-16T12:03:17Z</time>
      </trkpt>
      <trkpt lat="44.60273" lon="6.06289">
        <ele>1377</ele>
        <time>2018-05-16T12:04:17Z</time>
      </trkpt>
      <trkpt lat="44.60122" lon="6.06227">
        <ele>1380</ele>
        <time>2018-05-16T12:05:17Z</time>
      </trkpt>
      <trkpt lat="44.60234" lon="6.0621">
        <ele>1391</ele>
        <time>2018-05-16T12:06:17Z</time>
      </trkpt>
      <trkpt lat="44.60156" lon="6.06123">
        <ele>1411</ele>
        <time>2018-05-16T12:07:17Z</time>
      </trkpt>
      <trkpt lat="44.60289" lon="6.06154">
        <ele>1418</ele>
        <time>2018-05-16T12:08:17Z</time>
      </trkpt>
      <trkpt lat="44.60338" lon="6.06188">
        <ele>1420</ele>
        <time>2018-05-16T12:09:17Z</time>
      </trkpt>
      <trkpt lat="44.60397" lon="6.06195">
        <ele>1430</ele>
        <time>2018-05-16T12:10:17Z</time>
      </trkpt>
      <trkpt lat="44.60495" lon="6.06188">
        <ele>1444</ele>
        <time>2018-05-16T12:11:17Z</time>
      </trkpt>
      <trkpt lat="44.60544" lon="6.06201">
        <ele>1452</ele>
        <time>2018-05-16T12:12:17Z</time>
      </trkpt>
      <trkpt lat="44.60567" lon="6.06253">
        <ele>1445</ele>
        <time>2018-05-16T12:13:17Z</time>
      </trkpt>
      <trkpt lat="44.60642" lon="6.06257">
        <ele>1454</ele>
        <time>2018-05-16T12:14:17Z</time>
      </trkpt>
      <trkpt lat="44.60694" lon="6.06244">
        <ele>1462</ele>
        <time>2018-05-16T12:15:17Z</time>
      </trkpt>
      <trkpt lat="44.60733" lon="6.06231">
        <ele>1468</ele>
        <time>2018-05-16T12:16:17Z</time>
      </trkpt>
      <trkpt lat="44.60817" lon="6.06229">
        <ele>1476</ele>
        <time>2018-05-16T12:17:17Z</time>
      </trkpt>
      <trkpt lat="44.60904" lon="6.0621">
        <ele>1487</ele>
        <time>2018-05-16T12:18:17Z</time>
      </trkpt>
      <trkpt lat="44.60949" lon="6.06171">
        <ele>1496</ele>
        <time>2018-05-16T12:19:17Z</time>
      </trkpt>
      <trkpt lat="44.6092" lon="6.06154">
        <ele>1501</ele>
        <time>2018-05-16T12:20:17Z</time>
      </trkpt>
      <trkpt lat="44.60881" lon="6.06139">
        <ele>1505</ele>
        <time>2018-05-16T12:21:17Z</time>
      </trkpt>
      <trkpt lat="44.60785" lon="6.06092">
        <ele>1516</ele>
        <time>2018-05-16T12:22:17Z</time>
      </trkpt>
      <trkpt lat="44.60697" lon="6.06036">
        <ele>1522</ele>
        <time>2018-05-16T12:23:17Z</time>
      </trkpt>
      <trkpt lat="44.60635" lon="6.06031">
        <ele>1517</ele>
        <time>2018-05-16T12:24:17Z</time>
      </trkpt>
      <trkpt lat="44.60606" lon="6.06019">
        <ele>1516</ele>
        <time>2018-05-16T12:25:17Z</time>
      </trkpt>
      <trkpt lat="44.60561" lon="6.05944">
        <ele>1525</ele>
        <time>2018-05-16T12:26:17Z</time>
      </trkpt>
      <trkpt lat="44.60518" lon="6.05868">
        <ele>1532</ele>
        <time>2018-05-16T12:27:17Z</time>
      </trkpt>
      <trkpt lat="44.60486" lon="6.05845">
        <ele>1531</ele>
        <time>2018-05-16T12:28:17Z</time>
      </trkpt>
      <trkpt lat="44.60469" lon="6.05813">
        <ele>1537</ele>
        <time>2018-05-16T12:29:17Z</time>
      </trkpt>
      <trkpt lat="44.60489" lon="6.05795">
        <ele>1544</ele>
        <time>2018-05-16T12:30:17Z</time>
      </trkpt>
      <trkpt lat="44.60538" lon="6.05817">
        <ele>1548</ele>
        <time>2018-05-16T12:31:17Z</time>
      </trkpt>
      <trkpt lat="44.6057" lon="6.05879">
        <ele>1541</ele>
        <time>2018-05-16T12:32:17Z</time>
      </trkpt>
      <trkpt lat="44.60605" lon="6.05913">
        <ele>1539</ele>
        <time>2018-05-16T12:33:17Z</time>
      </trkpt>
      <trkpt lat="44.60625" lon="6.05909">
        <ele>1543</ele>
        <time>2018-05-16T12:34:17Z</time>
      </trkpt>
      <trkpt lat="44.60683" lon="6.05821">
        <ele>1562</ele>
        <time>2018-05-16T12:35:17Z</time>
      </trkpt>
      <trkpt lat="44.60738" lon="6.05849">
        <ele>1557</ele>
        <time>2018-05-16T12:36:17Z</time>
      </trkpt>
      <trkpt lat="44.60761" lon="6.05815">
        <ele>1561</ele>
        <time>2018-05-16T12:37:17Z</time>
      </trkpt>
      <trkpt lat="44.60744" lon="6.05738">
        <ele>1572</ele>
        <time>2018-05-16T12:38:17Z</time>
      </trkpt>
      <trkpt lat="44.60796" lon="6.05705">
        <ele>1577</ele>
        <time>2018-05-16T12:39:17Z</time>
      </trkpt>
      <trkpt lat="44.60852" lon="6.05652">
        <ele>1586</ele>
        <time>2018-05-16T12:40:17Z</time>
      </trkpt>
      <trkpt lat="44.60929" lon="6.05585">
        <ele>1595</ele>
        <time>2018-05-16T12:41:17Z</time>
      </trkpt>
      <trkpt lat="44.60999" lon="6.05547">
        <ele>1604</ele>
        <time>2018-05-16T12:42:17Z</time>
      </trkpt>
      <trkpt lat="44.61101" lon="6.05467">
        <ele>1617</ele>
        <time>2018-05-16T12:43:17Z</time>
      </trkpt>
      <trkpt lat="44.61201" lon="6.05441">
        <ele>1614</ele>
        <time>2018-05-16T12:44:17Z</time>
      </trkpt>
      <trkpt lat="44.61247" lon="6.05375">
        <ele>1622</ele>
        <time>2018-05-16T12:45:17Z</time>
      </trkpt>
      <trkpt lat="44.61201" lon="6.05418">
        <ele>1620</ele>
        <time>2018-05-16T12:46:17Z</time>
      </trkpt>
      <trkpt lat="44.61175" lon="6.05426">
        <ele>1621</ele>
        <time>2018-05-16T12:47:17Z</time>
      </trkpt>
      <trkpt lat="44.61126" lon="6.05424">
        <ele>1626</ele>
        <time>2018-05-16T12:48:17Z</time>
      </trkpt>
      <trkpt lat="44.61111" lon="6.05394">
        <ele>1636</ele>
        <time>2018-05-16T12:49:17Z</time>
      </trkpt>
      <trkpt lat="44.61124" lon="6.05364">
        <ele>1642</ele>
        <time>2018-05-16T12:50:17Z</time>
      </trkpt>
      <trkpt lat="44.6117" lon="6.05364">
        <ele>1636</ele>
        <time>2018-05-16T12:51:17Z</time>
      </trkpt>
      <trkpt lat="44.61221" lon="6.05313">
        <ele>1640</ele>
        <time>2018-05-16T12:52:17Z</time>
      </trkpt>
      <trkpt lat="44.61259" lon="6.05278">
        <ele>1645</ele>
        <time>2018-05-16T12:53:17Z</time>
      </trkpt>
      <trkpt lat="44.61347" lon="6.05263">
        <ele>1645</ele>
        <time>2018-05-16T12:54:17Z</time>
      </trkpt>
      <trkpt lat="44.61404" lon="6.05212">
        <ele>1661</ele>
        <time>2018-05-16T12:55:17Z</time>
      </trkpt>
      <trkpt lat="44.61457" lon="6.0518">
        <ele>1671</ele>
        <time>2018-05-16T12:56:17Z</time>
      </trkpt>
      <trkpt lat="44.61502" lon="6.05177">
        <ele>1669</ele>
        <time>2018-05-16T12:57:17Z</time>
      </trkpt>
      <trkpt lat="44.61557" lon="6.05156">
        <ele>1675</ele>
        <time>2018-05-16T12:58:17Z</time>
      </trkpt>
      <trkpt lat="44.61602" lon="6.05156">
        <ele>1673</ele>
        <time>2018-05-16T12:59:17Z</time>
      </trkpt>
      <trkpt lat="44.6179" lon="6.05077">
        <ele>1686</ele>
        <time>2018-05-16T13:00:17Z</time>
      </trkpt>
      <trkpt lat="44.619" lon="6.05021">
        <ele>1693</ele>
        <time>2018-05-16T13:01:17Z</time>
      </trkpt>
      <trkpt lat="44.62004" lon="6.04978">
        <ele>1699</ele>
        <time>2018-05-16T13:02:17Z</time>
      </trkpt>
      <trkpt lat="44.62042" lon="6.04946">
        <ele>1704</ele>
        <time>2018-05-16T13:03:17Z</time>
      </trkpt>
      <trkpt lat="44.62131" lon="6.04894">
        <ele>1704</ele>
        <time>2018-05-16T13:04:17Z</time>
      </trkpt>
      <trkpt lat="44.62209" lon="6.04802">
        <ele>1702</ele>
        <time>2018-05-16T13:05:17Z</time>
      </trkpt>
      <trkpt lat="44.6227" lon="6.04791">
        <ele>1697</ele>
        <time>2018-05-16T13:06:17Z</time>
      </trkpt>
      <trkpt lat="44.62322" lon="6.04791">
        <ele>1703</ele>
        <time>2018-05-16T13:07:17Z</time>
      </trkpt>
      <trkpt lat="44.62354" lon="6.04802">
        <ele>1711</ele>
        <time>2018-05-16T13:08:17Z</time>
      </trkpt>
      <trkpt lat="44.62352" lon="6.04995">
        <ele>1685</ele>
        <time>2018-05-16T13:09:17Z</time>
      </trkpt>
      <trkpt lat="44.62392" lon="6.05087">
        <ele>1689</ele>
        <time>2018-05-16T13:10:17Z</time>
      </trkpt>
      <trkpt lat="44.62446" lon="6.05145">
        <ele>1695</ele>
        <time>2018-05-16T13:11:17Z</time>
      </trkpt>
      <trkpt lat="44.62499" lon="6.05319">
        <ele>1690</ele>
        <time>2018-05-16T13:12:17Z</time>
      </trkpt>
      <trkpt lat="44.62494" lon="6.05349">
        <ele>1686</ele>
        <time>2018-05-16T13:13:17Z</time>
      </trkpt>
      <trkpt lat="44.62554" lon="6.05469">
        <ele>1688</ele>
        <time>2018-05-16T13:14:17Z</time>
      </trkpt>
      <trkpt lat="44.62623" lon="6.05512">
        <ele>1687</ele>
        <time>2018-05-16T13:15:17Z</time>
      </trkpt>
      <trkpt lat="44.62681" lon="6.05501">
        <ele>1693</ele>
        <time>2018-05-16T13:16:17Z</time>
      </trkpt>
      <trkpt lat="44.62736" lon="6.0551">
        <ele>1689</ele>
        <time>2018-05-16T13:17:17Z</time>
      </trkpt>
      <trkpt lat="44.62769" lon="6.05544">
        <ele>1677</ele>
        <time>2018-05-16T13:18:17Z</time>
      </trkpt>
      <trkpt lat="44.62844" lon="6.05542">
        <ele>1675</ele>
        <time>2018-05-16T13:19:17Z</time>
      </trkpt>
      <trkpt lat="44.62922" lon="6.05592">
        <ele>1665</ele>
        <time>2018-05-16T13:20:17Z</time>
      </trkpt>
      <trkpt lat="44.62991" lon="6.05564">
        <ele>1671</ele>
        <time>2018-05-16T13:21:17Z</time>
      </trkpt>
      <trkpt lat="44.63038" lon="6.0557">
        <ele>1669</ele>
        <time>2018-05-16T13:22:17Z</time>
      </trkpt>
      <trkpt lat="44.6304" lon="6.0563">
        <ele>1664</ele>
        <time>2018-05-16T13:23:17Z</time>
      </trkpt>
      <trkpt lat="44.63059" lon="6.05692">
        <ele>1657</ele>
        <time>2018-05-16T13:24:17Z</time>
      </trkpt>
      <trkpt lat="44.63053" lon="6.05738">
        <ele>1650</ele>
        <time>2018-05-16T13:25:17Z</time>
      </trkpt>
      <trkpt lat="44.63014" lon="6.05772">
        <ele>1643</ele>
        <time>2018-05-16T13:26:17Z</time>
      </trkpt>
      <trkpt lat="44.62963" lon="6.05783">
        <ele>1631</ele>
        <time>2018-05-16T13:27:17Z</time>
      </trkpt>
      <trkpt lat="44.62943" lon="6.05759">
        <ele>1633</ele>
        <time>2018-05-16T13:28:17Z</time>
      </trkpt>
      <trkpt lat="44.62875" lon="6.05768">
        <ele>1618</ele>
        <time>2018-05-16T13:29:17Z</time>
      </trkpt>
      <trkpt lat="44.62855" lon="6.0572">
        <ele>1627</ele>
        <time>2018-05-16T13:30:17Z</time>
      </trkpt>
      <trkpt lat="44.62771" lon="6.05725">
        <ele>1621</ele>
        <time>2018-05-16T13:31:17Z</time>
      </trkpt>
      <trkpt lat="44.62723" lon="6.05748">
        <ele>1618</ele>
        <time>2018-05-16T13:32:17Z</time>
      </trkpt>
      <trkpt lat="44.62697" lon="6.058">
        <ele>1609</ele>
        <time>2018-05-16T13:33:17Z</time>
      </trkpt>
      <trkpt lat="44.62699" lon="6.05864">
        <ele>1595</ele>
        <time>2018-05-16T13:34:17Z</time>
      </trkpt>
      <trkpt lat="44.62716" lon="6.05922">
        <ele>1583</ele>
        <time>2018-05-16T13:35:17Z</time>
      </trkpt>
      <trkpt lat="44.62756" lon="6.05832">
        <ele>1597</ele>
        <time>2018-05-16T13:36:17Z</time>
      </trkpt>
      <trkpt lat="44.62817" lon="6.05866">
        <ele>1587</ele>
        <time>2018-05-16T13:37:17Z</time>
      </trkpt>
      <trkpt lat="44.62891" lon="6.0595">
        <ele>1577</ele>
        <time>2018-05-16T13:38:17Z</time>
      </trkpt>
      <trkpt lat="44.62896" lon="6.06006">
        <ele>1566</ele>
        <time>2018-05-16T13:39:17Z</time>
      </trkpt>
      <trkpt lat="44.62911" lon="6.06029">
        <ele>1564</ele>
        <time>2018-05-16T13:40:17Z</time>
      </trkpt>
      <trkpt lat="44.62995" lon="6.05999">
        <ele>1572</ele>
        <time>2018-05-16T13:41:17Z</time>
      </trkpt>
      <trkpt lat="44.63116" lon="6.06055">
        <ele>1558</ele>
        <time>2018-05-16T13:42:17Z</time>
      </trkpt>
      <trkpt lat="44.63122" lon="6.06158">
        <ele>1536</ele>
        <time>2018-05-16T13:43:17Z</time>
      </trkpt>
      <trkpt lat="44.63179" lon="6.06195">
        <ele>1535</ele>
        <time>2018-05-16T13:44:17Z</time>
      </trkpt>
      <trkpt lat="44.63208" lon="6.06197">
        <ele>1535</ele>
        <time>2018-05-16T13:45:17Z</time>
      </trkpt>
      <trkpt lat="44.63235" lon="6.06158">
        <ele>1544</ele>
        <time>2018-05-16T13:46:17Z</time>
      </trkpt>
      <trkpt lat="44.63281" lon="6.0619">
        <ele>1544</ele>
        <time>2018-05-16T13:47:17Z</time>
      </trkpt>
      <trkpt lat="44.63264" lon="6.06255">
        <ele>1531</ele>
        <time>2018-05-16T13:48:17Z</time>
      </trkpt>
      <trkpt lat="44.63288" lon="6.0628">
        <ele>1534</ele>
        <time>2018-05-16T13:49:17Z</time>
      </trkpt>
      <trkpt lat="44.63293" lon="6.06373">
        <ele>1523</ele>
        <time>2018-05-16T13:50:17Z</time>
      </trkpt>
      <trkpt lat="44.63346" lon="6.06458">
        <ele>1525</ele>
        <time>2018-05-16T13:51:17Z</time>
      </trkpt>
      <trkpt lat="44.63401" lon="6.06615">
        <ele>1515</ele>
        <time>2018-05-16T13:52:17Z</time>
      </trkpt>
      <trkpt lat="44.63464" lon="6.06733">
        <ele>1511</ele>
        <time>2018-05-16T13:53:17Z</time>
      </trkpt>
      <trkpt lat="44.63522" lon="6.06838">
        <ele>1492</ele>
        <time>2018-05-16T13:54:17Z</time>
      </trkpt>
      <trkpt lat="44.63601" lon="6.06787">
        <ele>1516</ele>
        <time>2018-05-16T13:55:17Z</time>
      </trkpt>
      <trkpt lat="44.63672" lon="6.06731">
        <ele>1520</ele>
        <time>2018-05-16T13:56:17Z</time>
      </trkpt>
      <trkpt lat="44.63754" lon="6.06761">
        <ele>1496</ele>
        <time>2018-05-16T13:57:17Z</time>
      </trkpt>
      <trkpt lat="44.63802" lon="6.06669">
        <ele>1501</ele>
        <time>2018-05-16T13:58:17Z</time>
      </trkpt>
      <trkpt lat="44.63786" lon="6.06609">
        <ele>1507</ele>
        <time>2018-05-16T13:59:17Z</time>
      </trkpt>
      <trkpt lat="44.63759" lon="6.06497">
        <ele>1515</ele>
        <time>2018-05-16T14:00:17Z</time>
      </trkpt>
      <trkpt lat="44.63759" lon="6.06441">
        <ele>1513</ele>
        <time>2018-05-16T14:01:17Z</time>
      </trkpt>
      <trkpt lat="44.63771" lon="6.06377">
        <ele>1507</ele>
        <time>2018-05-16T14:02:17Z</time>
      </trkpt>
      <trkpt lat="44.63798" lon="6.06315">
        <ele>1499</ele>
        <time>2018-05-16T14:03:17Z</time>
      </trkpt>
      <trkpt lat="44.63893" lon="6.0627">
        <ele>1490</ele>
        <time>2018-05-16T14:04:17Z</time>
      </trkpt>
      <trkpt lat="44.63945" lon="6.06235">
        <ele>1495</ele>
        <time>2018-05-16T14:05:17Z</time>
      </trkpt>
      <trkpt lat="44.6396" lon="6.06205">
        <ele>1501</ele>
        <time>2018-05-16T14:06:17Z</time>
      </trkpt>
      <trkpt lat="44.6402" lon="6.06207">
        <ele>1493</ele>
        <time>2018-05-16T14:07:17Z</time>
      </trkpt>
      <trkpt lat="44.64067" lon="6.06177">
        <ele>1494</ele>
        <time>2018-05-16T14:08:17Z</time>
      </trkpt>
      <trkpt lat="44.64125" lon="6.06237">
        <ele>1475</ele>
        <time>2018-05-16T14:09:17Z</time>
      </trkpt>
      <trkpt lat="44.64185" lon="6.06283">
        <ele>1461</ele>
        <time>2018-05-16T14:10:17Z</time>
      </trkpt>
      <trkpt lat="44.64218" lon="6.06246">
        <ele>1465</ele>
        <time>2018-05-16T14:11:17Z</time>
      </trkpt>
      <trkpt lat="44.64249" lon="6.06195">
        <ele>1472</ele>
        <time>2018-05-16T14:12:17Z</time>
      </trkpt>
      <trkpt lat="44.64464" lon="6.06186">
        <ele>1436</ele>
        <time>2018-05-16T14:13:17Z</time>
      </trkpt>
      <trkpt lat="44.64508" lon="6.06188">
        <ele>1426</ele>
        <time>2018-05-16T14:14:17Z</time>
      </trkpt>
      <trkpt lat="44.64559" lon="6.06175">
        <ele>1417</ele>
        <time>2018-05-16T14:15:17Z</time>
      </trkpt>
      <trkpt lat="44.64609" lon="6.06165">
        <ele>1407</ele>
        <time>2018-05-16T14:16:17Z</time>
      </trkpt>
      <trkpt lat="44.64643" lon="6.0613">
        <ele>1407</ele>
        <time>2018-05-16T14:17:17Z</time>
      </trkpt>
      <trkpt lat="44.64689" lon="6.06113">
        <ele>1395</ele>
        <time>2018-05-16T14:18:17Z</time>
      </trkpt>
      <trkpt lat="44.6476" lon="6.06057">
        <ele>1380</ele>
        <time>2018-05-16T14:19:17Z</time>
      </trkpt>
      <trkpt lat="44.6473" lon="6.06143">
        <ele>1374</ele>
        <time>2018-05-16T14:20:17Z</time>
      </trkpt>
      <trkpt lat="44.648" lon="6.06087">
        <ele>1360</ele>
        <time>2018-05-16T14:21:17Z</time>
      </trkpt>
      <trkpt lat="44.64776" lon="6.06218">
        <ele>1348</ele>
        <time>2018-05-16T14:22:17Z</time>
      </trkpt>
      <trkpt lat="44.64751" lon="6.0631">
        <ele>1341</ele>
        <time>2018-05-16T14:23:17Z</time>
      </trkpt>
      <trkpt lat="44.6475" lon="6.06431">
        <ele>1326</ele>
        <time>2018-05-16T14:24:17Z</time>
      </trkpt>
      <trkpt lat="44.64789" lon="6.06478">
        <ele>1316</ele>
        <time>2018-05-16T14:25:17Z</time>
      </trkpt>
      <trkpt lat="44.64834" lon="6.06529">
        <ele>1307</ele>
        <time>2018-05-16T14:26:17Z</time>
      </trkpt>
      <trkpt lat="44.64881" lon="6.06508">
        <ele>1299</ele>
        <time>2018-05-16T14:27:17Z</time>
      </trkpt>
      <trkpt lat="44.64919" lon="6.06413">
        <ele>1298</ele>
        <time>2018-05-16T14:28:17Z</time>
      </trkpt>
      <trkpt lat="44.64963" lon="6.06401">
        <ele>1289</ele>
        <time>2018-05-16T14:29:17Z</time>
      </trkpt>
      <trkpt lat="44.65017" lon="6.06355">
        <ele>1281</ele>
        <time>2018-05-16T14:30:17Z</time>
      </trkpt>
      <trkpt lat="44.64968" lon="6.06446">
        <ele>1285</ele>
        <time>2018-05-16T14:31:17Z</time>
      </trkpt>
      <trkpt lat="44.64956" lon="6.06486">
        <ele>1285</ele>
        <time>2018-05-16T14:32:17Z</time>
      </trkpt>
      <trkpt lat="44.64962" lon="6.06521">
        <ele>1285</ele>
        <time>2018-05-16T14:33:17Z</time>
      </trkpt>
      <trkpt lat="44.65018" lon="6.06553">
        <ele>1279</ele>
        <time>2018-05-16T14:34:17Z</time>
      </trkpt>
      <trkpt lat="44.65078" lon="6.06611">
        <ele>1265</ele>
        <time>2018-05-16T14:35:17Z</time>
      </trkpt>
      <trkpt lat="44.65088" lon="6.06658">
        <ele>1265</ele>
        <time>2018-05-16T14:36:17Z</time>
      </trkpt>
      <trkpt lat="44.65087" lon="6.06703">
        <ele>1262</ele>
        <time>2018-05-16T14:37:17Z</time>
      </trkpt>
      <trkpt lat="44.65099" lon="6.06731">
        <ele>1253</ele>
        <time>2018-05-16T14:38:17Z</time>
      </trkpt>
      <trkpt lat="44.65119" lon="6.06697">
        <ele>1248</ele>
        <time>2018-05-16T14:39:17Z</time>
      </trkpt>
      <trkpt lat="44.65128" lon="6.0657">
        <ele>1243</ele>
        <time>2018-05-16T14:40:17Z</time>
      </trkpt>
      <trkpt lat="44.65102" lon="6.06538">
        <ele>1253</ele>
        <time>2018-05-16T14:41:17Z</time>
      </trkpt>
      <trkpt lat="44.65146" lon="6.06514">
        <ele>1240</ele>
        <time>2018-05-16T14:42:17Z</time>
      </trkpt>
      <trkpt lat="44.65209" lon="6.0654">
        <ele>1221</ele>
        <time>2018-05-16T14:43:17Z</time>
      </trkpt>
      <trkpt lat="44.65238" lon="6.06439">
        <ele>1223</ele>
        <time>2018-05-16T14:44:17Z</time>
      </trkpt>
      <trkpt lat="44.65241" lon="6.0636">
        <ele>1224</ele>
        <time>2018-05-16T14:45:17Z</time>
      </trkpt>
      <trkpt lat="44.65258" lon="6.06325">
        <ele>1224</ele>
        <time>2018-05-16T14:46:17Z</time>
      </trkpt>
      <trkpt lat="44.65302" lon="6.06317">
        <ele>1228</ele>
        <time>2018-05-16T14:47:17Z</time>
      </trkpt>
      <trkpt lat="44.65345" lon="6.06353">
        <ele>1219</ele>
        <time>2018-05-16T14:48:17Z</time>
      </trkpt>
      <trkpt lat="44.65383" lon="6.0639">
        <ele>1211</ele>
        <time>2018-05-16T14:49:17Z</time>
      </trkpt>
      <trkpt lat="44.65455" lon="6.06291">
        <ele>1227</ele>
        <time>2018-05-16T14:50:17Z</time>
      </trkpt>
      <trkpt lat="44.6549" lon="6.06231">
        <ele>1226</ele>
        <time>2018-05-16T14:51:17Z</time>
      </trkpt>
      <trkpt lat="44.65525" lon="6.06143">
        <ele>1225</ele>
        <time>2018-05-16T14:52:17Z</time>
      </trkpt>
      <trkpt lat="44.6558" lon="6.06081">
        <ele>1216</ele>
        <time>2018-05-16T14:53:17Z</time>
      </trkpt>
      <trkpt lat="44.6564" lon="6.06012">
        <ele>1209</ele>
        <time>2018-05-16T14:54:17Z</time>
      </trkpt>
      <trkpt lat="44.65699" lon="6.05963">
        <ele>1195</ele>
        <time>2018-05-16T14:55:17Z</time>
      </trkpt>
      <trkpt lat="44.65731" lon="6.05924">
        <ele>1188</ele>
        <time>2018-05-16T14:56:17Z</time>
      </trkpt>
      <trkpt lat="44.65748" lon="6.05845">
        <ele>1191</ele>
        <time>2018-05-16T14:57:17Z</time>
      </trkpt>
      <trkpt lat="44.6578" lon="6.05909">
        <ele>1184</ele>
        <time>2018-05-16T14:58:17Z</time>
      </trkpt>
      <trkpt lat="44.65792" lon="6.06006">
        <ele>1169</ele>
        <time>2018-05-16T14:59:17Z</time>
      </trkpt>
      <trkpt lat="44.65846" lon="6.06012">
        <ele>1168</ele>
        <time>2018-05-16T15:00:17Z</time>
      </trkpt>
      <trkpt lat="44.65894" lon="6.06038">
        <ele>1166</ele>
        <time>2018-05-16T15:01:17Z</time>
      </trkpt>
      <trkpt lat="44.65951" lon="6.06049">
        <ele>1162</ele>
        <time>2018-05-16T15:02:17Z</time>
      </trkpt>
      <trkpt lat="44.66015" lon="6.06006">
        <ele>1164</ele>
        <time>2018-05-16T15:03:17Z</time>
      </trkpt>
      <trkpt lat="44.6607" lon="6.0595">
        <ele>1165</ele>
        <time>2018-05-16T15:04:17Z</time>
      </trkpt>
      <trkpt lat="44.66137" lon="6.05888">
        <ele>1173</ele>
        <time>2018-05-16T15:05:17Z</time>
      </trkpt>
      <trkpt lat="44.66192" lon="6.0583">
        <ele>1182</ele>
        <time>2018-05-16T15:06:17Z</time>
      </trkpt>
      <trkpt lat="44.66273" lon="6.05774">
        <ele>1197</ele>
        <time>2018-05-16T15:07:17Z</time>
      </trkpt>
      <trkpt lat="44.66314" lon="6.05761">
        <ele>1196</ele>
        <time>2018-05-16T15:08:17Z</time>
      </trkpt>
      <trkpt lat="44.66398" lon="6.05776">
        <ele>1188</ele>
        <time>2018-05-16T15:09:17Z</time>
      </trkpt>
      <trkpt lat="44.66456" lon="6.05748">
        <ele>1190</ele>
        <time>2018-05-16T15:10:17Z</time>
      </trkpt>
      <trkpt lat="44.66513" lon="6.0569">
        <ele>1198</ele>
        <time>2018-05-16T15:11:17Z</time>
      </trkpt>
      <trkpt lat="44.66571" lon="6.05604">
        <ele>1210</ele>
        <time>2018-05-16T15:12:17Z</time>
      </trkpt>
      <trkpt lat="44.66616" lon="6.05602">
        <ele>1206</ele>
        <time>2018-05-16T15:13:17Z</time>
      </trkpt>
      <trkpt lat="44.66673" lon="6.05562">
        <ele>1208</ele>
        <time>2018-05-16T15:14:17Z</time>
      </trkpt>
      <trkpt lat="44.66696" lon="6.05529">
        <ele>1207</ele>
        <time>2018-05-16T15:15:17Z</time>
      </trkpt>
      <trkpt lat="44.6672" lon="6.05536">
        <ele>1198</ele>
        <time>2018-05-16T15:16:17Z</time>
      </trkpt>
      <trkpt lat="44.6674" lon="6.05441">
        <ele>1201</ele>
        <time>2018-05-16T15:17:17Z</time>
      </trkpt>
      <trkpt lat="44.66745" lon="6.05368">
        <ele>1206</ele>
        <time>2018-05-16T15:18:17Z</time>
      </trkpt>
      <trkpt lat="44.66775" lon="6.05308">
        <ele>1215</ele>
        <time>2018-05-16T15:19:17Z</time>
      </trkpt>
      <trkpt lat="44.66859" lon="6.05414">
        <ele>1205</ele>
        <time>2018-05-16T15:20:17Z</time>
      </trkpt>
      <trkpt lat="44.66955" lon="6.05446">
        <ele>1221</ele>
        <time>2018-05-16T15:21:17Z</time>
      </trkpt>
      <trkpt lat="44.67027" lon="6.05476">
        <ele>1226</ele>
        <time>2018-05-16T15:22:17Z</time>
      </trkpt>
      <trkpt lat="44.67115" lon="6.05471">
        <ele>1244</ele>
        <time>2018-05-16T15:23:17Z</time>
      </trkpt>
      <trkpt lat="44.67182" lon="6.05491">
        <ele>1245</ele>
        <time>2018-05-16T15:24:17Z</time>
      </trkpt>
      <trkpt lat="44.67228" lon="6.05525">
        <ele>1241</ele>
        <time>2018-05-16T15:25:17Z</time>
      </trkpt>
      <trkpt lat="44.67289" lon="6.056">
        <ele>1226</ele>
        <time>2018-05-16T15:26:17Z</time>
      </trkpt>
      <trkpt lat="44.67337" lon="6.05594">
        <ele>1226</ele>
        <time>2018-05-16T15:27:17Z</time>
      </trkpt>
      <trkpt lat="44.67385" lon="6.05542">
        <ele>1231</ele>
        <time>2018-05-16T15:28:17Z</time>
      </trkpt>
      <trkpt lat="44.67433" lon="6.05504">
        <ele>1230</ele>
        <time>2018-05-16T15:29:17Z</time>
      </trkpt>
      <trkpt lat="44.67507" lon="6.05465">
        <ele>1219</ele>
        <time>2018-05-16T15:30:17Z</time>
      </trkpt>
      <trkpt lat="44.67576" lon="6.05405">
        <ele>1213</ele>
        <time>2018-05-16T15:31:17Z</time>
      </trkpt>
      <trkpt lat="44.67669" lon="6.05244">
        <ele>1223</ele>
        <time>2018-05-16T15:32:17Z</time>
      </trkpt>
      <trkpt lat="44.67692" lon="6.05208">
        <ele>1229</ele>
        <time>2018-05-16T15:33:17Z</time>
      </trkpt>
      <trkpt lat="44.67729" lon="6.05175">
        <ele>1227</ele>
        <time>2018-05-16T15:34:17Z</time>
      </trkpt>
      <trkpt lat="44.67768" lon="6.04984">
        <ele>1247</ele>
        <time>2018-05-16T15:35:17Z</time>
      </trkpt>
      <trkpt lat="44.67793" lon="6.04933">
        <ele>1246</ele>
        <time>2018-05-16T15:36:17Z</time>
      </trkpt>
      <trkpt lat="44.67816" lon="6.04823">
        <ele>1249</ele>
        <time>2018-05-16T15:37:17Z</time>
      </trkpt>
      <trkpt lat="44.678" lon="6.04811">
        <ele>1252</ele>
        <time>2018-05-16T15:38:17Z</time>
      </trkpt>
      <trkpt lat="44.67755" lon="6.04847">
        <ele>1263</ele>
        <time>2018-05-16T15:39:17Z</time>
      </trkpt>
      <trkpt lat="44.67746" lon="6.04821">
        <ele>1266</ele>
        <time>2018-05-16T15:40:17Z</time>
      </trkpt>
      <trkpt lat="44.67776" lon="6.04785">
        <ele>1257</ele>
        <time>2018-05-16T15:41:17Z</time>
      </trkpt>
      <trkpt lat="44.67828" lon="6.04759">
        <ele>1242</ele>
        <time>2018-05-16T15:42:17Z</time>
      </trkpt>
      <trkpt lat="44.67877" lon="6.04686">
        <ele>1232</ele>
        <time>2018-05-16T15:43:17Z</time>
      </trkpt>
      <trkpt lat="44.67877" lon="6.04641">
        <ele>1234</ele>
        <time>2018-05-16T15:44:17Z</time>
      </trkpt>
      <trkpt lat="44.67912" lon="6.04596">
        <ele>1232</ele>
        <time>2018-05-16T15:45:17Z</time>
      </trkpt>
      <trkpt lat="44.67968" lon="6.04525">
        <ele>1235</ele>
        <time>2018-05-16T15:46:17Z</time>
      </trkpt>
      <trkpt lat="44.68011" lon="6.04459">
        <ele>1238</ele>
        <time>2018-05-16T15:47:17Z</time>
      </trkpt>
      <trkpt lat="44.68052" lon="6.04478">
        <ele>1231</ele>
        <time>2018-05-16T15:48:17Z</time>
      </trkpt>
      <trkpt lat="44.68159" lon="6.04371">
        <ele>1221</ele>
        <time>2018-05-16T15:49:17Z</time>
      </trkpt>
      <trkpt lat="44.68194" lon="6.04306">
        <ele>1215</ele>
        <time>2018-05-16T15:50:17Z</time>
      </trkpt>
      <trkpt lat="44.68267" lon="6.04231">
        <ele>1213</ele>
        <time>2018-05-16T15:51:17Z</time>
      </trkpt>
      <trkpt lat="44.68298" lon="6.04167">
        <ele>1212</ele>
        <time>2018-05-16T15:52:17Z</time>
      </trkpt>
      <trkpt lat="44.68344" lon="6.04113">
        <ele>1210</ele>
        <time>2018-05-16T15:53:17Z</time>
      </trkpt>
      <trkpt lat="44.68388" lon="6.04038">
        <ele>1208</ele>
        <time>2018-05-16T15:54:17Z</time>
      </trkpt>
      <trkpt lat="44.68402" lon="6.03995">
        <ele>1208</ele>
        <time>2018-05-16T15:55:17Z</time>
      </trkpt>
      <trkpt lat="44.6845" lon="6.03935">
        <ele>1200</ele>
        <time>2018-05-16T15:56:17Z</time>
      </trkpt>
      <trkpt lat="44.6851" lon="6.03823">
        <ele>1195</ele>
        <time>2018-05-16T15:57:17Z</time>
      </trkpt>
      <trkpt lat="44.68449" lon="6.03783">
        <ele>1204</ele>
        <time>2018-05-16T15:58:17Z</time>
      </trkpt>
      <trkpt lat="44.6844" lon="6.03748">
        <ele>1207</ele>
        <time>2018-05-16T15:59:17Z</time>
      </trkpt>
      <trkpt lat="44.68487" lon="6.03678">
        <ele>1203</ele>
        <time>2018-05-16T16:00:17Z</time>
      </trkpt>
      <trkpt lat="44.68493" lon="6.03633">
        <ele>1201</ele>
        <time>2018-05-16T16:01:17Z</time>
      </trkpt>
      <trkpt lat="44.68487" lon="6.03581">
        <ele>1200</ele>
        <time>2018-05-16T16:02:17Z</time>
      </trkpt>
      <trkpt lat="44.68441" lon="6.03536">
        <ele>1204</ele>
        <time>2018-05-16T16:03:17Z</time>
      </trkpt>
      <trkpt lat="44.68395" lon="6.03439">
        <ele>1198</ele>
        <time>2018-05-16T16:04:17Z</time>
      </trkpt>
      <trkpt lat="44.68366" lon="6.03416">
        <ele>1200</ele>
        <time>2018-05-16T16:05:17Z</time>
      </trkpt>
      <trkpt lat="44.6828" lon="6.03388">
        <ele>1209</ele>
        <time>2018-05-16T16:06:17Z</time>
      </trkpt>
      <trkpt lat="44.68263" lon="6.03373">
        <ele>1209</ele>
        <time>2018-05-16T16:07:17Z</time>
      </trkpt>
      <trkpt lat="44.68196" lon="6.03214">
        <ele>1206</ele>
        <time>2018-05-16T16:08:17Z</time>
      </trkpt>
      <trkpt lat="44.68191" lon="6.0318">
        <ele>1203</ele>
        <time>2018-05-16T16:09:17Z</time>
      </trkpt>
      <trkpt lat="44.68197" lon="6.03135">
        <ele>1196</ele>
        <time>2018-05-16T16:10:17Z</time>
      </trkpt>
      <trkpt lat="44.68194" lon="6.03083">
        <ele>1190</ele>
        <time>2018-05-16T16:11:17Z</time>
      </trkpt>
      <trkpt lat="44.6822" lon="6.03012">
        <ele>1181</ele>
        <time>2018-05-16T16:12:17Z</time>
      </trkpt>
      <trkpt lat="44.68171" lon="6.02978">
        <ele>1188</ele>
        <time>2018-05-16T16:13:17Z</time>
      </trkpt>
      <trkpt lat="44.68106" lon="6.02924">
        <ele>1205</ele>
        <time>2018-05-16T16:14:17Z</time>
      </trkpt>
      <trkpt lat="44.68147" lon="6.02858">
        <ele>1218</ele>
        <time>2018-05-16T16:15:17Z</time>
      </trkpt>
      <trkpt lat="44.68219" lon="6.02826">
        <ele>1217</ele>
        <time>2018-05-16T16:16:17Z</time>
      </trkpt>
      <trkpt lat="44.68251" lon="6.02798">
        <ele>1219</ele>
        <time>2018-05-16T16:17:17Z</time>
      </trkpt>
      <trkpt lat="44.68287" lon="6.02753">
        <ele>1218</ele>
        <time>2018-05-16T16:18:17Z</time>
      </trkpt>
      <trkpt lat="44.68254" lon="6.02692">
        <ele>1234</ele>
        <time>2018-05-16T16:19:17Z</time>
      </trkpt>
      <trkpt lat="44.68165" lon="6.02534">
        <ele>1253</ele>
        <time>2018-05-16T16:20:17Z</time>
      </trkpt>
      <trkpt lat="44.68332" lon="6.02491">
        <ele>1196</ele>
        <time>2018-05-16T16:21:17Z</time>
      </trkpt>
      <trkpt lat="44.68317" lon="6.02514">
        <ele>1204</ele>
        <time>2018-05-16T16:22:17Z</time>
      </trkpt>
      <trkpt lat="44.68373" lon="6.02418">
        <ele>1173</ele>
        <time>2018-05-16T16:23:17Z</time>
      </trkpt>
      <trkpt lat="44.68353" lon="6.02397">
        <ele>1173</ele>
        <time>2018-05-16T16:24:17Z</time>
      </trkpt>
      <trkpt lat="44.68319" lon="6.02386">
        <ele>1178</ele>
        <time>2018-05-16T16:25:17Z</time>
      </trkpt>
      <trkpt lat="44.6829" lon="6.02285">
        <ele>1163</ele>
        <time>2018-05-16T16:26:17Z</time>
      </trkpt>
      <trkpt lat="44.68395" lon="6.02289">
        <ele>1144</ele>
        <time>2018-05-16T16:27:17Z</time>
      </trkpt>
      <trkpt lat="44.68447" lon="6.02274">
        <ele>1136</ele>
        <time>2018-05-16T16:28:17Z</time>
      </trkpt>
      <trkpt lat="44.68441" lon="6.02223">
        <ele>1132</ele>
        <time>2018-05-16T16:29:17Z</time>
      </trkpt>
      <trkpt lat="44.68395" lon="6.02143">
        <ele>1132</ele>
        <time>2018-05-16T16:30:17Z</time>
      </trkpt>
      <trkpt lat="44.68373" lon="6.02075">
        <ele>1133</ele>
        <time>2018-05-16T16:31:17Z</time>
      </trkpt>
      <trkpt lat="44.6838" lon="6.02017">
        <ele>1133</ele>
        <time>2018-05-16T16:32:17Z</time>
      </trkpt>
      <trkpt lat="44.68347" lon="6.01957">
        <ele>1136</ele>
        <time>2018-05-16T16:33:17Z</time>
      </trkpt>
      <trkpt lat="44.68366" lon="6.01796">
        <ele>1136</ele>
        <time>2018-05-16T16:34:17Z</time>
      </trkpt>
      <trkpt lat="44.68411" lon="6.01573">
        <ele>1136</ele>
        <time>2018-05-16T16:35:17Z</time>
      </trkpt>
      <trkpt lat="44.68412" lon="6.01538">
        <ele>1135</ele>
        <time>2018-05-16T16:36:17Z</time>
      </trkpt>
      <trkpt lat="44.68405" lon="6.01444">
        <ele>1134</ele>
        <time>2018-05-16T16:37:17Z</time>
      </trkpt>
      <trkpt lat="44.68389" lon="6.01397">
        <ele>1135</ele>
        <time>2018-05-16T16:38:17Z</time>
      </trkpt>
      <trkpt lat="44.68366" lon="6.01343">
        <ele>1137</ele>
        <time>2018-05-16T16:39:17Z</time>
      </trkpt>
      <trkpt lat="44.68365" lon="6.01298">
        <ele>1136</ele>
        <time>2018-05-16T16:40:17Z</time>
      </trkpt>
      <trkpt lat="44.68377" lon="6.01246">
        <ele>1135</ele>
        <time>2018-05-16T16:41:17Z</time>
      </trkpt>
      <trkpt lat="44.6842" lon="6.01219">
        <ele>1137</ele>
        <time>2018-05-16T16:42:17Z</time>
      </trkpt>
      <trkpt lat="44.68473" lon="6.01214">
        <ele>1137</ele>
        <time>2018-05-16T16:43:17Z</time>
      </trkpt>
      <trkpt lat="44.68597" lon="6.01249">
        <ele>1129</ele>
        <time>2018-05-16T16:44:17Z</time>
      </trkpt>
      <trkpt lat="44.68647" lon="6.01266">
        <ele>1128</ele>
        <time>2018-05-16T16:45:17Z</time>
      </trkpt>
      <trkpt lat="44.68723" lon="6.01214">
        <ele>1129</ele>
        <time>2018-05-16T16:46:17Z</time>
      </trkpt>
      <trkpt lat="44.68762" lon="6.01158">
        <ele>1133</ele>
        <time>2018-05-16T16:47:17Z</time>
      </trkpt>
      <trkpt lat="44.68777" lon="6.01094">
        <ele>1138</ele>
        <time>2018-05-16T16:48:17Z</time>
      </trkpt>
      <trkpt lat="44.68797" lon="6.00965">
        <ele>1146</ele>
        <time>2018-05-16T16:49:17Z</time>
      </trkpt>
      <trkpt lat="44.68908" lon="6.00933">
        <ele>1150</ele>
        <time>2018-05-16T16:50:17Z</time>
      </trkpt>
      <trkpt lat="44.6903" lon="6.01015">
        <ele>1145</ele>
        <time>2018-05-16T16:51:17Z</time>
      </trkpt>
      <trkpt lat="44.69064" lon="6.01103">
        <ele>1140</ele>
        <time>2018-05-16T16:52:17Z</time>
      </trkpt>
      <trkpt lat="44.69106" lon="6.01171">
        <ele>1142</ele>
        <time>2018-05-16T16:53:17Z</time>
      </trkpt>
      <trkpt lat="44.69148" lon="6.01427">
        <ele>1127</ele>
        <time>2018-05-16T16:54:17Z</time>
      </trkpt>
      <trkpt lat="44.6918" lon="6.01482">
        <ele>1126</ele>
        <time>2018-05-16T16:55:17Z</time>
      </trkpt>
      <trkpt lat="44.69228" lon="6.01525">
        <ele>1126</ele>
        <time>2018-05-16T16:56:17Z</time>
      </trkpt>
      <trkpt lat="44.69302" lon="6.01525">
        <ele>1127</ele>
        <time>2018-05-16T16:57:17Z</time>
      </trkpt>
      <trkpt lat="44.69372" lon="6.01491">
        <ele>1129</ele>
        <time>2018-05-16T16:58:17Z</time>
      </trkpt>
      <trkpt lat="44.69439" lon="6.01448">
        <ele>1125</ele>
        <time>2018-05-16T16:59:17Z</time>
      </trkpt>
      <trkpt lat="44.69454" lon="6.01403">
        <ele>1126</ele>
        <time>2018-05-16T17:00:17Z</time>
      </trkpt>
      <trkpt lat="44.69457" lon="6.01341">
        <ele>1129</ele>
        <time>2018-05-16T17:01:17Z</time>
      </trkpt>
      <trkpt lat="44.69503" lon="6.01294">
        <ele>1128</ele>
        <time>2018-05-16T17:02:17Z</time>
      </trkpt>
      <trkpt lat="44.69558" lon="6.01227">
        <ele>1128</ele>
        <time>2018-05-16T17:03:17Z</time>
      </trkpt>
      <trkpt lat="44.69601" lon="6.01206">
        <ele>1127</ele>
        <time>2018-05-16T17:04:17Z</time>
      </trkpt>
      <trkpt lat="44.69642" lon="6.0118">
        <ele>1128</ele>
        <time>2018-05-16T17:05:17Z</time>
      </trkpt>
      <trkpt lat="44.69746" lon="6.01195">
        <ele>1127</ele>
        <time>2018-05-16T17:06:17Z</time>
      </trkpt>
      <trkpt lat="44.69803" lon="6.01193">
        <ele>1127</ele>
        <time>2018-05-16T17:07:17Z</time>
      </trkpt>
      <trkpt lat="44.69846" lon="6.01216">
        <ele>1125</ele>
        <time>2018-05-16T17:08:17Z</time>
      </trkpt>
      <trkpt lat="44.69939" lon="6.01264">
        <ele>1119</ele>
        <time>2018-05-16T17:09:17Z</time>
      </trkpt>
      <trkpt lat="44.70046" lon="6.01296">
        <ele>1113</ele>
        <time>2018-05-16T17:10:17Z</time>
      </trkpt>
      <trkpt lat="44.70145" lon="6.01328">
        <ele>1113</ele>
        <time>2018-05-16T17:11:17Z</time>
      </trkpt>
      <trkpt lat="44.70202" lon="6.01392">
        <ele>1110</ele>
        <time>2018-05-16T17:12:17Z</time>
      </trkpt>
      <trkpt lat="44.7026" lon="6.01382">
        <ele>1110</ele>
        <time>2018-05-16T17:13:17Z</time>
      </trkpt>
      <trkpt lat="44.70302" lon="6.01384">
        <ele>1106</ele>
        <time>2018-05-16T17:14:17Z</time>
      </trkpt>
      <trkpt lat="44.70374" lon="6.01324">
        <ele>1104</ele>
        <time>2018-05-16T17:15:17Z</time>
      </trkpt>
      <trkpt lat="44.70404" lon="6.01382">
        <ele>1097</ele>
        <time>2018-05-16T17:16:17Z</time>
      </trkpt>
      <trkpt lat="44.70404" lon="6.01377">
        <ele>1097</ele>
        <time>2018-05-16T17:17:17Z</time>
      </trkpt>
      <trkpt lat="44.70427" lon="6.01371">
        <ele>1095</ele>
        <time>2018-05-16T17:18:17Z</time>
      </trkpt>
      <trkpt lat="44.70473" lon="6.01302">
        <ele>1096</ele>
        <time>2018-05-16T17:19:17Z</time>
      </trkpt>
      <trkpt lat="44.70587" lon="6.01309">
        <ele>1089</ele>
        <time>2018-05-16T17:20:17Z</time>
      </trkpt>
      <trkpt lat="44.70757" lon="6.01255">
        <ele>1087</ele>
        <time>2018-05-16T17:21:17Z</time>
      </trkpt>
      <trkpt lat="44.70812" lon="6.01197">
        <ele>1088</ele>
        <time>2018-05-16T17:22:17Z</time>
      </trkpt>
      <trkpt lat="44.70963" lon="6.01161">
        <ele>1083</ele>
        <time>2018-05-16T17:23:17Z</time>
      </trkpt>
      <trkpt lat="44.71013" lon="6.01113">
        <ele>1081</ele>
        <time>2018-05-16T17:24:17Z</time>
      </trkpt>
      <trkpt lat="44.71054" lon="6.01092">
        <ele>1081</ele>
        <time>2018-05-16T17:25:17Z</time>
      </trkpt>
      <trkpt lat="44.71107" lon="6.0104">
        <ele>1082</ele>
        <time>2018-05-16T17:26:17Z</time>
      </trkpt>
      <trkpt lat="44.71146" lon="6.0101">
        <ele>1083</ele>
        <time>2018-05-16T17:27:17Z</time>
      </trkpt>
      <trkpt lat="44.71252" lon="6.00864">
        <ele>1086</ele>
        <time>2018-05-16T17:28:17Z</time>
      </trkpt>
      <trkpt lat="44.71322" lon="6.00779">
        <ele>1081</ele>
        <time>2018-05-16T17:29:17Z</time>
      </trkpt>
      <trkpt lat="44.71347" lon="6.00729">
        <ele>1080</ele>
        <time>2018-05-16T17:30:17Z</time>
      </trkpt>
      <trkpt lat="44.71374" lon="6.00697">
        <ele>1078</ele>
        <time>2018-05-16T17:31:17Z</time>
      </trkpt>
      <trkpt lat="44.71409" lon="6.00624">
        <ele>1078</ele>
        <time>2018-05-16T17:32:17Z</time>
      </trkpt>
      <trkpt lat="44.71501" lon="6.00525">
        <ele>1070</ele>
        <time>2018-05-16T17:33:17Z</time>
      </trkpt>
      <trkpt lat="44.71547" lon="6.00425">
        <ele>1074</ele>
        <time>2018-05-16T17:34:17Z</time>
      </trkpt>
      <trkpt lat="44.71565" lon="6.0039">
        <ele>1073</ele>
        <time>2018-05-16T17:35:17Z</time>
      </trkpt>
      <trkpt lat="44.71542" lon="6.00345">
        <ele>1078</ele>
        <time>2018-05-16T17:36:17Z</time>
      </trkpt>
      <trkpt lat="44.71597" lon="6.00347">
        <ele>1070</ele>
        <time>2018-05-16T17:37:17Z</time>
      </trkpt>
      <trkpt lat="44.71641" lon="6.00386">
        <ele>1067</ele>
        <time>2018-05-16T17:38:17Z</time>
      </trkpt>
      <trkpt lat="44.71701" lon="6.00369">
        <ele>1063</ele>
        <time>2018-05-16T17:39:17Z</time>
      </trkpt>
      <trkpt lat="44.71755" lon="6.00332">
        <ele>1061</ele>
        <time>2018-05-16T17:40:17Z</time>
      </trkpt>
      <trkpt lat="44.71801" lon="6.00343">
        <ele>1059</ele>
        <time>2018-05-16T17:41:17Z</time>
      </trkpt>
      <trkpt lat="44.71861" lon="6.00377">
        <ele>1054</ele>
        <time>2018-05-16T17:42:17Z</time>
      </trkpt>
      <trkpt lat="44.7192" lon="6.00324">
        <ele>1057</ele>
        <time>2018-05-16T17:43:17Z</time>
      </trkpt>
      <trkpt lat="44.71963" lon="6.00296">
        <ele>1053</ele>
        <time>2018-05-16T17:44:17Z</time>
      </trkpt>
      <trkpt lat="44.72031" lon="6.00272">
        <ele>1048</ele>
        <time>2018-05-16T17:45:17Z</time>
      </trkpt>
      <trkpt lat="44.72134" lon="6.00184">
        <ele>1045</ele>
        <time>2018-05-16T17:46:17Z</time>
      </trkpt>
      <trkpt lat="44.72192" lon="6.00086">
        <ele>1042</ele>
        <time>2018-05-16T17:47:17Z</time>
      </trkpt>
      <trkpt lat="44.72249" lon="5.99884">
        <ele>1041</ele>
        <time>2018-05-16T17:48:17Z</time>
      </trkpt>
      <trkpt lat="44.72281" lon="5.99723">
        <ele>1035</ele>
        <time>2018-05-16T17:49:17Z</time>
      </trkpt>
      <trkpt lat="44.72304" lon="5.99639">
        <ele>1033</ele>
        <time>2018-05-16T17:50:17Z</time>
      </trkpt>
      <trkpt lat="44.72329" lon="5.99605">
        <ele>1031</ele>
        <time>2018-05-16T17:51:17Z</time>
      </trkpt>
      <trkpt lat="44.72335" lon="5.99558">
        <ele>1027</ele>
        <time>2018-05-16T17:52:17Z</time>
      </trkpt>
      <trkpt lat="44.72262" lon="5.99242">
        <ele>1055</ele>
        <time>2018-05-16T17:53:17Z</time>
      </trkpt>
      <trkpt lat="44.72304" lon="5.9933">
        <ele>1044</ele>
        <time>2018-05-16T17:54:17Z</time>
      </trkpt>
      <trkpt lat="44.72338" lon="5.99362">
        <ele>1032</ele>
        <time>2018-05-16T17:55:17Z</time>
      </trkpt>
      <trkpt lat="44.72353" lon="5.99427">
        <ele>1025</ele>
        <time>2018-05-16T17:56:17Z</time>
      </trkpt>
      <trkpt lat="44.72393" lon="5.99403">
        <ele>1027</ele>
        <time>2018-05-16T17:57:17Z</time>
      </trkpt>
      <trkpt lat="44.72498" lon="5.99476">
        <ele>1025</ele>
        <time>2018-05-16T17:58:17Z</time>
      </trkpt>
      <trkpt lat="44.72591" lon="5.99429">
        <ele>1028</ele>
        <time>2018-05-16T17:59:17Z</time>
      </trkpt>
      <trkpt lat="44.72681" lon="5.99416">
        <ele>1025</ele>
        <time>2018-05-16T18:00:17Z</time>
      </trkpt>
      <trkpt lat="44.72725" lon="5.99401">
        <ele>1026</ele>
        <time>2018-05-16T18:01:17Z</time>
      </trkpt>
      <trkpt lat="44.7278" lon="5.99405">
        <ele>1021</ele>
        <time>2018-05-16T18:02:17Z</time>
      </trkpt>
      <trkpt lat="44.72815" lon="5.99369">
        <ele>1024</ele>
        <time>2018-05-16T18:03:17Z</time>
      </trkpt>
      <trkpt lat="44.72888" lon="5.9941">
        <ele>1015</ele>
        <time>2018-05-16T18:04:17Z</time>
      </trkpt>
      <trkpt lat="44.72957" lon="5.99377">
        <ele>1021</ele>
        <time>2018-05-16T18:05:17Z</time>
      </trkpt>
      <trkpt lat="44.73021" lon="5.9938">
        <ele>1020</ele>
        <time>2018-05-16T18:06:17Z</time>
      </trkpt>
      <trkpt lat="44.73097" lon="5.99369">
        <ele>1018</ele>
        <time>2018-05-16T18:07:17Z</time>
      </trkpt>
      <trkpt lat="44.7315" lon="5.99347">
        <ele>1016</ele>
        <time>2018-05-16T18:08:17Z</time>
      </trkpt>
      <trkpt lat="44.73208" lon="5.99337">
        <ele>1008</ele>
        <time>2018-05-16T18:09:17Z</time>
      </trkpt>
      <trkpt lat="44.73245" lon="5.99307">
        <ele>1006</ele>
        <time>2018-05-16T18:10:17Z</time>
      </trkpt>
      <trkpt lat="44.73301" lon="5.99305">
        <ele>998</ele>
        <time>2018-05-16T18:11:17Z</time>
      </trkpt>
      <trkpt lat="44.73339" lon="5.99229">
        <ele>997</ele>
        <time>2018-05-16T18:12:17Z</time>
      </trkpt>
      <trkpt lat="44.73385" lon="5.99214">
        <ele>987</ele>
        <time>2018-05-16T18:13:17Z</time>
      </trkpt>
      <trkpt lat="44.73416" lon="5.99184">
        <ele>985</ele>
        <time>2018-05-16T18:14:17Z</time>
      </trkpt>
      <trkpt lat="44.73452" lon="5.99154">
        <ele>979</ele>
        <time>2018-05-16T18:15:17Z</time>
      </trkpt>
      <trkpt lat="44.73439" lon="5.99118">
        <ele>987</ele>
        <time>2018-05-16T18:16:17Z</time>
      </trkpt>
      <trkpt lat="44.73452" lon="5.99038">
        <ele>987</ele>
        <time>2018-05-16T18:17:17Z</time>
      </trkpt>
      <trkpt lat="44.73428" lon="5.98963">
        <ele>991</ele>
        <time>2018-05-16T18:18:17Z</time>
      </trkpt>
      <trkpt lat="44.73454" lon="5.9891">
        <ele>994</ele>
        <time>2018-05-16T18:19:17Z</time>
      </trkpt>
      <trkpt lat="44.73535" lon="5.98996">
        <ele>985</ele>
        <time>2018-05-16T18:20:17Z</time>
      </trkpt>
      <trkpt lat="44.73643" lon="5.99118">
        <ele>990</ele>
        <time>2018-05-16T18:21:17Z</time>
      </trkpt>
      <trkpt lat="44.73673" lon="5.99086">
        <ele>998</ele>
        <time>2018-05-16T18:22:17Z</time>
      </trkpt>
      <trkpt lat="44.73725" lon="5.99088">
        <ele>995</ele>
        <time>2018-05-16T18:23:17Z</time>
      </trkpt>
      <trkpt lat="44.73771" lon="5.99152">
        <ele>989</ele>
        <time>2018-05-16T18:24:17Z</time>
      </trkpt>
      <trkpt lat="44.73859" lon="5.99232">
        <ele>976</ele>
        <time>2018-05-16T18:25:17Z</time>
      </trkpt>
      <trkpt lat="44.73906" lon="5.99206">
        <ele>967</ele>
        <time>2018-05-16T18:26:17Z</time>
      </trkpt>
      <trkpt lat="44.73996" lon="5.9924">
        <ele>958</ele>
        <time>2018-05-16T18:27:17Z</time>
      </trkpt>
      <trkpt lat="44.7406" lon="5.99309">
        <ele>953</ele>
        <time>2018-05-16T18:28:17Z</time>
      </trkpt>
      <trkpt lat="44.74106" lon="5.99322">
        <ele>953</ele>
        <time>2018-05-16T18:29:17Z</time>
      </trkpt>
      <trkpt lat="44.74155" lon="5.99365">
        <ele>947</ele>
        <time>2018-05-16T18:30:17Z</time>
      </trkpt>
      <trkpt lat="44.74228" lon="5.99287">
        <ele>950</ele>
        <time>2018-05-16T18:31:17Z</time>
      </trkpt>
      <trkpt lat="44.74484" lon="5.99146">
        <ele>929</ele>
        <time>2018-05-16T18:32:17Z</time>
      </trkpt>
      <trkpt lat="44.7464" lon="5.99">
        <ele>919</ele>
        <time>2018-05-16T18:33:17Z</time>
      </trkpt>
      <trkpt lat="44.74774" lon="5.9894">
        <ele>918</ele>
        <time>2018-05-16T18:34:17Z</time>
      </trkpt>
      <trkpt lat="44.74981" lon="5.98742">
        <ele>923</ele>
        <time>2018-05-16T18:35:17Z</time>
      </trkpt>
      <trkpt lat="44.75075" lon="5.98665">
        <ele>918</ele>
        <time>2018-05-16T18:36:17Z</time>
      </trkpt>
      <trkpt lat="44.75176" lon="5.98674">
        <ele>914</ele>
        <time>2018-05-16T18:37:17Z</time>
      </trkpt>
      <trkpt lat="44.7527" lon="5.98476">
        <ele>920</ele>
        <time>2018-05-16T18:38:17Z</time>
      </trkpt>
      <trkpt lat="44.75374" lon="5.98412">
        <ele>922</ele>
        <time>2018-05-16T18:39:17Z</time>
      </trkpt>
      <trkpt lat="44.75414" lon="5.98523">
        <ele>914</ele>
        <time>2018-05-16T18:40:17Z</time>
      </trkpt>
      <trkpt lat="44.75392" lon="5.98601">
        <ele>906</ele>
        <time>2018-05-16T18:41:17Z</time>
      </trkpt>
      <trkpt lat="44.75493" lon="5.98579">
        <ele>897</ele>
        <time>2018-05-16T18:42:17Z</time>
      </trkpt>
      <trkpt lat="44.75645" lon="5.98768">
        <ele>882</ele>
        <time>2018-05-16T18:43:17Z</time>
      </trkpt>
      <trkpt lat="44.75618" lon="5.98862">
        <ele>880</ele>
        <time>2018-05-16T18:44:17Z</time>
      </trkpt>
      <trkpt lat="44.75694" lon="5.98841">
        <ele>873</ele>
        <time>2018-05-16T18:45:17Z</time>
      </trkpt>
      <trkpt lat="44.75734" lon="5.98897">
        <ele>863</ele>
        <time>2018-05-16T18:46:17Z</time>
      </trkpt>
      <trkpt lat="44.75807" lon="5.98897">
        <ele>859</ele>
        <time>2018-05-16T18:47:17Z</time>
      </trkpt>
      <trkpt lat="44.75877" lon="5.99004">
        <ele>849</ele>
        <time>2018-05-16T18:48:17Z</time>
      </trkpt>
      <trkpt lat="44.75907" lon="5.98985">
        <ele>849</ele>
        <time>2018-05-16T18:49:17Z</time>
      </trkpt>
      <trkpt lat="44.75955" lon="5.98847">
        <ele>852</ele>
        <time>2018-05-16T18:50:17Z</time>
      </trkpt>
      <trkpt lat="44.75997" lon="5.98762">
        <ele>852</ele>
        <time>2018-05-16T18:51:17Z</time>
      </trkpt>
      <trkpt lat="44.76043" lon="5.98581">
        <ele>857</ele>
        <time>2018-05-16T18:52:17Z</time>
      </trkpt>
      <trkpt lat="44.76069" lon="5.98543">
        <ele>858</ele>
        <time>2018-05-16T18:53:17Z</time>
      </trkpt>
      <trkpt lat="44.76183" lon="5.98459">
        <ele>861</ele>
        <time>2018-05-16T18:54:17Z</time>
      </trkpt>
      <trkpt lat="44.76209" lon="5.98414">
        <ele>866</ele>
        <time>2018-05-16T18:55:17Z</time>
      </trkpt>
      <trkpt lat="44.76288" lon="5.98332">
        <ele>872</ele>
        <time>2018-05-16T18:56:17Z</time>
      </trkpt>
      <trkpt lat="44.76343" lon="5.98139">
        <ele>882</ele>
        <time>2018-05-16T18:57:17Z</time>
      </trkpt>
      <trkpt lat="44.76339" lon="5.9806">
        <ele>882</ele>
        <time>2018-05-16T18:58:17Z</time>
      </trkpt>
      <trkpt lat="44.7634" lon="5.98011">
        <ele>882</ele>
        <time>2018-05-16T18:59:17Z</time>
      </trkpt>
      <trkpt lat="44.76581" lon="5.97708">
        <ele>874</ele>
        <time>2018-05-16T19:00:17Z</time>
      </trkpt>
      <trkpt lat="44.76751" lon="5.97657">
        <ele>876</ele>
        <time>2018-05-16T19:01:17Z</time>
      </trkpt>
      <trkpt lat="44.76878" lon="5.97631">
        <ele>878</ele>
        <time>2018-05-16T19:02:17Z</time>
      </trkpt>
      <trkpt lat="44.76925" lon="5.97571">
        <ele>879</ele>
        <time>2018-05-16T19:03:17Z</time>
      </trkpt>
      <trkpt lat="44.7705" lon="5.97599">
        <ele>872</ele>
        <time>2018-05-16T19:04:17Z</time>
      </trkpt>
      <trkpt lat="44.77119" lon="5.97581">
        <ele>870</ele>
        <time>2018-05-16T19:05:17Z</time>
      </trkpt>
      <trkpt lat="44.77215" lon="5.97569">
        <ele>871</ele>
        <time>2018-05-16T19:06:17Z</time>
      </trkpt>
      <trkpt lat="44.77291" lon="5.97569">
        <ele>873</ele>
        <time>2018-05-16T19:07:17Z</time>
      </trkpt>
      <trkpt lat="44.77382" lon="5.97566">
        <ele>876</ele>
        <time>2018-05-16T19:08:17Z</time>
      </trkpt>
      <trkpt lat="44.77413" lon="5.97646">
        <ele>875</ele>
        <time>2018-05-16T19:09:17Z</time>
      </trkpt>
      <trkpt lat="44.77483" lon="5.97596">
        <ele>878</ele>
        <time>2018-05-16T19:10:17Z</time>
      </trkpt>
      <trkpt lat="44.77548" lon="5.97581">
        <ele>877</ele>
        <time>2018-05-16T19:11:17Z</time>
      </trkpt>
      <trkpt lat="44.77592" lon="5.97485">
        <ele>880</ele>
        <time>2018-05-16T19:12:17Z</time>
      </trkpt>
      <trkpt lat="44.77708" lon="5.9739">
        <ele>871</ele>
        <time>2018-05-16T19:13:17Z</time>
      </trkpt>
      <trkpt lat="44.77801" lon="5.97403">
        <ele>858</ele>
        <time>2018-05-16T19:14:17Z</time>
      </trkpt>
      <trkpt lat="44.77876" lon="5.9741">
        <ele>851</ele>
        <time>2018-05-16T19:15:17Z</time>
      </trkpt>
      <trkpt lat="44.7793" lon="5.97393">
        <ele>849</ele>
        <time>2018-05-16T19:16:17Z</time>
      </trkpt>
      <trkpt lat="44.77978" lon="5.97399">
        <ele>846</ele>
        <time>2018-05-16T19:17:17Z</time>
      </trkpt>
      <trkpt lat="44.78061" lon="5.97373">
        <ele>837</ele>
        <time>2018-05-16T19:18:17Z</time>
      </trkpt>
      <trkpt lat="44.78066" lon="5.97303">
        <ele>846</ele>
        <time>2018-05-16T19:19:17Z</time>
      </trkpt>
      <trkpt lat="44.78122" lon="5.97257">
        <ele>852</ele>
        <time>2018-05-16T19:20:17Z</time>
      </trkpt>
      <trkpt lat="44.78167" lon="5.97238">
        <ele>859</ele>
        <time>2018-05-16T19:21:17Z</time>
      </trkpt>
      <trkpt lat="44.78247" lon="5.97189">
        <ele>878</ele>
        <time>2018-05-16T19:22:17Z</time>
      </trkpt>
      <trkpt lat="44.78381" lon="5.97167">
        <ele>909</ele>
        <time>2018-05-16T19:23:17Z</time>
      </trkpt>
      <trkpt lat="44.78556" lon="5.97264">
        <ele>932</ele>
        <time>2018-05-16T19:24:17Z</time>
      </trkpt>
      <trkpt lat="44.787" lon="5.97277">
        <ele>969</ele>
        <time>2018-05-16T19:25:17Z</time>
      </trkpt>
      <trkpt lat="44.78789" lon="5.97298">
        <ele>972</ele>
        <time>2018-05-16T19:26:17Z</time>
      </trkpt>
      <trkpt lat="44.78838" lon="5.97277">
        <ele>983</ele>
        <time>2018-05-16T19:27:17Z</time>
      </trkpt>
      <trkpt lat="44.78942" lon="5.97178">
        <ele>998</ele>
        <time>2018-05-16T19:28:17Z</time>
      </trkpt>
      <trkpt lat="44.79022" lon="5.97077">
        <ele>1001</ele>
        <time>2018-05-16T19:29:17Z</time>
      </trkpt>
      <trkpt lat="44.79035" lon="5.97021">
        <ele>991</ele>
        <time>2018-05-16T19:30:17Z</time>
      </trkpt>
      <trkpt lat="44.79003" lon="5.96938">
        <ele>994</ele>
        <time>2018-05-16T19:31:17Z</time>
      </trkpt>
      <trkpt lat="44.78946" lon="5.96886">
        <ele>1000</ele>
        <time>2018-05-16T19:32:17Z</time>
      </trkpt>
      <trkpt lat="44.78867" lon="5.9668">
        <ele>978</ele>
        <time>2018-05-16T19:33:17Z</time>
      </trkpt>
      <trkpt lat="44.78812" lon="5.96444">
        <ele>961</ele>
        <time>2018-05-16T19:34:17Z</time>
      </trkpt>
      <trkpt lat="44.78843" lon="5.96309">
        <ele>949</ele>
        <time>2018-05-16T19:35:17Z</time>
      </trkpt>
      <trkpt lat="44.78907" lon="5.96358">
        <ele>934</ele>
        <time>2018-05-16T19:36:17Z</time>
      </trkpt>
      <trkpt lat="44.78969" lon="5.96388">
        <ele>923</ele>
        <time>2018-05-16T19:37:17Z</time>
      </trkpt>
      <trkpt lat="44.7901" lon="5.96386">
        <ele>915</ele>
        <time>2018-05-16T19:38:17Z</time>
      </trkpt>
      <trkpt lat="44.79051" lon="5.96361">
        <ele>905</ele>
        <time>2018-05-16T19:39:17Z</time>
      </trkpt>
      <trkpt lat="44.79129" lon="5.96358">
        <ele>892</ele>
        <time>2018-05-16T19:40:17Z</time>
      </trkpt>
      <trkpt lat="44.79195" lon="5.96363">
        <ele>880</ele>
        <time>2018-05-16T19:41:17Z</time>
      </trkpt>
      <trkpt lat="44.79284" lon="5.96322">
        <ele>861</ele>
        <time>2018-05-16T19:42:17Z</time>
      </trkpt>
      <trkpt lat="44.79309" lon="5.96313">
        <ele>857</ele>
        <time>2018-05-16T19:43:17Z</time>
      </trkpt>
      <trkpt lat="44.7935" lon="5.96341">
        <ele>850</ele>
        <time>2018-05-16T19:44:17Z</time>
      </trkpt>
      <trkpt lat="44.79364" lon="5.96376">
        <ele>844</ele>
        <time>2018-05-16T19:45:17Z</time>
      </trkpt>
      <trkpt lat="44.79364" lon="5.96453">
        <ele>841</ele>
        <time>2018-05-16T19:46:17Z</time>
      </trkpt>
      <trkpt lat="44.79449" lon="5.96446">
        <ele>804</ele>
        <time>2018-05-16T19:47:17Z</time>
      </trkpt>
      <trkpt lat="44.7944" lon="5.96539">
        <ele>800</ele>
        <time>2018-05-16T19:48:17Z</time>
      </trkpt>
      <trkpt lat="44.79411" lon="5.96661">
        <ele>804</ele>
        <time>2018-05-16T19:49:17Z</time>
      </trkpt>
      <trkpt lat="44.79414" lon="5.96809">
        <ele>800</ele>
        <time>2018-05-16T19:50:17Z</time>
      </trkpt>
      <trkpt lat="44.79441" lon="5.96843">
        <ele>792</ele>
        <time>2018-05-16T19:51:17Z</time>
      </trkpt>
      <trkpt lat="44.7949" lon="5.96854">
        <ele>778</ele>
        <time>2018-05-16T19:52:17Z</time>
      </trkpt>
      <trkpt lat="44.7951" lon="5.96845">
        <ele>778</ele>
        <time>2018-05-16T19:53:17Z</time>
      </trkpt>
      <trkpt lat="44.79555" lon="5.96895">
        <ele>794</ele>
        <time>2018-05-16T19:54:17Z</time>
      </trkpt>
      <trkpt lat="44.796" lon="5.96882">
        <ele>808</ele>
        <time>2018-05-16T19:55:17Z</time>
      </trkpt>
      <trkpt lat="44.79651" lon="5.96893">
        <ele>823</ele>
        <time>2018-05-16T19:56:17Z</time>
      </trkpt>
      <trkpt lat="44.79717" lon="5.96925">
        <ele>843</ele>
        <time>2018-05-16T19:57:17Z</time>
      </trkpt>
      <trkpt lat="44.79732" lon="5.96873">
        <ele>842</ele>
        <time>2018-05-16T19:58:17Z</time>
      </trkpt>
      <trkpt lat="44.79773" lon="5.96833">
        <ele>845</ele>
        <time>2018-05-16T19:59:17Z</time>
      </trkpt>
      <trkpt lat="44.79799" lon="5.96747">
        <ele>838</ele>
        <time>2018-05-16T20:00:17Z</time>
      </trkpt>
      <trkpt lat="44.79869" lon="5.96624">
        <ele>836</ele>
        <time>2018-05-16T20:01:17Z</time>
      </trkpt>
      <trkpt lat="44.79893" lon="5.96526">
        <ele>833</ele>
        <time>2018-05-16T20:02:17Z</time>
      </trkpt>
      <trkpt lat="44.79893" lon="5.96386">
        <ele>819</ele>
        <time>2018-05-16T20:03:17Z</time>
      </trkpt>
      <trkpt lat="44.79942" lon="5.96311">
        <ele>817</ele>
        <time>2018-05-16T20:04:17Z</time>
      </trkpt>
      <trkpt lat="44.79963" lon="5.96255">
        <ele>810</ele>
        <time>2018-05-16T20:05:17Z</time>
      </trkpt>
      <trkpt lat="44.79974" lon="5.962">
        <ele>799</ele>
        <time>2018-05-16T20:06:17Z</time>
      </trkpt>
      <trkpt lat="44.80008" lon="5.96165">
        <ele>804</ele>
        <time>2018-05-16T20:07:17Z</time>
      </trkpt>
      <trkpt lat="44.80053" lon="5.96034">
        <ele>793</ele>
        <time>2018-05-16T20:08:17Z</time>
      </trkpt>
      <trkpt lat="44.80116" lon="5.95809">
        <ele>801</ele>
        <time>2018-05-16T20:09:17Z</time>
      </trkpt>
      <trkpt lat="44.80107" lon="5.95779">
        <ele>794</ele>
        <time>2018-05-16T20:10:17Z</time>
      </trkpt>
      <trkpt lat="44.80113" lon="5.95749">
        <ele>798</ele>
        <time>2018-05-16T20:11:17Z</time>
      </trkpt>
      <trkpt lat="44.80091" lon="5.95706">
        <ele>784</ele>
        <time>2018-05-16T20:12:17Z</time>
      </trkpt>
      <trkpt lat="44.80097" lon="5.95637">
        <ele>791</ele>
        <time>2018-05-16T20:13:17Z</time>
      </trkpt>
      <trkpt lat="44.80082" lon="5.95517">
        <ele>783</ele>
        <time>2018-05-16T20:14:17Z</time>
      </trkpt>
      <trkpt lat="44.80094" lon="5.95511">
        <ele>789</ele>
        <time>2018-05-16T20:15:17Z</time>
      </trkpt>
      <trkpt lat="44.80105" lon="5.95472">
        <ele>789</ele>
        <time>2018-05-16T20:16:17Z</time>
      </trkpt>
      <trkpt lat="44.80131" lon="5.9544">
        <ele>794</ele>
        <time>2018-05-16T20:17:17Z</time>
      </trkpt>
      <trkpt lat="44.80186" lon="5.95468">
        <ele>817</ele>
        <time>2018-05-16T20:18:17Z</time>
      </trkpt>
      <trkpt lat="44.80236" lon="5.9553">
        <ele>839</ele>
        <time>2018-05-16T20:19:17Z</time>
      </trkpt>
      <trkpt lat="44.80279" lon="5.95502">
        <ele>841</ele>
        <time>2018-05-16T20:20:17Z</time>
      </trkpt>
      <trkpt lat="44.80282" lon="5.95472">
        <ele>835</ele>
        <time>2018-05-16T20:21:17Z</time>
      </trkpt>
      <trkpt lat="44.80286" lon="5.95438">
        <ele>828</ele>
        <time>2018-05-16T20:22:17Z</time>
      </trkpt>
      <trkpt lat="44.80273" lon="5.95401">
        <ele>814</ele>
        <time>2018-05-16T20:23:17Z</time>
      </trkpt>
      <trkpt lat="44.80286" lon="5.9538">
        <ele>813</ele>
        <time>2018-05-16T20:24:17Z</time>
      </trkpt>
      <trkpt lat="44.80333" lon="5.95373">
        <ele>828</ele>
        <time>2018-05-16T20:25:17Z</time>
      </trkpt>
      <trkpt lat="44.80397" lon="5.95453">
        <ele>859</ele>
        <time>2018-05-16T20:26:17Z</time>
      </trkpt>
      <trkpt lat="44.80405" lon="5.95391">
        <ele>843</ele>
        <time>2018-05-16T20:27:17Z</time>
      </trkpt>
      <trkpt lat="44.80443" lon="5.95341">
        <ele>842</ele>
        <time>2018-05-16T20:28:17Z</time>
      </trkpt>
      <trkpt lat="44.80451" lon="5.95249">
        <ele>813</ele>
        <time>2018-05-16T20:29:17Z</time>
      </trkpt>
      <trkpt lat="44.8047" lon="5.95195">
        <ele>796</ele>
        <time>2018-05-16T20:30:17Z</time>
      </trkpt>
      <trkpt lat="44.80501" lon="5.95178">
        <ele>799</ele>
        <time>2018-05-16T20:31:17Z</time>
      </trkpt>
      <trkpt lat="44.80484" lon="5.95142">
        <ele>781</ele>
        <time>2018-05-16T20:32:17Z</time>
      </trkpt>
      <trkpt lat="44.80525" lon="5.95155">
        <ele>799</ele>
        <time>2018-05-16T20:33:17Z</time>
      </trkpt>
      <trkpt lat="44.80513" lon="5.95114">
        <ele>780</ele>
        <time>2018-05-16T20:34:17Z</time>
      </trkpt>
      <trkpt lat="44.80632" lon="5.9506">
        <ele>812</ele>
        <time>2018-05-16T20:35:17Z</time>
      </trkpt>
      <trkpt lat="44.80661" lon="5.95077">
        <ele>833</ele>
        <time>2018-05-16T20:36:17Z</time>
      </trkpt>
      <trkpt lat="44.80671" lon="5.95007">
        <ele>812</ele>
        <time>2018-05-16T20:37:17Z</time>
      </trkpt>
      <trkpt lat="44.80717" lon="5.94955">
        <ele>815</ele>
        <time>2018-05-16T20:38:17Z</time>
      </trkpt>
      <trkpt lat="44.80693" lon="5.94949">
        <ele>800</ele>
        <time>2018-05-16T20:39:17Z</time>
      </trkpt>
      <trkpt lat="44.8072" lon="5.94912">
        <ele>800</ele>
        <time>2018-05-16T20:40:17Z</time>
      </trkpt>
      <trkpt lat="44.80678" lon="5.94929">
        <ele>785</ele>
        <time>2018-05-16T20:41:17Z</time>
      </trkpt>
      <trkpt lat="44.80713" lon="5.94891">
        <ele>790</ele>
        <time>2018-05-16T20:42:17Z</time>
      </trkpt>
      <trkpt lat="44.80671" lon="5.94897">
        <ele>772</ele>
        <time>2018-05-16T20:43:17Z</time>
      </trkpt>
      <trkpt lat="44.80728" lon="5.94848">
        <ele>782</ele>
        <time>2018-05-16T20:44:17Z</time>
      </trkpt>
      <trkpt lat="44.80833" lon="5.94773">
        <ele>786</ele>
        <time>2018-05-16T20:45:17Z</time>
      </trkpt>
      <trkpt lat="44.80897" lon="5.94779">
        <ele>801</ele>
        <time>2018-05-16T20:46:17Z</time>
      </trkpt>
      <trkpt lat="44.81028" lon="5.947">
        <ele>810</ele>
        <time>2018-05-16T20:47:17Z</time>
      </trkpt>
      <trkpt lat="44.81119" lon="5.94738">
        <ele>846</ele>
        <time>2018-05-16T20:48:17Z</time>
      </trkpt>
      <trkpt lat="44.81145" lon="5.94749">
        <ele>854</ele>
        <time>2018-05-16T20:49:17Z</time>
      </trkpt>
      <trkpt lat="44.81154" lon="5.94716">
        <ele>842</ele>
        <time>2018-05-16T20:50:17Z</time>
      </trkpt>
      <trkpt lat="44.81159" lon="5.94747">
        <ele>855</ele>
        <time>2018-05-16T20:51:17Z</time>
      </trkpt>
      <trkpt lat="44.81168" lon="5.94754">
        <ele>859</ele>
        <time>2018-05-16T20:52:17Z</time>
      </trkpt>
      <trkpt lat="44.81191" lon="5.94746">
        <ele>862</ele>
        <time>2018-05-16T20:53:17Z</time>
      </trkpt>
      <trkpt lat="44.81206" lon="5.94732">
        <ele>861</ele>
        <time>2018-05-16T20:54:17Z</time>
      </trkpt>
      <trkpt lat="44.81318" lon="5.94625">
        <ele>861</ele>
        <time>2018-05-16T20:55:17Z</time>
      </trkpt>
      <trkpt lat="44.81244" lon="5.94541">
        <ele>826</ele>
        <time>2018-05-16T20:56:17Z</time>
      </trkpt>
      <trkpt lat="44.81387" lon="5.94442">
        <ele>844</ele>
        <time>2018-05-16T20:57:17Z</time>
      </trkpt>
      <trkpt lat="44.81369" lon="5.94335">
        <ele>825</ele>
        <time>2018-05-16T20:58:17Z</time>
      </trkpt>
      <trkpt lat="44.81423" lon="5.94275">
        <ele>836</ele>
        <time>2018-05-16T20:59:17Z</time>
      </trkpt>
      <trkpt lat="44.81439" lon="5.94232">
        <ele>833</ele>
        <time>2018-05-16T21:00:17Z</time>
      </trkpt>
      <trkpt lat="44.81498" lon="5.94097">
        <ele>822</ele>
        <time>2018-05-16T21:01:17Z</time>
      </trkpt>
      <trkpt lat="44.81553" lon="5.94099">
        <ele>823</ele>
        <time>2018-05-16T21:02:17Z</time>
      </trkpt>
    </trkseg>
  </trk>
</gpx>